<?xml version="1.0" encoding="UTF-8" standalone="no" ?>
<gpx xmlns="http://www.topografix.com/GPX/1/1" xmlns:xsi="http://www.w3.org/2001/XMLSchema-instance" xsi:schemaLocation="http://www.topografix.com/GPX/1/1 http://www.topografix.com/GPX/1/1/gpx.xsd" version="1.1" creator="VisuGPX - https://www.visugpx.com">
  <metadata>
    <name>Des Mouettes aux Cigales 2021</name>
  </metadata>
  <trk>
    <name><![CDATA[Étape 4 : Chateaudun - Orléans]]></name>
    <extensions>
      <line xmlns="http://www.topografix.com/GPX/gpx_style/0/2">
        <color>FFFF00</color>
        <width>4</width>
      </line>
    </extensions>
    <trkseg>
      <trkpt lat="48.08014" lon="1.33188">
        <ele>106.734712</ele>
        <time>2021-09-08T07:24:55.000Z</time>
      </trkpt>
      <trkpt lat="48.08009" lon="1.33191">
        <ele>106.734712</ele>
        <time>2021-09-08T07:24:59.000Z</time>
      </trkpt>
      <trkpt lat="48.08006" lon="1.3319">
        <ele>106.734712</ele>
        <time>2021-09-08T07:25:00.000Z</time>
      </trkpt>
      <trkpt lat="48.07989" lon="1.33181">
        <ele>106.734712</ele>
        <time>2021-09-08T07:25:05.000Z</time>
      </trkpt>
      <trkpt lat="48.07974" lon="1.33171">
        <ele>106.734712</ele>
        <time>2021-09-08T07:25:09.000Z</time>
      </trkpt>
      <trkpt lat="48.07965" lon="1.33167">
        <ele>106.734712</ele>
        <time>2021-09-08T07:25:11.000Z</time>
      </trkpt>
      <trkpt lat="48.07956" lon="1.33162">
        <ele>106.734712</ele>
        <time>2021-09-08T07:25:13.000Z</time>
      </trkpt>
      <trkpt lat="48.07944" lon="1.33157">
        <ele>106.734712</ele>
        <time>2021-09-08T07:25:16.000Z</time>
      </trkpt>
      <trkpt lat="48.07932" lon="1.3315">
        <ele>106.734712</ele>
        <time>2021-09-08T07:25:19.000Z</time>
      </trkpt>
      <trkpt lat="48.07924" lon="1.33146">
        <ele>106.739681</ele>
        <time>2021-09-08T07:25:21.000Z</time>
      </trkpt>
      <trkpt lat="48.0792" lon="1.33144">
        <ele>106.743808</ele>
        <time>2021-09-08T07:25:22.000Z</time>
      </trkpt>
      <trkpt lat="48.0789" lon="1.33127">
        <ele>106.775942</ele>
        <time>2021-09-08T07:25:29.000Z</time>
      </trkpt>
      <trkpt lat="48.07865" lon="1.33115">
        <ele>106.802871</ele>
        <time>2021-09-08T07:25:35.000Z</time>
      </trkpt>
      <trkpt lat="48.07835" lon="1.33104">
        <ele>106.833016</ele>
        <time>2021-09-08T07:25:41.000Z</time>
      </trkpt>
      <trkpt lat="48.07822" lon="1.33099">
        <ele>106.847245</ele>
        <time>2021-09-08T07:25:44.000Z</time>
      </trkpt>
      <trkpt lat="48.07807" lon="1.33094">
        <ele>106.86239</ele>
        <time>2021-09-08T07:25:47.000Z</time>
      </trkpt>
      <trkpt lat="48.07782" lon="1.33088">
        <ele>106.887362</ele>
        <time>2021-09-08T07:25:52.000Z</time>
      </trkpt>
      <trkpt lat="48.07772" lon="1.33085">
        <ele>106.897522</ele>
        <time>2021-09-08T07:25:54.000Z</time>
      </trkpt>
      <trkpt lat="48.07744" lon="1.33076">
        <ele>106.938386</ele>
        <time>2021-09-08T07:26:00.000Z</time>
      </trkpt>
      <trkpt lat="48.0774" lon="1.33073">
        <ele>106.94844</ele>
        <time>2021-09-08T07:26:01.000Z</time>
      </trkpt>
      <trkpt lat="48.07726" lon="1.33063">
        <ele>106.980025</ele>
        <time>2021-09-08T07:26:04.000Z</time>
      </trkpt>
      <trkpt lat="48.07688" lon="1.33033">
        <ele>107.07013</ele>
        <time>2021-09-08T07:26:12.000Z</time>
      </trkpt>
      <trkpt lat="48.0766" lon="1.32999">
        <ele>107.145273</ele>
        <time>2021-09-08T07:26:18.000Z</time>
      </trkpt>
      <trkpt lat="48.07636" lon="1.32961">
        <ele>107.218327</ele>
        <time>2021-09-08T07:26:24.000Z</time>
      </trkpt>
      <trkpt lat="48.07621" lon="1.32935">
        <ele>107.267124</ele>
        <time>2021-09-08T07:26:28.000Z</time>
      </trkpt>
      <trkpt lat="48.07613" lon="1.32922">
        <ele>107.291615</ele>
        <time>2021-09-08T07:26:30.000Z</time>
      </trkpt>
      <trkpt lat="48.07591" lon="1.32882">
        <ele>107.387223</ele>
        <time>2021-09-08T07:26:36.000Z</time>
      </trkpt>
      <trkpt lat="48.0758" lon="1.32862">
        <ele>107.433497</ele>
        <time>2021-09-08T07:26:39.000Z</time>
      </trkpt>
      <trkpt lat="48.07569" lon="1.32843">
        <ele>107.48051</ele>
        <time>2021-09-08T07:26:42.000Z</time>
      </trkpt>
      <trkpt lat="48.07554" lon="1.32816">
        <ele>107.545154</ele>
        <time>2021-09-08T07:26:46.000Z</time>
      </trkpt>
      <trkpt lat="48.07539" lon="1.32789">
        <ele>107.608965</ele>
        <time>2021-09-08T07:26:50.000Z</time>
      </trkpt>
      <trkpt lat="48.0753" lon="1.32766">
        <ele>107.658096</ele>
        <time>2021-09-08T07:26:53.000Z</time>
      </trkpt>
      <trkpt lat="48.07521" lon="1.32742">
        <ele>107.707906</ele>
        <time>2021-09-08T07:26:56.000Z</time>
      </trkpt>
      <trkpt lat="48.07514" lon="1.32728">
        <ele>107.740284</ele>
        <time>2021-09-08T07:26:58.000Z</time>
      </trkpt>
      <trkpt lat="48.07507" lon="1.32714">
        <ele>107.772163</ele>
        <time>2021-09-08T07:27:00.000Z</time>
      </trkpt>
      <trkpt lat="48.075" lon="1.32698">
        <ele>107.784093</ele>
        <time>2021-09-08T07:27:02.000Z</time>
      </trkpt>
      <trkpt lat="48.07483" lon="1.32659">
        <ele>107.786996</ele>
        <time>2021-09-08T07:27:07.000Z</time>
      </trkpt>
      <trkpt lat="48.0748" lon="1.32651">
        <ele>107.787574</ele>
        <time>2021-09-08T07:27:08.000Z</time>
      </trkpt>
      <trkpt lat="48.07467" lon="1.32618">
        <ele>107.789965</ele>
        <time>2021-09-08T07:27:12.000Z</time>
      </trkpt>
      <trkpt lat="48.07464" lon="1.3261">
        <ele>107.790551</ele>
        <time>2021-09-08T07:27:13.000Z</time>
      </trkpt>
      <trkpt lat="48.07444" lon="1.32561">
        <ele>107.794045</ele>
        <time>2021-09-08T07:27:19.000Z</time>
      </trkpt>
      <trkpt lat="48.07427" lon="1.32508">
        <ele>107.797726</ele>
        <time>2021-09-08T07:27:26.000Z</time>
      </trkpt>
      <trkpt lat="48.07424" lon="1.32501">
        <ele>107.79821</ele>
        <time>2021-09-08T07:27:27.000Z</time>
      </trkpt>
      <trkpt lat="48.07414" lon="1.32483">
        <ele>107.799665</ele>
        <time>2021-09-08T07:27:30.000Z</time>
      </trkpt>
      <trkpt lat="48.0741" lon="1.32477">
        <ele>107.801841</ele>
        <time>2021-09-08T07:27:31.000Z</time>
      </trkpt>
      <trkpt lat="48.07407" lon="1.32471">
        <ele>107.807255</ele>
        <time>2021-09-08T07:27:32.000Z</time>
      </trkpt>
      <trkpt lat="48.07397" lon="1.32448">
        <ele>107.824606</ele>
        <time>2021-09-08T07:27:35.000Z</time>
      </trkpt>
      <trkpt lat="48.07385" lon="1.3241">
        <ele>107.852268</ele>
        <time>2021-09-08T07:27:40.000Z</time>
      </trkpt>
      <trkpt lat="48.07382" lon="1.32402">
        <ele>107.857828</ele>
        <time>2021-09-08T07:27:41.000Z</time>
      </trkpt>
      <trkpt lat="48.07369" lon="1.32353">
        <ele>107.892143</ele>
        <time>2021-09-08T07:27:47.000Z</time>
      </trkpt>
      <trkpt lat="48.07367" lon="1.32345">
        <ele>107.897742</ele>
        <time>2021-09-08T07:27:48.000Z</time>
      </trkpt>
      <trkpt lat="48.07357" lon="1.32313">
        <ele>107.920926</ele>
        <time>2021-09-08T07:27:52.000Z</time>
      </trkpt>
      <trkpt lat="48.07353" lon="1.32297">
        <ele>107.932147</ele>
        <time>2021-09-08T07:27:54.000Z</time>
      </trkpt>
      <trkpt lat="48.07349" lon="1.32271">
        <ele>107.949038</ele>
        <time>2021-09-08T07:27:57.000Z</time>
      </trkpt>
      <trkpt lat="48.07348" lon="1.32263">
        <ele>107.954682</ele>
        <time>2021-09-08T07:27:58.000Z</time>
      </trkpt>
      <trkpt lat="48.07341" lon="1.32222">
        <ele>108.018017</ele>
        <time>2021-09-08T07:28:03.000Z</time>
      </trkpt>
      <trkpt lat="48.07335" lon="1.32187">
        <ele>108.161085</ele>
        <time>2021-09-08T07:28:08.000Z</time>
      </trkpt>
      <trkpt lat="48.07334" lon="1.32182">
        <ele>108.179763</ele>
        <time>2021-09-08T07:28:12.000Z</time>
      </trkpt>
      <trkpt lat="48.07332" lon="1.32181">
        <ele>108.191082</ele>
        <time>2021-09-08T07:28:16.000Z</time>
      </trkpt>
      <trkpt lat="48.07327" lon="1.32181">
        <ele>108.222266</ele>
        <time>2021-09-08T07:28:18.000Z</time>
      </trkpt>
      <trkpt lat="48.07308" lon="1.32188">
        <ele>108.339651</ele>
        <time>2021-09-08T07:28:23.000Z</time>
      </trkpt>
      <trkpt lat="48.07285" lon="1.32196">
        <ele>108.474176</ele>
        <time>2021-09-08T07:28:28.000Z</time>
      </trkpt>
      <trkpt lat="48.07281" lon="1.32198">
        <ele>108.498691</ele>
        <time>2021-09-08T07:28:29.000Z</time>
      </trkpt>
      <trkpt lat="48.07259" lon="1.32213">
        <ele>108.640624</ele>
        <time>2021-09-08T07:28:34.000Z</time>
      </trkpt>
      <trkpt lat="48.07229" lon="1.3223">
        <ele>108.830704</ele>
        <time>2021-09-08T07:28:40.000Z</time>
      </trkpt>
      <trkpt lat="48.07198" lon="1.32245">
        <ele>109.020946</ele>
        <time>2021-09-08T07:28:46.000Z</time>
      </trkpt>
      <trkpt lat="48.07172" lon="1.3225">
        <ele>109.306177</ele>
        <time>2021-09-08T07:28:52.000Z</time>
      </trkpt>
      <trkpt lat="48.07142" lon="1.32257">
        <ele>109.658545</ele>
        <time>2021-09-08T07:28:59.000Z</time>
      </trkpt>
      <trkpt lat="48.07122" lon="1.32262">
        <ele>109.885536</ele>
        <time>2021-09-08T07:29:03.000Z</time>
      </trkpt>
      <trkpt lat="48.07116" lon="1.32261">
        <ele>109.954019</ele>
        <time>2021-09-08T07:29:04.000Z</time>
      </trkpt>
      <trkpt lat="48.0711" lon="1.3226">
        <ele>110.025263</ele>
        <time>2021-09-08T07:29:05.000Z</time>
      </trkpt>
      <trkpt lat="48.07086" lon="1.32251">
        <ele>110.309438</ele>
        <time>2021-09-08T07:29:09.000Z</time>
      </trkpt>
      <trkpt lat="48.07067" lon="1.32245">
        <ele>110.529618</ele>
        <time>2021-09-08T07:29:13.000Z</time>
      </trkpt>
      <trkpt lat="48.07063" lon="1.32246">
        <ele>110.577778</ele>
        <time>2021-09-08T07:29:14.000Z</time>
      </trkpt>
      <trkpt lat="48.07046" lon="1.32251">
        <ele>110.778059</ele>
        <time>2021-09-08T07:29:19.000Z</time>
      </trkpt>
      <trkpt lat="48.07041" lon="1.32251">
        <ele>110.829483</ele>
        <time>2021-09-08T07:29:21.000Z</time>
      </trkpt>
      <trkpt lat="48.07038" lon="1.32255">
        <ele>110.875255</ele>
        <time>2021-09-08T07:29:23.000Z</time>
      </trkpt>
      <trkpt lat="48.07034" lon="1.32254">
        <ele>110.913784</ele>
        <time>2021-09-08T07:29:25.000Z</time>
      </trkpt>
      <trkpt lat="48.07033" lon="1.32251">
        <ele>110.937445</ele>
        <time>2021-09-08T07:29:27.000Z</time>
      </trkpt>
      <trkpt lat="48.07033" lon="1.32251">
        <ele>110.937445</ele>
        <time>2021-09-08T07:29:28.000Z</time>
      </trkpt>
      <trkpt lat="48.07025" lon="1.32246">
        <ele>111.036727</ele>
        <time>2021-09-08T07:29:40.000Z</time>
      </trkpt>
      <trkpt lat="48.07023" lon="1.32245">
        <ele>111.067834</ele>
        <time>2021-09-08T07:29:42.000Z</time>
      </trkpt>
      <trkpt lat="48.07011" lon="1.32244">
        <ele>111.344202</ele>
        <time>2021-09-08T07:29:49.000Z</time>
      </trkpt>
      <trkpt lat="48.07006" lon="1.32243">
        <ele>111.480791</ele>
        <time>2021-09-08T07:29:53.000Z</time>
      </trkpt>
      <trkpt lat="48.07004" lon="1.32243">
        <ele>111.520425</ele>
        <time>2021-09-08T07:29:54.000Z</time>
      </trkpt>
      <trkpt lat="48.06992" lon="1.32244">
        <ele>111.83445</ele>
        <time>2021-09-08T07:29:59.000Z</time>
      </trkpt>
      <trkpt lat="48.06973" lon="1.32244">
        <ele>112.309257</ele>
        <time>2021-09-08T07:30:04.000Z</time>
      </trkpt>
      <trkpt lat="48.06955" lon="1.32242">
        <ele>112.775101</ele>
        <time>2021-09-08T07:30:09.000Z</time>
      </trkpt>
      <trkpt lat="48.06942" lon="1.3224">
        <ele>113.120544</ele>
        <time>2021-09-08T07:30:14.000Z</time>
      </trkpt>
      <trkpt lat="48.06923" lon="1.32241">
        <ele>113.597976</ele>
        <time>2021-09-08T07:30:21.000Z</time>
      </trkpt>
      <trkpt lat="48.0691" lon="1.32243">
        <ele>113.923621</ele>
        <time>2021-09-08T07:30:25.000Z</time>
      </trkpt>
      <trkpt lat="48.06891" lon="1.32246">
        <ele>114.430037</ele>
        <time>2021-09-08T07:30:31.000Z</time>
      </trkpt>
      <trkpt lat="48.06875" lon="1.32259">
        <ele>114.885465</ele>
        <time>2021-09-08T07:30:36.000Z</time>
      </trkpt>
      <trkpt lat="48.06861" lon="1.32276">
        <ele>115.357021</ele>
        <time>2021-09-08T07:30:41.000Z</time>
      </trkpt>
      <trkpt lat="48.06845" lon="1.32307">
        <ele>116.021828</ele>
        <time>2021-09-08T07:30:48.000Z</time>
      </trkpt>
      <trkpt lat="48.06838" lon="1.32326">
        <ele>116.37894</ele>
        <time>2021-09-08T07:30:52.000Z</time>
      </trkpt>
      <trkpt lat="48.06834" lon="1.32347">
        <ele>116.739115</ele>
        <time>2021-09-08T07:30:56.000Z</time>
      </trkpt>
      <trkpt lat="48.0683" lon="1.32363">
        <ele>117.034257</ele>
        <time>2021-09-08T07:31:00.000Z</time>
      </trkpt>
      <trkpt lat="48.06828" lon="1.32372">
        <ele>117.18648</ele>
        <time>2021-09-08T07:31:04.000Z</time>
      </trkpt>
      <trkpt lat="48.06826" lon="1.32378">
        <ele>117.300806</ele>
        <time>2021-09-08T07:31:06.000Z</time>
      </trkpt>
      <trkpt lat="48.06825" lon="1.32383">
        <ele>117.395462</ele>
        <time>2021-09-08T07:31:08.000Z</time>
      </trkpt>
      <trkpt lat="48.0682" lon="1.32397">
        <ele>117.653326</ele>
        <time>2021-09-08T07:31:12.000Z</time>
      </trkpt>
      <trkpt lat="48.06813" lon="1.32414">
        <ele>117.988111</ele>
        <time>2021-09-08T07:31:17.000Z</time>
      </trkpt>
      <trkpt lat="48.06807" lon="1.32433">
        <ele>118.341108</ele>
        <time>2021-09-08T07:31:22.000Z</time>
      </trkpt>
      <trkpt lat="48.06795" lon="1.32461">
        <ele>118.897731</ele>
        <time>2021-09-08T07:31:28.000Z</time>
      </trkpt>
      <trkpt lat="48.0679" lon="1.32492">
        <ele>119.429344</ele>
        <time>2021-09-08T07:31:34.000Z</time>
      </trkpt>
      <trkpt lat="48.06789" lon="1.32525">
        <ele>119.988011</ele>
        <time>2021-09-08T07:31:40.000Z</time>
      </trkpt>
      <trkpt lat="48.06789" lon="1.32552">
        <ele>120.242609</ele>
        <time>2021-09-08T07:31:45.000Z</time>
      </trkpt>
      <trkpt lat="48.06798" lon="1.32603">
        <ele>120.42635</ele>
        <time>2021-09-08T07:31:54.000Z</time>
      </trkpt>
      <trkpt lat="48.06808" lon="1.3264">
        <ele>120.569739</ele>
        <time>2021-09-08T07:32:01.000Z</time>
      </trkpt>
      <trkpt lat="48.06818" lon="1.3268">
        <ele>120.722548</ele>
        <time>2021-09-08T07:32:09.000Z</time>
      </trkpt>
      <trkpt lat="48.06828" lon="1.32718">
        <ele>120.86555</ele>
        <time>2021-09-08T07:32:16.000Z</time>
      </trkpt>
      <trkpt lat="48.06833" lon="1.32753">
        <ele>120.993122</ele>
        <time>2021-09-08T07:32:22.000Z</time>
      </trkpt>
      <trkpt lat="48.06833" lon="1.32783">
        <ele>121.100274</ele>
        <time>2021-09-08T07:32:27.000Z</time>
      </trkpt>
      <trkpt lat="48.06832" lon="1.32789">
        <ele>121.121665</ele>
        <time>2021-09-08T07:32:28.000Z</time>
      </trkpt>
      <trkpt lat="48.06829" lon="1.32801">
        <ele>121.232078</ele>
        <time>2021-09-08T07:32:30.000Z</time>
      </trkpt>
      <trkpt lat="48.06826" lon="1.32813">
        <ele>121.397998</ele>
        <time>2021-09-08T07:32:32.000Z</time>
      </trkpt>
      <trkpt lat="48.06823" lon="1.32824">
        <ele>121.562964</ele>
        <time>2021-09-08T07:32:34.000Z</time>
      </trkpt>
      <trkpt lat="48.0682" lon="1.32836">
        <ele>121.734001</ele>
        <time>2021-09-08T07:32:36.000Z</time>
      </trkpt>
      <trkpt lat="48.06818" lon="1.32848">
        <ele>121.898202</ele>
        <time>2021-09-08T07:32:38.000Z</time>
      </trkpt>
      <trkpt lat="48.06809" lon="1.32884">
        <ele>122.410052</ele>
        <time>2021-09-08T07:32:44.000Z</time>
      </trkpt>
      <trkpt lat="48.06799" lon="1.32928">
        <ele>123.035553</ele>
        <time>2021-09-08T07:32:52.000Z</time>
      </trkpt>
      <trkpt lat="48.06794" lon="1.3296">
        <ele>123.481713</ele>
        <time>2021-09-08T07:32:58.000Z</time>
      </trkpt>
      <trkpt lat="48.06796" lon="1.32991">
        <ele>123.899776</ele>
        <time>2021-09-08T07:33:04.000Z</time>
      </trkpt>
      <trkpt lat="48.06796" lon="1.33016">
        <ele>124.235081</ele>
        <time>2021-09-08T07:33:10.000Z</time>
      </trkpt>
      <trkpt lat="48.07075" lon="1.33333">
        <ele>140.297149</ele>
        <time>2021-09-08T07:36:38.000Z</time>
      </trkpt>
      <trkpt lat="48.0708" lon="1.33368">
        <ele>141.334765</ele>
        <time>2021-09-08T07:36:44.000Z</time>
      </trkpt>
      <trkpt lat="48.07086" lon="1.3342">
        <ele>141.743983</ele>
        <time>2021-09-08T07:36:52.000Z</time>
      </trkpt>
      <trkpt lat="48.07087" lon="1.3344">
        <ele>141.709533</ele>
        <time>2021-09-08T07:36:55.000Z</time>
      </trkpt>
      <trkpt lat="48.07089" lon="1.3346">
        <ele>141.672658</ele>
        <time>2021-09-08T07:36:58.000Z</time>
      </trkpt>
      <trkpt lat="48.07097" lon="1.33515">
        <ele>141.574379</ele>
        <time>2021-09-08T07:37:05.000Z</time>
      </trkpt>
      <trkpt lat="48.07106" lon="1.33593">
        <ele>141.436452</ele>
        <time>2021-09-08T07:37:15.000Z</time>
      </trkpt>
      <trkpt lat="48.07115" lon="1.33659">
        <ele>141.319855</ele>
        <time>2021-09-08T07:37:24.000Z</time>
      </trkpt>
      <trkpt lat="48.07118" lon="1.33705">
        <ele>141.246629</ele>
        <time>2021-09-08T07:37:32.000Z</time>
      </trkpt>
      <trkpt lat="48.07121" lon="1.33719">
        <ele>141.223286</ele>
        <time>2021-09-08T07:37:37.000Z</time>
      </trkpt>
      <trkpt lat="48.07121" lon="1.33719">
        <ele>141.222501</ele>
        <time>2021-09-08T07:37:38.000Z</time>
      </trkpt>
      <trkpt lat="48.07121" lon="1.33724">
        <ele>141.214139</ele>
        <time>2021-09-08T07:38:04.000Z</time>
      </trkpt>
      <trkpt lat="48.07121" lon="1.3373">
        <ele>141.20471</ele>
        <time>2021-09-08T07:38:06.000Z</time>
      </trkpt>
      <trkpt lat="48.07125" lon="1.33759">
        <ele>141.157829</ele>
        <time>2021-09-08T07:38:13.000Z</time>
      </trkpt>
      <trkpt lat="48.07128" lon="1.33787">
        <ele>141.113156</ele>
        <time>2021-09-08T07:38:19.000Z</time>
      </trkpt>
      <trkpt lat="48.07131" lon="1.33822">
        <ele>141.055719</ele>
        <time>2021-09-08T07:38:26.000Z</time>
      </trkpt>
      <trkpt lat="48.07136" lon="1.33858">
        <ele>140.998007</ele>
        <time>2021-09-08T07:38:33.000Z</time>
      </trkpt>
      <trkpt lat="48.07137" lon="1.33876">
        <ele>140.969503</ele>
        <time>2021-09-08T07:38:36.000Z</time>
      </trkpt>
      <trkpt lat="48.0714" lon="1.33895">
        <ele>140.938252</ele>
        <time>2021-09-08T07:38:39.000Z</time>
      </trkpt>
      <trkpt lat="48.07146" lon="1.33945">
        <ele>140.644785</ele>
        <time>2021-09-08T07:38:46.000Z</time>
      </trkpt>
      <trkpt lat="48.07152" lon="1.33998">
        <ele>140.209128</ele>
        <time>2021-09-08T07:38:52.000Z</time>
      </trkpt>
      <trkpt lat="48.07161" lon="1.34076">
        <ele>139.560525</ele>
        <time>2021-09-08T07:39:00.000Z</time>
      </trkpt>
      <trkpt lat="48.07163" lon="1.34096">
        <ele>139.391878</ele>
        <time>2021-09-08T07:39:02.000Z</time>
      </trkpt>
      <trkpt lat="48.07168" lon="1.34135">
        <ele>139.06845</ele>
        <time>2021-09-08T07:39:06.000Z</time>
      </trkpt>
      <trkpt lat="48.07177" lon="1.34215">
        <ele>138.159069</ele>
        <time>2021-09-08T07:39:14.000Z</time>
      </trkpt>
      <trkpt lat="48.07186" lon="1.34295">
        <ele>136.922604</ele>
        <time>2021-09-08T07:39:22.000Z</time>
      </trkpt>
      <trkpt lat="48.07191" lon="1.34341">
        <ele>136.224847</ele>
        <time>2021-09-08T07:39:27.000Z</time>
      </trkpt>
      <trkpt lat="48.07193" lon="1.34367">
        <ele>135.826824</ele>
        <time>2021-09-08T07:39:30.000Z</time>
      </trkpt>
      <trkpt lat="48.07196" lon="1.34394">
        <ele>135.41016</ele>
        <time>2021-09-08T07:39:33.000Z</time>
      </trkpt>
      <trkpt lat="48.07202" lon="1.34443">
        <ele>134.652306</ele>
        <time>2021-09-08T07:39:39.000Z</time>
      </trkpt>
      <trkpt lat="48.07203" lon="1.34457">
        <ele>134.468349</ele>
        <time>2021-09-08T07:39:43.000Z</time>
      </trkpt>
      <trkpt lat="48.07203" lon="1.34459">
        <ele>134.44743</ele>
        <time>2021-09-08T07:39:46.000Z</time>
      </trkpt>
      <trkpt lat="48.07203" lon="1.34462">
        <ele>134.399262</ele>
        <time>2021-09-08T07:40:03.000Z</time>
      </trkpt>
      <trkpt lat="48.07207" lon="1.34492">
        <ele>134.016058</ele>
        <time>2021-09-08T07:40:08.000Z</time>
      </trkpt>
      <trkpt lat="48.07214" lon="1.3455">
        <ele>133.250111</ele>
        <time>2021-09-08T07:40:16.000Z</time>
      </trkpt>
      <trkpt lat="48.07219" lon="1.34605">
        <ele>132.543616</ele>
        <time>2021-09-08T07:40:23.000Z</time>
      </trkpt>
      <trkpt lat="48.07225" lon="1.34661">
        <ele>131.812953</ele>
        <time>2021-09-08T07:40:30.000Z</time>
      </trkpt>
      <trkpt lat="48.07231" lon="1.34733">
        <ele>131.083214</ele>
        <time>2021-09-08T07:40:39.000Z</time>
      </trkpt>
      <trkpt lat="48.0724" lon="1.34815">
        <ele>130.769593</ele>
        <time>2021-09-08T07:40:49.000Z</time>
      </trkpt>
      <trkpt lat="48.07248" lon="1.34888">
        <ele>130.489296</ele>
        <time>2021-09-08T07:40:58.000Z</time>
      </trkpt>
      <trkpt lat="48.07251" lon="1.3491">
        <ele>130.406709</ele>
        <time>2021-09-08T07:41:01.000Z</time>
      </trkpt>
      <trkpt lat="48.07252" lon="1.3493">
        <ele>130.328042</ele>
        <time>2021-09-08T07:41:04.000Z</time>
      </trkpt>
      <trkpt lat="48.07254" lon="1.34945">
        <ele>130.271443</ele>
        <time>2021-09-08T07:41:06.000Z</time>
      </trkpt>
      <trkpt lat="48.07256" lon="1.34968">
        <ele>130.185054</ele>
        <time>2021-09-08T07:41:09.000Z</time>
      </trkpt>
      <trkpt lat="48.0726" lon="1.35016">
        <ele>129.993913</ele>
        <time>2021-09-08T07:41:15.000Z</time>
      </trkpt>
      <trkpt lat="48.07253" lon="1.35066">
        <ele>129.794694</ele>
        <time>2021-09-08T07:41:21.000Z</time>
      </trkpt>
      <trkpt lat="48.07252" lon="1.35074">
        <ele>129.761494</ele>
        <time>2021-09-08T07:41:22.000Z</time>
      </trkpt>
      <trkpt lat="48.0725" lon="1.3509">
        <ele>129.698198</ele>
        <time>2021-09-08T07:41:24.000Z</time>
      </trkpt>
      <trkpt lat="48.07249" lon="1.35105">
        <ele>129.634994</ele>
        <time>2021-09-08T07:41:26.000Z</time>
      </trkpt>
      <trkpt lat="48.07247" lon="1.35113">
        <ele>129.602319</ele>
        <time>2021-09-08T07:41:27.000Z</time>
      </trkpt>
      <trkpt lat="48.0724" lon="1.35127">
        <ele>129.532578</ele>
        <time>2021-09-08T07:41:29.000Z</time>
      </trkpt>
      <trkpt lat="48.0722" lon="1.35176">
        <ele>129.3084</ele>
        <time>2021-09-08T07:41:35.000Z</time>
      </trkpt>
      <trkpt lat="48.07196" lon="1.35256">
        <ele>129.045331</ele>
        <time>2021-09-08T07:41:44.000Z</time>
      </trkpt>
      <trkpt lat="48.07178" lon="1.35319">
        <ele>128.954127</ele>
        <time>2021-09-08T07:41:52.000Z</time>
      </trkpt>
      <trkpt lat="48.07164" lon="1.35366">
        <ele>128.88643</ele>
        <time>2021-09-08T07:41:59.000Z</time>
      </trkpt>
      <trkpt lat="48.07145" lon="1.35428">
        <ele>128.796636</ele>
        <time>2021-09-08T07:42:09.000Z</time>
      </trkpt>
      <trkpt lat="48.07127" lon="1.35486">
        <ele>128.704919</ele>
        <time>2021-09-08T07:42:19.000Z</time>
      </trkpt>
      <trkpt lat="48.07114" lon="1.35526">
        <ele>128.62586</ele>
        <time>2021-09-08T07:42:26.000Z</time>
      </trkpt>
      <trkpt lat="48.07109" lon="1.35536">
        <ele>128.603352</ele>
        <time>2021-09-08T07:42:28.000Z</time>
      </trkpt>
      <trkpt lat="48.07106" lon="1.35541">
        <ele>128.591527</ele>
        <time>2021-09-08T07:42:29.000Z</time>
      </trkpt>
      <trkpt lat="48.07099" lon="1.35566">
        <ele>128.542793</ele>
        <time>2021-09-08T07:42:33.000Z</time>
      </trkpt>
      <trkpt lat="48.07082" lon="1.35619">
        <ele>128.439119</ele>
        <time>2021-09-08T07:42:41.000Z</time>
      </trkpt>
      <trkpt lat="48.07066" lon="1.35667">
        <ele>128.343336</ele>
        <time>2021-09-08T07:42:48.000Z</time>
      </trkpt>
      <trkpt lat="48.07062" lon="1.35681">
        <ele>128.317295</ele>
        <time>2021-09-08T07:42:50.000Z</time>
      </trkpt>
      <trkpt lat="48.07058" lon="1.35695">
        <ele>128.289956</ele>
        <time>2021-09-08T07:42:52.000Z</time>
      </trkpt>
      <trkpt lat="48.07039" lon="1.35754">
        <ele>128.093066</ele>
        <time>2021-09-08T07:43:00.000Z</time>
      </trkpt>
      <trkpt lat="48.07022" lon="1.35808">
        <ele>127.881235</ele>
        <time>2021-09-08T07:43:07.000Z</time>
      </trkpt>
      <trkpt lat="48.07018" lon="1.35823">
        <ele>127.82195</ele>
        <time>2021-09-08T07:43:09.000Z</time>
      </trkpt>
      <trkpt lat="48.07011" lon="1.35845">
        <ele>127.736742</ele>
        <time>2021-09-08T07:43:12.000Z</time>
      </trkpt>
      <trkpt lat="48.07001" lon="1.35882">
        <ele>127.590826</ele>
        <time>2021-09-08T07:43:17.000Z</time>
      </trkpt>
      <trkpt lat="48.06998" lon="1.3589">
        <ele>127.560746</ele>
        <time>2021-09-08T07:43:18.000Z</time>
      </trkpt>
      <trkpt lat="48.06978" lon="1.35961">
        <ele>127.287219</ele>
        <time>2021-09-08T07:43:27.000Z</time>
      </trkpt>
      <trkpt lat="48.06963" lon="1.36014">
        <ele>127.198215</ele>
        <time>2021-09-08T07:43:34.000Z</time>
      </trkpt>
      <trkpt lat="48.06954" lon="1.36042">
        <ele>127.149556</ele>
        <time>2021-09-08T07:43:38.000Z</time>
      </trkpt>
      <trkpt lat="48.06948" lon="1.36053">
        <ele>127.12572</ele>
        <time>2021-09-08T07:43:40.000Z</time>
      </trkpt>
      <trkpt lat="48.0692" lon="1.36092">
        <ele>127.036554</ele>
        <time>2021-09-08T07:43:47.000Z</time>
      </trkpt>
      <trkpt lat="48.06889" lon="1.36136">
        <ele>126.936999</ele>
        <time>2021-09-08T07:43:55.000Z</time>
      </trkpt>
      <trkpt lat="48.06883" lon="1.36146">
        <ele>126.915412</ele>
        <time>2021-09-08T07:43:57.000Z</time>
      </trkpt>
      <trkpt lat="48.0688" lon="1.36156">
        <ele>126.898476</ele>
        <time>2021-09-08T07:43:59.000Z</time>
      </trkpt>
      <trkpt lat="48.06877" lon="1.3618">
        <ele>126.876322</ele>
        <time>2021-09-08T07:44:04.000Z</time>
      </trkpt>
      <trkpt lat="48.06877" lon="1.36186">
        <ele>126.883616</ele>
        <time>2021-09-08T07:44:05.000Z</time>
      </trkpt>
      <trkpt lat="48.0688" lon="1.36197">
        <ele>126.89939</ele>
        <time>2021-09-08T07:44:07.000Z</time>
      </trkpt>
      <trkpt lat="48.06885" lon="1.36216">
        <ele>126.925162</ele>
        <time>2021-09-08T07:44:10.000Z</time>
      </trkpt>
      <trkpt lat="48.06887" lon="1.36229">
        <ele>126.94299</ele>
        <time>2021-09-08T07:44:12.000Z</time>
      </trkpt>
      <trkpt lat="48.06887" lon="1.36236">
        <ele>126.952315</ele>
        <time>2021-09-08T07:44:13.000Z</time>
      </trkpt>
      <trkpt lat="48.06886" lon="1.36243">
        <ele>126.961512</ele>
        <time>2021-09-08T07:44:14.000Z</time>
      </trkpt>
      <trkpt lat="48.06881" lon="1.36273">
        <ele>127.001099</ele>
        <time>2021-09-08T07:44:18.000Z</time>
      </trkpt>
      <trkpt lat="48.06867" lon="1.36324">
        <ele>127.073072</ele>
        <time>2021-09-08T07:44:25.000Z</time>
      </trkpt>
      <trkpt lat="48.06846" lon="1.36388">
        <ele>127.165505</ele>
        <time>2021-09-08T07:44:34.000Z</time>
      </trkpt>
      <trkpt lat="48.06837" lon="1.36423">
        <ele>127.214003</ele>
        <time>2021-09-08T07:44:39.000Z</time>
      </trkpt>
      <trkpt lat="48.06835" lon="1.36438">
        <ele>127.24817</ele>
        <time>2021-09-08T07:44:41.000Z</time>
      </trkpt>
      <trkpt lat="48.06823" lon="1.36478">
        <ele>127.362176</ele>
        <time>2021-09-08T07:44:47.000Z</time>
      </trkpt>
      <trkpt lat="48.06802" lon="1.36547">
        <ele>127.557268</ele>
        <time>2021-09-08T07:44:57.000Z</time>
      </trkpt>
      <trkpt lat="48.06781" lon="1.36615">
        <ele>127.753064</ele>
        <time>2021-09-08T07:45:07.000Z</time>
      </trkpt>
      <trkpt lat="48.06766" lon="1.36673">
        <ele>127.911899</ele>
        <time>2021-09-08T07:45:15.000Z</time>
      </trkpt>
      <trkpt lat="48.06745" lon="1.36744">
        <ele>128.047008</ele>
        <time>2021-09-08T07:45:25.000Z</time>
      </trkpt>
      <trkpt lat="48.06725" lon="1.36815">
        <ele>128.179135</ele>
        <time>2021-09-08T07:45:35.000Z</time>
      </trkpt>
      <trkpt lat="48.06702" lon="1.36891">
        <ele>128.323311</ele>
        <time>2021-09-08T07:45:46.000Z</time>
      </trkpt>
      <trkpt lat="48.067" lon="1.36898">
        <ele>128.33627</ele>
        <time>2021-09-08T07:45:47.000Z</time>
      </trkpt>
      <trkpt lat="48.06676" lon="1.36977">
        <ele>128.411909</ele>
        <time>2021-09-08T07:45:58.000Z</time>
      </trkpt>
      <trkpt lat="48.06655" lon="1.37048">
        <ele>128.455572</ele>
        <time>2021-09-08T07:46:08.000Z</time>
      </trkpt>
      <trkpt lat="48.06637" lon="1.37106">
        <ele>128.491703</ele>
        <time>2021-09-08T07:46:16.000Z</time>
      </trkpt>
      <trkpt lat="48.06619" lon="1.37165">
        <ele>128.527423</ele>
        <time>2021-09-08T07:46:24.000Z</time>
      </trkpt>
      <trkpt lat="48.06598" lon="1.37232">
        <ele>128.501658</ele>
        <time>2021-09-08T07:46:33.000Z</time>
      </trkpt>
      <trkpt lat="48.06576" lon="1.37306">
        <ele>128.473263</ele>
        <time>2021-09-08T07:46:43.000Z</time>
      </trkpt>
      <trkpt lat="48.06553" lon="1.37385">
        <ele>128.443021</ele>
        <time>2021-09-08T07:46:54.000Z</time>
      </trkpt>
      <trkpt lat="48.06551" lon="1.37392">
        <ele>128.440245</ele>
        <time>2021-09-08T07:46:55.000Z</time>
      </trkpt>
      <trkpt lat="48.06532" lon="1.37454">
        <ele>128.479695</ele>
        <time>2021-09-08T07:47:04.000Z</time>
      </trkpt>
      <trkpt lat="48.06509" lon="1.3753">
        <ele>128.559674</ele>
        <time>2021-09-08T07:47:15.000Z</time>
      </trkpt>
      <trkpt lat="48.06492" lon="1.37588">
        <ele>128.6211</ele>
        <time>2021-09-08T07:47:24.000Z</time>
      </trkpt>
      <trkpt lat="48.06476" lon="1.37638">
        <ele>128.67498</ele>
        <time>2021-09-08T07:47:32.000Z</time>
      </trkpt>
      <trkpt lat="48.06461" lon="1.3769">
        <ele>128.714617</ele>
        <time>2021-09-08T07:47:40.000Z</time>
      </trkpt>
      <trkpt lat="48.06446" lon="1.37738">
        <ele>128.744764</ele>
        <time>2021-09-08T07:47:47.000Z</time>
      </trkpt>
      <trkpt lat="48.06432" lon="1.37786">
        <ele>128.774924</ele>
        <time>2021-09-08T07:47:54.000Z</time>
      </trkpt>
      <trkpt lat="48.06416" lon="1.37837">
        <ele>128.807628</ele>
        <time>2021-09-08T07:48:02.000Z</time>
      </trkpt>
      <trkpt lat="48.06403" lon="1.37881">
        <ele>128.835422</ele>
        <time>2021-09-08T07:48:09.000Z</time>
      </trkpt>
      <trkpt lat="48.06391" lon="1.37919">
        <ele>128.853013</ele>
        <time>2021-09-08T07:48:15.000Z</time>
      </trkpt>
      <trkpt lat="48.06375" lon="1.37973">
        <ele>128.868302</ele>
        <time>2021-09-08T07:48:23.000Z</time>
      </trkpt>
      <trkpt lat="48.06354" lon="1.3804">
        <ele>128.887617</ele>
        <time>2021-09-08T07:48:33.000Z</time>
      </trkpt>
      <trkpt lat="48.06331" lon="1.38119">
        <ele>128.910123</ele>
        <time>2021-09-08T07:48:44.000Z</time>
      </trkpt>
      <trkpt lat="48.06309" lon="1.3819">
        <ele>128.805907</ele>
        <time>2021-09-08T07:48:54.000Z</time>
      </trkpt>
      <trkpt lat="48.06289" lon="1.38255">
        <ele>128.64431</ele>
        <time>2021-09-08T07:49:03.000Z</time>
      </trkpt>
      <trkpt lat="48.06267" lon="1.38329">
        <ele>128.462402</ele>
        <time>2021-09-08T07:49:13.000Z</time>
      </trkpt>
      <trkpt lat="48.06246" lon="1.38398">
        <ele>128.314691</ele>
        <time>2021-09-08T07:49:23.000Z</time>
      </trkpt>
      <trkpt lat="48.06228" lon="1.3846">
        <ele>128.362061</ele>
        <time>2021-09-08T07:49:33.000Z</time>
      </trkpt>
      <trkpt lat="48.06217" lon="1.38496">
        <ele>128.388882</ele>
        <time>2021-09-08T07:49:39.000Z</time>
      </trkpt>
      <trkpt lat="48.06215" lon="1.38501">
        <ele>128.393068</ele>
        <time>2021-09-08T07:49:40.000Z</time>
      </trkpt>
      <trkpt lat="48.06198" lon="1.38558">
        <ele>128.436363</ele>
        <time>2021-09-08T07:49:50.000Z</time>
      </trkpt>
      <trkpt lat="48.06184" lon="1.38604">
        <ele>128.471653</ele>
        <time>2021-09-08T07:49:58.000Z</time>
      </trkpt>
      <trkpt lat="48.06182" lon="1.3861">
        <ele>128.475794</ele>
        <time>2021-09-08T07:49:59.000Z</time>
      </trkpt>
      <trkpt lat="48.06169" lon="1.38654">
        <ele>128.554358</ele>
        <time>2021-09-08T07:50:07.000Z</time>
      </trkpt>
      <trkpt lat="48.06154" lon="1.38702">
        <ele>128.708294</ele>
        <time>2021-09-08T07:50:15.000Z</time>
      </trkpt>
      <trkpt lat="48.06132" lon="1.38773">
        <ele>128.937415</ele>
        <time>2021-09-08T07:50:26.000Z</time>
      </trkpt>
      <trkpt lat="48.06128" lon="1.38787">
        <ele>128.981595</ele>
        <time>2021-09-08T07:50:28.000Z</time>
      </trkpt>
      <trkpt lat="48.06124" lon="1.38801">
        <ele>129.024699</ele>
        <time>2021-09-08T07:50:30.000Z</time>
      </trkpt>
      <trkpt lat="48.0612" lon="1.38813">
        <ele>129.065675</ele>
        <time>2021-09-08T07:50:32.000Z</time>
      </trkpt>
      <trkpt lat="48.06105" lon="1.38864">
        <ele>129.227518</ele>
        <time>2021-09-08T07:50:40.000Z</time>
      </trkpt>
      <trkpt lat="48.06093" lon="1.38905">
        <ele>129.245405</ele>
        <time>2021-09-08T07:50:46.000Z</time>
      </trkpt>
      <trkpt lat="48.06075" lon="1.38964">
        <ele>129.160564</ele>
        <time>2021-09-08T07:50:54.000Z</time>
      </trkpt>
      <trkpt lat="48.06059" lon="1.39017">
        <ele>129.084263</ele>
        <time>2021-09-08T07:51:01.000Z</time>
      </trkpt>
      <trkpt lat="48.0604" lon="1.39079">
        <ele>128.994734</ele>
        <time>2021-09-08T07:51:09.000Z</time>
      </trkpt>
      <trkpt lat="48.06019" lon="1.39145">
        <ele>128.919958</ele>
        <time>2021-09-08T07:51:18.000Z</time>
      </trkpt>
      <trkpt lat="48.06003" lon="1.39202">
        <ele>128.90086</ele>
        <time>2021-09-08T07:51:26.000Z</time>
      </trkpt>
      <trkpt lat="48.05985" lon="1.3926">
        <ele>128.881004</ele>
        <time>2021-09-08T07:51:34.000Z</time>
      </trkpt>
      <trkpt lat="48.05968" lon="1.39315">
        <ele>128.862085</ele>
        <time>2021-09-08T07:51:42.000Z</time>
      </trkpt>
      <trkpt lat="48.0595" lon="1.39374">
        <ele>128.853069</ele>
        <time>2021-09-08T07:51:51.000Z</time>
      </trkpt>
      <trkpt lat="48.05943" lon="1.39399">
        <ele>128.923295</ele>
        <time>2021-09-08T07:51:55.000Z</time>
      </trkpt>
      <trkpt lat="48.05935" lon="1.39425">
        <ele>128.995082</ele>
        <time>2021-09-08T07:51:59.000Z</time>
      </trkpt>
      <trkpt lat="48.0592" lon="1.39474">
        <ele>129.133876</ele>
        <time>2021-09-08T07:52:07.000Z</time>
      </trkpt>
      <trkpt lat="48.05904" lon="1.39527">
        <ele>129.28464</ele>
        <time>2021-09-08T07:52:16.000Z</time>
      </trkpt>
      <trkpt lat="48.05888" lon="1.3958">
        <ele>129.432192</ele>
        <time>2021-09-08T07:52:25.000Z</time>
      </trkpt>
      <trkpt lat="48.05886" lon="1.39586">
        <ele>129.449586</ele>
        <time>2021-09-08T07:52:26.000Z</time>
      </trkpt>
      <trkpt lat="48.05872" lon="1.39633">
        <ele>129.616116</ele>
        <time>2021-09-08T07:52:34.000Z</time>
      </trkpt>
      <trkpt lat="48.05856" lon="1.39685">
        <ele>129.871879</ele>
        <time>2021-09-08T07:52:43.000Z</time>
      </trkpt>
      <trkpt lat="48.05842" lon="1.39734">
        <ele>130.107221</ele>
        <time>2021-09-08T07:52:51.000Z</time>
      </trkpt>
      <trkpt lat="48.05823" lon="1.39796">
        <ele>130.411895</ele>
        <time>2021-09-08T07:53:01.000Z</time>
      </trkpt>
      <trkpt lat="48.05808" lon="1.39844">
        <ele>130.645636</ele>
        <time>2021-09-08T07:53:09.000Z</time>
      </trkpt>
      <trkpt lat="48.05797" lon="1.39879">
        <ele>130.845395</ele>
        <time>2021-09-08T07:53:15.000Z</time>
      </trkpt>
      <trkpt lat="48.05793" lon="1.39891">
        <ele>130.918977</ele>
        <time>2021-09-08T07:53:17.000Z</time>
      </trkpt>
      <trkpt lat="48.05777" lon="1.39945">
        <ele>131.256619</ele>
        <time>2021-09-08T07:53:26.000Z</time>
      </trkpt>
      <trkpt lat="48.05757" lon="1.40008">
        <ele>131.65253</ele>
        <time>2021-09-08T07:53:36.000Z</time>
      </trkpt>
      <trkpt lat="48.05737" lon="1.40074">
        <ele>132.066873</ele>
        <time>2021-09-08T07:53:46.000Z</time>
      </trkpt>
      <trkpt lat="48.05719" lon="1.40134">
        <ele>132.391425</ele>
        <time>2021-09-08T07:53:55.000Z</time>
      </trkpt>
      <trkpt lat="48.057" lon="1.40194">
        <ele>132.661726</ele>
        <time>2021-09-08T07:54:04.000Z</time>
      </trkpt>
      <trkpt lat="48.05682" lon="1.40256">
        <ele>132.933104</ele>
        <time>2021-09-08T07:54:13.000Z</time>
      </trkpt>
      <trkpt lat="48.05665" lon="1.40309">
        <ele>133.169454</ele>
        <time>2021-09-08T07:54:21.000Z</time>
      </trkpt>
      <trkpt lat="48.0565" lon="1.4036">
        <ele>133.424303</ele>
        <time>2021-09-08T07:54:29.000Z</time>
      </trkpt>
      <trkpt lat="48.05648" lon="1.40366">
        <ele>133.466333</ele>
        <time>2021-09-08T07:54:30.000Z</time>
      </trkpt>
      <trkpt lat="48.05643" lon="1.40388">
        <ele>133.617926</ele>
        <time>2021-09-08T07:54:34.000Z</time>
      </trkpt>
      <trkpt lat="48.05631" lon="1.40433">
        <ele>133.926529</ele>
        <time>2021-09-08T07:54:41.000Z</time>
      </trkpt>
      <trkpt lat="48.05617" lon="1.40477">
        <ele>134.244658</ele>
        <time>2021-09-08T07:54:48.000Z</time>
      </trkpt>
      <trkpt lat="48.05609" lon="1.405">
        <ele>134.409288</ele>
        <time>2021-09-08T07:54:53.000Z</time>
      </trkpt>
      <trkpt lat="48.05608" lon="1.40502">
        <ele>134.43134</ele>
        <time>2021-09-08T07:54:57.000Z</time>
      </trkpt>
      <trkpt lat="48.05607" lon="1.40508">
        <ele>134.471115</ele>
        <time>2021-09-08T07:55:06.000Z</time>
      </trkpt>
      <trkpt lat="48.05605" lon="1.40515">
        <ele>134.516624</ele>
        <time>2021-09-08T07:55:08.000Z</time>
      </trkpt>
      <trkpt lat="48.05595" lon="1.40546">
        <ele>134.73744</ele>
        <time>2021-09-08T07:55:15.000Z</time>
      </trkpt>
      <trkpt lat="48.05585" lon="1.40583">
        <ele>134.997069</ele>
        <time>2021-09-08T07:55:21.000Z</time>
      </trkpt>
      <trkpt lat="48.05565" lon="1.4065">
        <ele>135.229705</ele>
        <time>2021-09-08T07:55:30.000Z</time>
      </trkpt>
      <trkpt lat="48.05543" lon="1.40727">
        <ele>135.427659</ele>
        <time>2021-09-08T07:55:40.000Z</time>
      </trkpt>
      <trkpt lat="48.05527" lon="1.40781">
        <ele>135.566398</ele>
        <time>2021-09-08T07:55:47.000Z</time>
      </trkpt>
      <trkpt lat="48.05508" lon="1.40844">
        <ele>135.722134</ele>
        <time>2021-09-08T07:55:55.000Z</time>
      </trkpt>
      <trkpt lat="48.05487" lon="1.40902">
        <ele>135.668055</ele>
        <time>2021-09-08T07:56:03.000Z</time>
      </trkpt>
      <trkpt lat="48.05482" lon="1.40917">
        <ele>135.654444</ele>
        <time>2021-09-08T07:56:05.000Z</time>
      </trkpt>
      <trkpt lat="48.05472" lon="1.40956">
        <ele>135.620353</ele>
        <time>2021-09-08T07:56:10.000Z</time>
      </trkpt>
      <trkpt lat="48.0546" lon="1.4103">
        <ele>135.557907</ele>
        <time>2021-09-08T07:56:19.000Z</time>
      </trkpt>
      <trkpt lat="48.05448" lon="1.4111">
        <ele>135.485991</ele>
        <time>2021-09-08T07:56:29.000Z</time>
      </trkpt>
      <trkpt lat="48.05439" lon="1.41178">
        <ele>135.408188</ele>
        <time>2021-09-08T07:56:38.000Z</time>
      </trkpt>
      <trkpt lat="48.0543" lon="1.41246">
        <ele>135.329869</ele>
        <time>2021-09-08T07:56:48.000Z</time>
      </trkpt>
      <trkpt lat="48.0542" lon="1.41319">
        <ele>135.246779</ele>
        <time>2021-09-08T07:56:59.000Z</time>
      </trkpt>
      <trkpt lat="48.0541" lon="1.41395">
        <ele>135.131391</ele>
        <time>2021-09-08T07:57:10.000Z</time>
      </trkpt>
      <trkpt lat="48.05398" lon="1.41478">
        <ele>134.970965</ele>
        <time>2021-09-08T07:57:22.000Z</time>
      </trkpt>
      <trkpt lat="48.05388" lon="1.41549">
        <ele>134.833678</ele>
        <time>2021-09-08T07:57:32.000Z</time>
      </trkpt>
      <trkpt lat="48.0538" lon="1.41612">
        <ele>134.713004</ele>
        <time>2021-09-08T07:57:41.000Z</time>
      </trkpt>
      <trkpt lat="48.0537" lon="1.41683">
        <ele>134.583044</ele>
        <time>2021-09-08T07:57:51.000Z</time>
      </trkpt>
      <trkpt lat="48.05365" lon="1.41718">
        <ele>134.519384</ele>
        <time>2021-09-08T07:57:56.000Z</time>
      </trkpt>
      <trkpt lat="48.05363" lon="1.4173">
        <ele>134.495768</ele>
        <time>2021-09-08T07:57:58.000Z</time>
      </trkpt>
      <trkpt lat="48.05353" lon="1.41804">
        <ele>134.361211</ele>
        <time>2021-09-08T07:58:09.000Z</time>
      </trkpt>
      <trkpt lat="48.05344" lon="1.41864">
        <ele>134.251357</ele>
        <time>2021-09-08T07:58:18.000Z</time>
      </trkpt>
      <trkpt lat="48.05337" lon="1.41911">
        <ele>134.202227</ele>
        <time>2021-09-08T07:58:25.000Z</time>
      </trkpt>
      <trkpt lat="48.05326" lon="1.41989">
        <ele>134.168788</ele>
        <time>2021-09-08T07:58:36.000Z</time>
      </trkpt>
      <trkpt lat="48.0532" lon="1.42045">
        <ele>134.145508</ele>
        <time>2021-09-08T07:58:44.000Z</time>
      </trkpt>
      <trkpt lat="48.05314" lon="1.42093">
        <ele>134.125134</ele>
        <time>2021-09-08T07:58:51.000Z</time>
      </trkpt>
      <trkpt lat="48.05302" lon="1.42164">
        <ele>134.070228</ele>
        <time>2021-09-08T07:59:01.000Z</time>
      </trkpt>
      <trkpt lat="48.05301" lon="1.42179">
        <ele>134.039868</ele>
        <time>2021-09-08T07:59:03.000Z</time>
      </trkpt>
      <trkpt lat="48.05296" lon="1.42208">
        <ele>133.978649</ele>
        <time>2021-09-08T07:59:07.000Z</time>
      </trkpt>
      <trkpt lat="48.05286" lon="1.42278">
        <ele>133.835754</ele>
        <time>2021-09-08T07:59:16.000Z</time>
      </trkpt>
      <trkpt lat="48.05279" lon="1.42336">
        <ele>133.715522</ele>
        <time>2021-09-08T07:59:24.000Z</time>
      </trkpt>
      <trkpt lat="48.05272" lon="1.42391">
        <ele>133.604031</ele>
        <time>2021-09-08T07:59:32.000Z</time>
      </trkpt>
      <trkpt lat="48.05265" lon="1.42437">
        <ele>133.534956</ele>
        <time>2021-09-08T07:59:39.000Z</time>
      </trkpt>
      <trkpt lat="48.05258" lon="1.42491">
        <ele>133.480471</ele>
        <time>2021-09-08T07:59:47.000Z</time>
      </trkpt>
      <trkpt lat="48.05246" lon="1.42571">
        <ele>133.400568</ele>
        <time>2021-09-08T07:59:58.000Z</time>
      </trkpt>
      <trkpt lat="48.05238" lon="1.4263">
        <ele>133.340979</ele>
        <time>2021-09-08T08:00:06.000Z</time>
      </trkpt>
      <trkpt lat="48.05227" lon="1.42709">
        <ele>133.275928</ele>
        <time>2021-09-08T08:00:17.000Z</time>
      </trkpt>
      <trkpt lat="48.05218" lon="1.42777">
        <ele>133.236474</ele>
        <time>2021-09-08T08:00:27.000Z</time>
      </trkpt>
      <trkpt lat="48.05207" lon="1.42851">
        <ele>133.192927</ele>
        <time>2021-09-08T08:00:38.000Z</time>
      </trkpt>
      <trkpt lat="48.05197" lon="1.42921">
        <ele>133.152511</ele>
        <time>2021-09-08T08:00:48.000Z</time>
      </trkpt>
      <trkpt lat="48.05188" lon="1.42991">
        <ele>133.161828</ele>
        <time>2021-09-08T08:00:58.000Z</time>
      </trkpt>
      <trkpt lat="48.05175" lon="1.43074">
        <ele>133.194696</ele>
        <time>2021-09-08T08:01:10.000Z</time>
      </trkpt>
      <trkpt lat="48.05167" lon="1.43135">
        <ele>133.21858</ele>
        <time>2021-09-08T08:01:19.000Z</time>
      </trkpt>
      <trkpt lat="48.05158" lon="1.43194">
        <ele>133.241812</ele>
        <time>2021-09-08T08:01:28.000Z</time>
      </trkpt>
      <trkpt lat="48.0515" lon="1.43253">
        <ele>133.393475</ele>
        <time>2021-09-08T08:01:37.000Z</time>
      </trkpt>
      <trkpt lat="48.05142" lon="1.43307">
        <ele>133.551602</ele>
        <time>2021-09-08T08:01:45.000Z</time>
      </trkpt>
      <trkpt lat="48.05132" lon="1.43376">
        <ele>133.752533</ele>
        <time>2021-09-08T08:01:55.000Z</time>
      </trkpt>
      <trkpt lat="48.05122" lon="1.43449">
        <ele>133.967829</ele>
        <time>2021-09-08T08:02:06.000Z</time>
      </trkpt>
      <trkpt lat="48.05112" lon="1.43516">
        <ele>134.199826</ele>
        <time>2021-09-08T08:02:16.000Z</time>
      </trkpt>
      <trkpt lat="48.05106" lon="1.43555">
        <ele>134.341355</ele>
        <time>2021-09-08T08:02:22.000Z</time>
      </trkpt>
      <trkpt lat="48.05098" lon="1.43615">
        <ele>134.557638</ele>
        <time>2021-09-08T08:02:31.000Z</time>
      </trkpt>
      <trkpt lat="48.05091" lon="1.43664">
        <ele>134.734817</ele>
        <time>2021-09-08T08:02:38.000Z</time>
      </trkpt>
      <trkpt lat="48.05081" lon="1.43724">
        <ele>134.955482</ele>
        <time>2021-09-08T08:02:47.000Z</time>
      </trkpt>
      <trkpt lat="48.05072" lon="1.43791">
        <ele>135.149786</ele>
        <time>2021-09-08T08:02:57.000Z</time>
      </trkpt>
      <trkpt lat="48.05064" lon="1.43854">
        <ele>135.329578</ele>
        <time>2021-09-08T08:03:07.000Z</time>
      </trkpt>
      <trkpt lat="48.05056" lon="1.43911">
        <ele>135.491527</ele>
        <time>2021-09-08T08:03:16.000Z</time>
      </trkpt>
      <trkpt lat="48.05047" lon="1.43969">
        <ele>135.65611</ele>
        <time>2021-09-08T08:03:25.000Z</time>
      </trkpt>
      <trkpt lat="48.05038" lon="1.44032">
        <ele>135.815029</ele>
        <time>2021-09-08T08:03:35.000Z</time>
      </trkpt>
      <trkpt lat="48.05032" lon="1.44083">
        <ele>135.931028</ele>
        <time>2021-09-08T08:03:43.000Z</time>
      </trkpt>
      <trkpt lat="48.05025" lon="1.44131">
        <ele>136.043398</ele>
        <time>2021-09-08T08:03:51.000Z</time>
      </trkpt>
      <trkpt lat="48.05017" lon="1.44187">
        <ele>136.171531</ele>
        <time>2021-09-08T08:04:00.000Z</time>
      </trkpt>
      <trkpt lat="48.05009" lon="1.44239">
        <ele>136.292912</ele>
        <time>2021-09-08T08:04:08.000Z</time>
      </trkpt>
      <trkpt lat="48.05001" lon="1.44299">
        <ele>136.294644</ele>
        <time>2021-09-08T08:04:17.000Z</time>
      </trkpt>
      <trkpt lat="48.04991" lon="1.44365">
        <ele>136.244092</ele>
        <time>2021-09-08T08:04:27.000Z</time>
      </trkpt>
      <trkpt lat="48.0498" lon="1.44433">
        <ele>136.19151</ele>
        <time>2021-09-08T08:04:37.000Z</time>
      </trkpt>
      <trkpt lat="48.0497" lon="1.44501">
        <ele>136.139199</ele>
        <time>2021-09-08T08:04:47.000Z</time>
      </trkpt>
      <trkpt lat="48.04959" lon="1.44571">
        <ele>136.019609</ele>
        <time>2021-09-08T08:04:57.000Z</time>
      </trkpt>
      <trkpt lat="48.04948" lon="1.44645">
        <ele>135.873649</ele>
        <time>2021-09-08T08:05:07.000Z</time>
      </trkpt>
      <trkpt lat="48.04937" lon="1.44718">
        <ele>135.728389</ele>
        <time>2021-09-08T08:05:17.000Z</time>
      </trkpt>
      <trkpt lat="48.04926" lon="1.44784">
        <ele>135.59165</ele>
        <time>2021-09-08T08:05:26.000Z</time>
      </trkpt>
      <trkpt lat="48.04916" lon="1.4485">
        <ele>135.351263</ele>
        <time>2021-09-08T08:05:35.000Z</time>
      </trkpt>
      <trkpt lat="48.04908" lon="1.44907">
        <ele>135.142473</ele>
        <time>2021-09-08T08:05:43.000Z</time>
      </trkpt>
      <trkpt lat="48.04896" lon="1.44979">
        <ele>134.877853</ele>
        <time>2021-09-08T08:05:53.000Z</time>
      </trkpt>
      <trkpt lat="48.04885" lon="1.45052">
        <ele>134.618241</ele>
        <time>2021-09-08T08:06:03.000Z</time>
      </trkpt>
      <trkpt lat="48.04872" lon="1.45131">
        <ele>134.382913</ele>
        <time>2021-09-08T08:06:14.000Z</time>
      </trkpt>
      <trkpt lat="48.04861" lon="1.45203">
        <ele>134.169393</ele>
        <time>2021-09-08T08:06:24.000Z</time>
      </trkpt>
      <trkpt lat="48.04851" lon="1.45269">
        <ele>133.973877</ele>
        <time>2021-09-08T08:06:33.000Z</time>
      </trkpt>
      <trkpt lat="48.0484" lon="1.45343">
        <ele>133.807953</ele>
        <time>2021-09-08T08:06:43.000Z</time>
      </trkpt>
      <trkpt lat="48.04828" lon="1.45417">
        <ele>133.693013</ele>
        <time>2021-09-08T08:06:53.000Z</time>
      </trkpt>
      <trkpt lat="48.04818" lon="1.45481">
        <ele>133.591643</ele>
        <time>2021-09-08T08:07:02.000Z</time>
      </trkpt>
      <trkpt lat="48.04808" lon="1.45546">
        <ele>133.489985</ele>
        <time>2021-09-08T08:07:11.000Z</time>
      </trkpt>
      <trkpt lat="48.04797" lon="1.45617">
        <ele>133.418048</ele>
        <time>2021-09-08T08:07:21.000Z</time>
      </trkpt>
      <trkpt lat="48.04786" lon="1.45687">
        <ele>133.360834</ele>
        <time>2021-09-08T08:07:31.000Z</time>
      </trkpt>
      <trkpt lat="48.04777" lon="1.45744">
        <ele>133.314129</ele>
        <time>2021-09-08T08:07:39.000Z</time>
      </trkpt>
      <trkpt lat="48.04766" lon="1.45814">
        <ele>133.256239</ele>
        <time>2021-09-08T08:07:49.000Z</time>
      </trkpt>
      <trkpt lat="48.04755" lon="1.45886">
        <ele>133.279296</ele>
        <time>2021-09-08T08:07:59.000Z</time>
      </trkpt>
      <trkpt lat="48.04745" lon="1.45952">
        <ele>133.318635</ele>
        <time>2021-09-08T08:08:08.000Z</time>
      </trkpt>
      <trkpt lat="48.0474" lon="1.45983">
        <ele>133.337042</ele>
        <time>2021-09-08T08:08:12.000Z</time>
      </trkpt>
      <trkpt lat="48.04736" lon="1.46007">
        <ele>133.351066</ele>
        <time>2021-09-08T08:08:15.000Z</time>
      </trkpt>
      <trkpt lat="48.04724" lon="1.4608">
        <ele>133.394006</ele>
        <time>2021-09-08T08:08:24.000Z</time>
      </trkpt>
      <trkpt lat="48.04711" lon="1.46163">
        <ele>133.374199</ele>
        <time>2021-09-08T08:08:34.000Z</time>
      </trkpt>
      <trkpt lat="48.04698" lon="1.46247">
        <ele>133.344564</ele>
        <time>2021-09-08T08:08:44.000Z</time>
      </trkpt>
      <trkpt lat="48.04686" lon="1.46322">
        <ele>133.318089</ele>
        <time>2021-09-08T08:08:53.000Z</time>
      </trkpt>
      <trkpt lat="48.04675" lon="1.46402">
        <ele>133.266449</ele>
        <time>2021-09-08T08:09:03.000Z</time>
      </trkpt>
      <trkpt lat="48.04663" lon="1.46479">
        <ele>133.201877</ele>
        <time>2021-09-08T08:09:13.000Z</time>
      </trkpt>
      <trkpt lat="48.0465" lon="1.46562">
        <ele>133.133789</ele>
        <time>2021-09-08T08:09:24.000Z</time>
      </trkpt>
      <trkpt lat="48.04637" lon="1.46644">
        <ele>133.036024</ele>
        <time>2021-09-08T08:09:35.000Z</time>
      </trkpt>
      <trkpt lat="48.04624" lon="1.46729">
        <ele>132.883364</ele>
        <time>2021-09-08T08:09:46.000Z</time>
      </trkpt>
      <trkpt lat="48.0461" lon="1.46814">
        <ele>132.730472</ele>
        <time>2021-09-08T08:09:57.000Z</time>
      </trkpt>
      <trkpt lat="48.04597" lon="1.4689">
        <ele>132.570892</ele>
        <time>2021-09-08T08:10:07.000Z</time>
      </trkpt>
      <trkpt lat="48.04587" lon="1.4696">
        <ele>132.342887</ele>
        <time>2021-09-08T08:10:16.000Z</time>
      </trkpt>
      <trkpt lat="48.04575" lon="1.47033">
        <ele>132.104832</ele>
        <time>2021-09-08T08:10:25.000Z</time>
      </trkpt>
      <trkpt lat="48.04566" lon="1.47098">
        <ele>131.89387</ele>
        <time>2021-09-08T08:10:33.000Z</time>
      </trkpt>
      <trkpt lat="48.04555" lon="1.47177">
        <ele>131.670802</ele>
        <time>2021-09-08T08:10:43.000Z</time>
      </trkpt>
      <trkpt lat="48.04552" lon="1.47191">
        <ele>131.636931</ele>
        <time>2021-09-08T08:10:45.000Z</time>
      </trkpt>
      <trkpt lat="48.0455" lon="1.47211">
        <ele>131.589004</ele>
        <time>2021-09-08T08:10:48.000Z</time>
      </trkpt>
      <trkpt lat="48.04541" lon="1.47268">
        <ele>131.451576</ele>
        <time>2021-09-08T08:10:56.000Z</time>
      </trkpt>
      <trkpt lat="48.0454" lon="1.47275">
        <ele>131.434108</ele>
        <time>2021-09-08T08:10:57.000Z</time>
      </trkpt>
      <trkpt lat="48.04539" lon="1.4729">
        <ele>131.400163</ele>
        <time>2021-09-08T08:10:59.000Z</time>
      </trkpt>
      <trkpt lat="48.04536" lon="1.47303">
        <ele>131.368064</ele>
        <time>2021-09-08T08:11:01.000Z</time>
      </trkpt>
      <trkpt lat="48.04528" lon="1.47352">
        <ele>131.248259</ele>
        <time>2021-09-08T08:11:08.000Z</time>
      </trkpt>
      <trkpt lat="48.04516" lon="1.47426">
        <ele>131.088737</ele>
        <time>2021-09-08T08:11:18.000Z</time>
      </trkpt>
      <trkpt lat="48.04504" lon="1.47502">
        <ele>130.961341</ele>
        <time>2021-09-08T08:11:28.000Z</time>
      </trkpt>
      <trkpt lat="48.04491" lon="1.47587">
        <ele>130.819663</ele>
        <time>2021-09-08T08:11:39.000Z</time>
      </trkpt>
      <trkpt lat="48.04478" lon="1.47668">
        <ele>130.696203</ele>
        <time>2021-09-08T08:11:50.000Z</time>
      </trkpt>
      <trkpt lat="48.04476" lon="1.47683">
        <ele>130.703224</ele>
        <time>2021-09-08T08:11:52.000Z</time>
      </trkpt>
      <trkpt lat="48.04464" lon="1.47758">
        <ele>130.739059</ele>
        <time>2021-09-08T08:12:02.000Z</time>
      </trkpt>
      <trkpt lat="48.04451" lon="1.47841">
        <ele>130.778675</ele>
        <time>2021-09-08T08:12:13.000Z</time>
      </trkpt>
      <trkpt lat="48.04441" lon="1.47906">
        <ele>130.809838</ele>
        <time>2021-09-08T08:12:22.000Z</time>
      </trkpt>
      <trkpt lat="48.04429" lon="1.47985">
        <ele>130.910133</ele>
        <time>2021-09-08T08:12:33.000Z</time>
      </trkpt>
      <trkpt lat="48.04419" lon="1.48049">
        <ele>131.005388</ele>
        <time>2021-09-08T08:12:42.000Z</time>
      </trkpt>
      <trkpt lat="48.04409" lon="1.48115">
        <ele>131.104625</ele>
        <time>2021-09-08T08:12:51.000Z</time>
      </trkpt>
      <trkpt lat="48.04396" lon="1.48194">
        <ele>131.230569</ele>
        <time>2021-09-08T08:13:01.000Z</time>
      </trkpt>
      <trkpt lat="48.04386" lon="1.48262">
        <ele>131.39294</ele>
        <time>2021-09-08T08:13:10.000Z</time>
      </trkpt>
      <trkpt lat="48.04376" lon="1.48324">
        <ele>131.543875</ele>
        <time>2021-09-08T08:13:19.000Z</time>
      </trkpt>
      <trkpt lat="48.04366" lon="1.48386">
        <ele>131.694254</ele>
        <time>2021-09-08T08:13:28.000Z</time>
      </trkpt>
      <trkpt lat="48.04357" lon="1.48451">
        <ele>131.844883</ele>
        <time>2021-09-08T08:13:37.000Z</time>
      </trkpt>
      <trkpt lat="48.04346" lon="1.48517">
        <ele>131.884338</ele>
        <time>2021-09-08T08:13:46.000Z</time>
      </trkpt>
      <trkpt lat="48.04336" lon="1.48584">
        <ele>131.924567</ele>
        <time>2021-09-08T08:13:55.000Z</time>
      </trkpt>
      <trkpt lat="48.04323" lon="1.48666">
        <ele>131.973761</ele>
        <time>2021-09-08T08:14:06.000Z</time>
      </trkpt>
      <trkpt lat="48.0431" lon="1.48749">
        <ele>131.985171</ele>
        <time>2021-09-08T08:14:17.000Z</time>
      </trkpt>
      <trkpt lat="48.043" lon="1.48815">
        <ele>131.96007</ele>
        <time>2021-09-08T08:14:26.000Z</time>
      </trkpt>
      <trkpt lat="48.0429" lon="1.48875">
        <ele>131.937043</ele>
        <time>2021-09-08T08:14:34.000Z</time>
      </trkpt>
      <trkpt lat="48.04279" lon="1.48949">
        <ele>131.908663</ele>
        <time>2021-09-08T08:14:44.000Z</time>
      </trkpt>
      <trkpt lat="48.04268" lon="1.49016">
        <ele>131.996916</ele>
        <time>2021-09-08T08:14:53.000Z</time>
      </trkpt>
      <trkpt lat="48.04258" lon="1.4908">
        <ele>132.138263</ele>
        <time>2021-09-08T08:15:02.000Z</time>
      </trkpt>
      <trkpt lat="48.04249" lon="1.49135">
        <ele>132.261045</ele>
        <time>2021-09-08T08:15:10.000Z</time>
      </trkpt>
      <trkpt lat="48.04238" lon="1.49202">
        <ele>132.409161</ele>
        <time>2021-09-08T08:15:20.000Z</time>
      </trkpt>
      <trkpt lat="48.04235" lon="1.49222">
        <ele>132.451862</ele>
        <time>2021-09-08T08:15:23.000Z</time>
      </trkpt>
      <trkpt lat="48.04231" lon="1.49247">
        <ele>132.491198</ele>
        <time>2021-09-08T08:15:27.000Z</time>
      </trkpt>
      <trkpt lat="48.04221" lon="1.49307">
        <ele>132.546545</ele>
        <time>2021-09-08T08:15:36.000Z</time>
      </trkpt>
      <trkpt lat="48.04208" lon="1.4937">
        <ele>132.60469</ele>
        <time>2021-09-08T08:15:45.000Z</time>
      </trkpt>
      <trkpt lat="48.04195" lon="1.49427">
        <ele>132.659274</ele>
        <time>2021-09-08T08:15:53.000Z</time>
      </trkpt>
      <trkpt lat="48.04181" lon="1.49483">
        <ele>132.712399</ele>
        <time>2021-09-08T08:16:01.000Z</time>
      </trkpt>
      <trkpt lat="48.04165" lon="1.49546">
        <ele>132.638024</ele>
        <time>2021-09-08T08:16:10.000Z</time>
      </trkpt>
      <trkpt lat="48.04148" lon="1.49611">
        <ele>132.544329</ele>
        <time>2021-09-08T08:16:19.000Z</time>
      </trkpt>
      <trkpt lat="48.04133" lon="1.49669">
        <ele>132.460502</ele>
        <time>2021-09-08T08:16:27.000Z</time>
      </trkpt>
      <trkpt lat="48.04116" lon="1.49736">
        <ele>132.363061</ele>
        <time>2021-09-08T08:16:36.000Z</time>
      </trkpt>
      <trkpt lat="48.04102" lon="1.4979">
        <ele>132.243522</ele>
        <time>2021-09-08T08:16:43.000Z</time>
      </trkpt>
      <trkpt lat="48.04083" lon="1.49867">
        <ele>132.066532</ele>
        <time>2021-09-08T08:16:53.000Z</time>
      </trkpt>
      <trkpt lat="48.04081" lon="1.49874">
        <ele>132.048818</ele>
        <time>2021-09-08T08:16:54.000Z</time>
      </trkpt>
      <trkpt lat="48.04061" lon="1.4995">
        <ele>131.873556</ele>
        <time>2021-09-08T08:17:04.000Z</time>
      </trkpt>
      <trkpt lat="48.04059" lon="1.49958">
        <ele>131.856128</ele>
        <time>2021-09-08T08:17:05.000Z</time>
      </trkpt>
      <trkpt lat="48.04042" lon="1.50023">
        <ele>131.713107</ele>
        <time>2021-09-08T08:17:14.000Z</time>
      </trkpt>
      <trkpt lat="48.04028" lon="1.50081">
        <ele>131.596714</ele>
        <time>2021-09-08T08:17:22.000Z</time>
      </trkpt>
      <trkpt lat="48.04011" lon="1.50147">
        <ele>131.464303</ele>
        <time>2021-09-08T08:17:31.000Z</time>
      </trkpt>
      <trkpt lat="48.04" lon="1.5019">
        <ele>131.378148</ele>
        <time>2021-09-08T08:17:37.000Z</time>
      </trkpt>
      <trkpt lat="48.03997" lon="1.50204">
        <ele>131.349252</ele>
        <time>2021-09-08T08:17:39.000Z</time>
      </trkpt>
      <trkpt lat="48.03989" lon="1.50233">
        <ele>131.291932</ele>
        <time>2021-09-08T08:17:43.000Z</time>
      </trkpt>
      <trkpt lat="48.03986" lon="1.50247">
        <ele>131.265038</ele>
        <time>2021-09-08T08:17:45.000Z</time>
      </trkpt>
      <trkpt lat="48.03967" lon="1.50319">
        <ele>131.157787</ele>
        <time>2021-09-08T08:17:55.000Z</time>
      </trkpt>
      <trkpt lat="48.0395" lon="1.50385">
        <ele>131.06039</ele>
        <time>2021-09-08T08:18:04.000Z</time>
      </trkpt>
      <trkpt lat="48.03931" lon="1.50459">
        <ele>130.950031</ele>
        <time>2021-09-08T08:18:14.000Z</time>
      </trkpt>
      <trkpt lat="48.03911" lon="1.50538">
        <ele>130.897643</ele>
        <time>2021-09-08T08:18:25.000Z</time>
      </trkpt>
      <trkpt lat="48.03897" lon="1.50594">
        <ele>130.898471</ele>
        <time>2021-09-08T08:18:33.000Z</time>
      </trkpt>
      <trkpt lat="48.03879" lon="1.50663">
        <ele>130.899498</ele>
        <time>2021-09-08T08:18:43.000Z</time>
      </trkpt>
      <trkpt lat="48.03865" lon="1.5072">
        <ele>130.900334</ele>
        <time>2021-09-08T08:18:51.000Z</time>
      </trkpt>
      <trkpt lat="48.03852" lon="1.50771">
        <ele>130.918537</ele>
        <time>2021-09-08T08:18:58.000Z</time>
      </trkpt>
      <trkpt lat="48.03833" lon="1.50854">
        <ele>130.976935</ele>
        <time>2021-09-08T08:19:09.000Z</time>
      </trkpt>
      <trkpt lat="48.03815" lon="1.50921">
        <ele>131.025268</ele>
        <time>2021-09-08T08:19:18.000Z</time>
      </trkpt>
      <trkpt lat="48.038" lon="1.50983">
        <ele>131.069204</ele>
        <time>2021-09-08T08:19:26.000Z</time>
      </trkpt>
      <trkpt lat="48.03776" lon="1.51059">
        <ele>131.097679</ele>
        <time>2021-09-08T08:19:36.000Z</time>
      </trkpt>
      <trkpt lat="48.03762" lon="1.51111">
        <ele>131.111811</ele>
        <time>2021-09-08T08:19:43.000Z</time>
      </trkpt>
      <trkpt lat="48.03744" lon="1.51175">
        <ele>131.129455</ele>
        <time>2021-09-08T08:19:52.000Z</time>
      </trkpt>
      <trkpt lat="48.03727" lon="1.51236">
        <ele>131.146357</ele>
        <time>2021-09-08T08:20:01.000Z</time>
      </trkpt>
      <trkpt lat="48.03708" lon="1.51297">
        <ele>131.073057</ele>
        <time>2021-09-08T08:20:10.000Z</time>
      </trkpt>
      <trkpt lat="48.03693" lon="1.51353">
        <ele>130.992013</ele>
        <time>2021-09-08T08:20:18.000Z</time>
      </trkpt>
      <trkpt lat="48.03669" lon="1.51433">
        <ele>130.875553</ele>
        <time>2021-09-08T08:20:29.000Z</time>
      </trkpt>
      <trkpt lat="48.03646" lon="1.51512">
        <ele>130.769983</ele>
        <time>2021-09-08T08:20:39.000Z</time>
      </trkpt>
      <trkpt lat="48.03644" lon="1.5152">
        <ele>130.762383</ele>
        <time>2021-09-08T08:20:40.000Z</time>
      </trkpt>
      <trkpt lat="48.03624" lon="1.5159">
        <ele>130.695923</ele>
        <time>2021-09-08T08:20:49.000Z</time>
      </trkpt>
      <trkpt lat="48.03607" lon="1.51648">
        <ele>130.640388</ele>
        <time>2021-09-08T08:20:57.000Z</time>
      </trkpt>
      <trkpt lat="48.03592" lon="1.517">
        <ele>130.591196</ele>
        <time>2021-09-08T08:21:04.000Z</time>
      </trkpt>
      <trkpt lat="48.03571" lon="1.51774">
        <ele>130.503317</ele>
        <time>2021-09-08T08:21:14.000Z</time>
      </trkpt>
      <trkpt lat="48.03553" lon="1.51839">
        <ele>130.408096</ele>
        <time>2021-09-08T08:21:23.000Z</time>
      </trkpt>
      <trkpt lat="48.03537" lon="1.51895">
        <ele>130.325624</ele>
        <time>2021-09-08T08:21:31.000Z</time>
      </trkpt>
      <trkpt lat="48.0352" lon="1.5196">
        <ele>130.232</ele>
        <time>2021-09-08T08:21:40.000Z</time>
      </trkpt>
      <trkpt lat="48.03509" lon="1.52011">
        <ele>130.164526</ele>
        <time>2021-09-08T08:21:47.000Z</time>
      </trkpt>
      <trkpt lat="48.03495" lon="1.52067">
        <ele>130.095284</ele>
        <time>2021-09-08T08:21:55.000Z</time>
      </trkpt>
      <trkpt lat="48.03479" lon="1.52136">
        <ele>130.01003</ele>
        <time>2021-09-08T08:22:05.000Z</time>
      </trkpt>
      <trkpt lat="48.03465" lon="1.52194">
        <ele>129.939756</ele>
        <time>2021-09-08T08:22:13.000Z</time>
      </trkpt>
      <trkpt lat="48.03448" lon="1.52264">
        <ele>129.844387</ele>
        <time>2021-09-08T08:22:23.000Z</time>
      </trkpt>
      <trkpt lat="48.03434" lon="1.52327">
        <ele>129.741624</ele>
        <time>2021-09-08T08:22:32.000Z</time>
      </trkpt>
      <trkpt lat="48.03415" lon="1.52404">
        <ele>129.614441</ele>
        <time>2021-09-08T08:22:43.000Z</time>
      </trkpt>
      <trkpt lat="48.03397" lon="1.5248">
        <ele>129.490001</ele>
        <time>2021-09-08T08:22:54.000Z</time>
      </trkpt>
      <trkpt lat="48.03382" lon="1.52551">
        <ele>129.406212</ele>
        <time>2021-09-08T08:23:04.000Z</time>
      </trkpt>
      <trkpt lat="48.03369" lon="1.52615">
        <ele>129.340395</ele>
        <time>2021-09-08T08:23:13.000Z</time>
      </trkpt>
      <trkpt lat="48.03354" lon="1.5269">
        <ele>129.263138</ele>
        <time>2021-09-08T08:23:23.000Z</time>
      </trkpt>
      <trkpt lat="48.03343" lon="1.52747">
        <ele>129.205446</ele>
        <time>2021-09-08T08:23:30.000Z</time>
      </trkpt>
      <trkpt lat="48.03327" lon="1.52825">
        <ele>129.119081</ele>
        <time>2021-09-08T08:23:40.000Z</time>
      </trkpt>
      <trkpt lat="48.03323" lon="1.52841">
        <ele>129.101898</ele>
        <time>2021-09-08T08:23:42.000Z</time>
      </trkpt>
      <trkpt lat="48.0331" lon="1.5291">
        <ele>129.025761</ele>
        <time>2021-09-08T08:23:51.000Z</time>
      </trkpt>
      <trkpt lat="48.03293" lon="1.52992">
        <ele>128.934784</ele>
        <time>2021-09-08T08:24:02.000Z</time>
      </trkpt>
      <trkpt lat="48.03292" lon="1.52999">
        <ele>128.926965</ele>
        <time>2021-09-08T08:24:03.000Z</time>
      </trkpt>
      <trkpt lat="48.0328" lon="1.5306">
        <ele>128.89006</ele>
        <time>2021-09-08T08:24:11.000Z</time>
      </trkpt>
      <trkpt lat="48.03268" lon="1.5312">
        <ele>128.859432</ele>
        <time>2021-09-08T08:24:19.000Z</time>
      </trkpt>
      <trkpt lat="48.03254" lon="1.53189">
        <ele>128.824929</ele>
        <time>2021-09-08T08:24:28.000Z</time>
      </trkpt>
      <trkpt lat="48.0324" lon="1.53259">
        <ele>128.789908</ele>
        <time>2021-09-08T08:24:37.000Z</time>
      </trkpt>
      <trkpt lat="48.03224" lon="1.53336">
        <ele>128.761397</ele>
        <time>2021-09-08T08:24:47.000Z</time>
      </trkpt>
      <trkpt lat="48.03223" lon="1.53344">
        <ele>128.758722</ele>
        <time>2021-09-08T08:24:48.000Z</time>
      </trkpt>
      <trkpt lat="48.03209" lon="1.53418">
        <ele>128.733217</ele>
        <time>2021-09-08T08:24:58.000Z</time>
      </trkpt>
      <trkpt lat="48.03195" lon="1.53491">
        <ele>128.707757</ele>
        <time>2021-09-08T08:25:08.000Z</time>
      </trkpt>
      <trkpt lat="48.03181" lon="1.53559">
        <ele>128.672021</ele>
        <time>2021-09-08T08:25:17.000Z</time>
      </trkpt>
      <trkpt lat="48.03169" lon="1.53619">
        <ele>128.628087</ele>
        <time>2021-09-08T08:25:25.000Z</time>
      </trkpt>
      <trkpt lat="48.03157" lon="1.53682">
        <ele>128.58281</ele>
        <time>2021-09-08T08:25:33.000Z</time>
      </trkpt>
      <trkpt lat="48.03143" lon="1.53751">
        <ele>128.532695</ele>
        <time>2021-09-08T08:25:42.000Z</time>
      </trkpt>
      <trkpt lat="48.03127" lon="1.5383">
        <ele>128.443351</ele>
        <time>2021-09-08T08:25:52.000Z</time>
      </trkpt>
      <trkpt lat="48.03112" lon="1.53905">
        <ele>128.334566</ele>
        <time>2021-09-08T08:26:02.000Z</time>
      </trkpt>
      <trkpt lat="48.03099" lon="1.53974">
        <ele>128.235101</ele>
        <time>2021-09-08T08:26:11.000Z</time>
      </trkpt>
      <trkpt lat="48.03083" lon="1.54052">
        <ele>128.106472</ele>
        <time>2021-09-08T08:26:21.000Z</time>
      </trkpt>
      <trkpt lat="48.0307" lon="1.54116">
        <ele>127.919882</ele>
        <time>2021-09-08T08:26:29.000Z</time>
      </trkpt>
      <trkpt lat="48.03056" lon="1.54186">
        <ele>127.713532</ele>
        <time>2021-09-08T08:26:38.000Z</time>
      </trkpt>
      <trkpt lat="48.03041" lon="1.54263">
        <ele>127.486222</ele>
        <time>2021-09-08T08:26:48.000Z</time>
      </trkpt>
      <trkpt lat="48.03027" lon="1.54331">
        <ele>127.324933</ele>
        <time>2021-09-08T08:26:57.000Z</time>
      </trkpt>
      <trkpt lat="48.03013" lon="1.54404">
        <ele>127.200483</ele>
        <time>2021-09-08T08:27:07.000Z</time>
      </trkpt>
      <trkpt lat="48.03" lon="1.54469">
        <ele>127.088119</ele>
        <time>2021-09-08T08:27:16.000Z</time>
      </trkpt>
      <trkpt lat="48.02984" lon="1.54549">
        <ele>126.950496</ele>
        <time>2021-09-08T08:27:27.000Z</time>
      </trkpt>
      <trkpt lat="48.02982" lon="1.54557">
        <ele>126.93769</ele>
        <time>2021-09-08T08:27:28.000Z</time>
      </trkpt>
      <trkpt lat="48.02968" lon="1.54628">
        <ele>126.825733</ele>
        <time>2021-09-08T08:27:37.000Z</time>
      </trkpt>
      <trkpt lat="48.02956" lon="1.54691">
        <ele>126.726156</ele>
        <time>2021-09-08T08:27:45.000Z</time>
      </trkpt>
      <trkpt lat="48.02942" lon="1.54758">
        <ele>126.619745</ele>
        <time>2021-09-08T08:27:54.000Z</time>
      </trkpt>
      <trkpt lat="48.02929" lon="1.54827">
        <ele>126.558369</ele>
        <time>2021-09-08T08:28:03.000Z</time>
      </trkpt>
      <trkpt lat="48.02914" lon="1.54899">
        <ele>126.748349</ele>
        <time>2021-09-08T08:28:13.000Z</time>
      </trkpt>
      <trkpt lat="48.02905" lon="1.54944">
        <ele>126.864537</ele>
        <time>2021-09-08T08:28:20.000Z</time>
      </trkpt>
      <trkpt lat="48.02896" lon="1.54992">
        <ele>126.989784</ele>
        <time>2021-09-08T08:28:28.000Z</time>
      </trkpt>
      <trkpt lat="48.02891" lon="1.55016">
        <ele>127.052739</ele>
        <time>2021-09-08T08:28:32.000Z</time>
      </trkpt>
      <trkpt lat="48.02887" lon="1.55034">
        <ele>127.100187</ele>
        <time>2021-09-08T08:28:35.000Z</time>
      </trkpt>
      <trkpt lat="48.02875" lon="1.55099">
        <ele>127.314533</ele>
        <time>2021-09-08T08:28:46.000Z</time>
      </trkpt>
      <trkpt lat="48.02863" lon="1.55155">
        <ele>127.551657</ele>
        <time>2021-09-08T08:28:55.000Z</time>
      </trkpt>
      <trkpt lat="48.02852" lon="1.55213">
        <ele>127.800557</ele>
        <time>2021-09-08T08:29:04.000Z</time>
      </trkpt>
      <trkpt lat="48.02843" lon="1.55259">
        <ele>127.998068</ele>
        <time>2021-09-08T08:29:11.000Z</time>
      </trkpt>
      <trkpt lat="48.02829" lon="1.55325">
        <ele>128.281467</ele>
        <time>2021-09-08T08:29:21.000Z</time>
      </trkpt>
      <trkpt lat="48.02821" lon="1.55364">
        <ele>128.447321</ele>
        <time>2021-09-08T08:29:27.000Z</time>
      </trkpt>
      <trkpt lat="48.02819" lon="1.55378">
        <ele>128.503617</ele>
        <time>2021-09-08T08:29:29.000Z</time>
      </trkpt>
      <trkpt lat="48.02807" lon="1.55439">
        <ele>128.757955</ele>
        <time>2021-09-08T08:29:38.000Z</time>
      </trkpt>
      <trkpt lat="48.02793" lon="1.55506">
        <ele>129.036696</ele>
        <time>2021-09-08T08:29:48.000Z</time>
      </trkpt>
      <trkpt lat="48.02783" lon="1.55557">
        <ele>129.250524</ele>
        <time>2021-09-08T08:29:56.000Z</time>
      </trkpt>
      <trkpt lat="48.02772" lon="1.55614">
        <ele>129.399864</ele>
        <time>2021-09-08T08:30:05.000Z</time>
      </trkpt>
      <trkpt lat="48.0276" lon="1.55676">
        <ele>129.447658</ele>
        <time>2021-09-08T08:30:14.000Z</time>
      </trkpt>
      <trkpt lat="48.02749" lon="1.55732">
        <ele>129.491423</ele>
        <time>2021-09-08T08:30:21.000Z</time>
      </trkpt>
      <trkpt lat="48.02738" lon="1.55785">
        <ele>129.531899</ele>
        <time>2021-09-08T08:30:27.000Z</time>
      </trkpt>
      <trkpt lat="48.02737" lon="1.55794">
        <ele>129.538897</ele>
        <time>2021-09-08T08:30:28.000Z</time>
      </trkpt>
      <trkpt lat="48.02725" lon="1.55857">
        <ele>129.557595</ele>
        <time>2021-09-08T08:30:35.000Z</time>
      </trkpt>
      <trkpt lat="48.02709" lon="1.5593">
        <ele>129.404755</ele>
        <time>2021-09-08T08:30:43.000Z</time>
      </trkpt>
      <trkpt lat="48.02697" lon="1.55991">
        <ele>129.275546</ele>
        <time>2021-09-08T08:30:50.000Z</time>
      </trkpt>
      <trkpt lat="48.02681" lon="1.56057">
        <ele>129.136024</ele>
        <time>2021-09-08T08:30:58.000Z</time>
      </trkpt>
      <trkpt lat="48.02667" lon="1.56128">
        <ele>129.046412</ele>
        <time>2021-09-08T08:31:07.000Z</time>
      </trkpt>
      <trkpt lat="48.02652" lon="1.56203">
        <ele>129.065143</ele>
        <time>2021-09-08T08:31:18.000Z</time>
      </trkpt>
      <trkpt lat="48.02641" lon="1.56269">
        <ele>129.081269</ele>
        <time>2021-09-08T08:31:28.000Z</time>
      </trkpt>
      <trkpt lat="48.0263" lon="1.56336">
        <ele>129.097507</ele>
        <time>2021-09-08T08:31:38.000Z</time>
      </trkpt>
      <trkpt lat="48.02619" lon="1.56402">
        <ele>129.123598</ele>
        <time>2021-09-08T08:31:48.000Z</time>
      </trkpt>
      <trkpt lat="48.02611" lon="1.56458">
        <ele>129.151511</ele>
        <time>2021-09-08T08:31:56.000Z</time>
      </trkpt>
      <trkpt lat="48.02604" lon="1.56515">
        <ele>129.179768</ele>
        <time>2021-09-08T08:32:04.000Z</time>
      </trkpt>
      <trkpt lat="48.02595" lon="1.56588">
        <ele>129.215997</ele>
        <time>2021-09-08T08:32:14.000Z</time>
      </trkpt>
      <trkpt lat="48.02587" lon="1.56657">
        <ele>129.185882</ele>
        <time>2021-09-08T08:32:23.000Z</time>
      </trkpt>
      <trkpt lat="48.02578" lon="1.56727">
        <ele>129.07467</ele>
        <time>2021-09-08T08:32:32.000Z</time>
      </trkpt>
      <trkpt lat="48.02571" lon="1.56793">
        <ele>128.970672</ele>
        <time>2021-09-08T08:32:40.000Z</time>
      </trkpt>
      <trkpt lat="48.02563" lon="1.56877">
        <ele>128.837868</ele>
        <time>2021-09-08T08:32:50.000Z</time>
      </trkpt>
      <trkpt lat="48.02562" lon="1.56885">
        <ele>128.824445</ele>
        <time>2021-09-08T08:32:51.000Z</time>
      </trkpt>
      <trkpt lat="48.02554" lon="1.56969">
        <ele>128.667357</ele>
        <time>2021-09-08T08:33:01.000Z</time>
      </trkpt>
      <trkpt lat="48.02553" lon="1.56977">
        <ele>128.651968</ele>
        <time>2021-09-08T08:33:02.000Z</time>
      </trkpt>
      <trkpt lat="48.02544" lon="1.57058">
        <ele>128.497529</ele>
        <time>2021-09-08T08:33:12.000Z</time>
      </trkpt>
      <trkpt lat="48.02543" lon="1.57066">
        <ele>128.482287</ele>
        <time>2021-09-08T08:33:13.000Z</time>
      </trkpt>
      <trkpt lat="48.02536" lon="1.57127">
        <ele>128.365667</ele>
        <time>2021-09-08T08:33:21.000Z</time>
      </trkpt>
      <trkpt lat="48.02532" lon="1.5717">
        <ele>128.310476</ele>
        <time>2021-09-08T08:33:27.000Z</time>
      </trkpt>
      <trkpt lat="48.02526" lon="1.57224">
        <ele>128.323367</ele>
        <time>2021-09-08T08:33:35.000Z</time>
      </trkpt>
      <trkpt lat="48.02516" lon="1.57299">
        <ele>128.341045</ele>
        <time>2021-09-08T08:33:46.000Z</time>
      </trkpt>
      <trkpt lat="48.02504" lon="1.57359">
        <ele>128.35565</ele>
        <time>2021-09-08T08:33:55.000Z</time>
      </trkpt>
      <trkpt lat="48.02493" lon="1.57414">
        <ele>128.369009</ele>
        <time>2021-09-08T08:34:03.000Z</time>
      </trkpt>
      <trkpt lat="48.0248" lon="1.57472">
        <ele>128.376489</ele>
        <time>2021-09-08T08:34:11.000Z</time>
      </trkpt>
      <trkpt lat="48.02469" lon="1.57524">
        <ele>128.382463</ele>
        <time>2021-09-08T08:34:18.000Z</time>
      </trkpt>
      <trkpt lat="48.02452" lon="1.57606">
        <ele>128.392014</ele>
        <time>2021-09-08T08:34:29.000Z</time>
      </trkpt>
      <trkpt lat="48.02449" lon="1.57621">
        <ele>128.393748</ele>
        <time>2021-09-08T08:34:31.000Z</time>
      </trkpt>
      <trkpt lat="48.0244" lon="1.57659">
        <ele>128.39814</ele>
        <time>2021-09-08T08:34:36.000Z</time>
      </trkpt>
      <trkpt lat="48.02438" lon="1.57674">
        <ele>128.399892</ele>
        <time>2021-09-08T08:34:38.000Z</time>
      </trkpt>
      <trkpt lat="48.02427" lon="1.57728">
        <ele>128.416526</ele>
        <time>2021-09-08T08:34:45.000Z</time>
      </trkpt>
      <trkpt lat="48.02413" lon="1.57796">
        <ele>128.437823</ele>
        <time>2021-09-08T08:34:54.000Z</time>
      </trkpt>
      <trkpt lat="48.02398" lon="1.57862">
        <ele>128.458564</ele>
        <time>2021-09-08T08:35:03.000Z</time>
      </trkpt>
      <trkpt lat="48.02385" lon="1.5792">
        <ele>128.476563</ele>
        <time>2021-09-08T08:35:11.000Z</time>
      </trkpt>
      <trkpt lat="48.0237" lon="1.57994">
        <ele>128.521675</ele>
        <time>2021-09-08T08:35:21.000Z</time>
      </trkpt>
      <trkpt lat="48.02355" lon="1.5806">
        <ele>128.566205</ele>
        <time>2021-09-08T08:35:30.000Z</time>
      </trkpt>
      <trkpt lat="48.02339" lon="1.58135">
        <ele>128.615904</ele>
        <time>2021-09-08T08:35:40.000Z</time>
      </trkpt>
      <trkpt lat="48.02323" lon="1.5821">
        <ele>128.679652</ele>
        <time>2021-09-08T08:35:50.000Z</time>
      </trkpt>
      <trkpt lat="48.02306" lon="1.58291">
        <ele>128.782709</ele>
        <time>2021-09-08T08:36:01.000Z</time>
      </trkpt>
      <trkpt lat="48.02305" lon="1.58298">
        <ele>128.791689</ele>
        <time>2021-09-08T08:36:02.000Z</time>
      </trkpt>
      <trkpt lat="48.02293" lon="1.58356">
        <ele>128.865791</ele>
        <time>2021-09-08T08:36:10.000Z</time>
      </trkpt>
      <trkpt lat="48.02278" lon="1.58424">
        <ele>128.951398</ele>
        <time>2021-09-08T08:36:19.000Z</time>
      </trkpt>
      <trkpt lat="48.02262" lon="1.58498">
        <ele>128.984975</ele>
        <time>2021-09-08T08:36:29.000Z</time>
      </trkpt>
      <trkpt lat="48.0225" lon="1.58556">
        <ele>128.993494</ele>
        <time>2021-09-08T08:36:37.000Z</time>
      </trkpt>
      <trkpt lat="48.02246" lon="1.58571">
        <ele>128.995716</ele>
        <time>2021-09-08T08:36:39.000Z</time>
      </trkpt>
      <trkpt lat="48.02238" lon="1.58609">
        <ele>129.001232</ele>
        <time>2021-09-08T08:36:44.000Z</time>
      </trkpt>
      <trkpt lat="48.0222" lon="1.58689">
        <ele>129.012919</ele>
        <time>2021-09-08T08:36:54.000Z</time>
      </trkpt>
      <trkpt lat="48.02202" lon="1.58763">
        <ele>129.024811</ele>
        <time>2021-09-08T08:37:03.000Z</time>
      </trkpt>
      <trkpt lat="48.02185" lon="1.58838">
        <ele>129.036907</ele>
        <time>2021-09-08T08:37:12.000Z</time>
      </trkpt>
      <trkpt lat="48.02166" lon="1.58909">
        <ele>129.048496</ele>
        <time>2021-09-08T08:37:21.000Z</time>
      </trkpt>
      <trkpt lat="48.02147" lon="1.58976">
        <ele>129.05103</ele>
        <time>2021-09-08T08:37:30.000Z</time>
      </trkpt>
      <trkpt lat="48.0213" lon="1.59034">
        <ele>129.041053</ele>
        <time>2021-09-08T08:37:38.000Z</time>
      </trkpt>
      <trkpt lat="48.02112" lon="1.59096">
        <ele>129.03017</ele>
        <time>2021-09-08T08:37:47.000Z</time>
      </trkpt>
      <trkpt lat="48.02091" lon="1.59166">
        <ele>129.017865</ele>
        <time>2021-09-08T08:37:57.000Z</time>
      </trkpt>
      <trkpt lat="48.02069" lon="1.59239">
        <ele>128.968264</ele>
        <time>2021-09-08T08:38:07.000Z</time>
      </trkpt>
      <trkpt lat="48.02057" lon="1.59278">
        <ele>128.927429</ele>
        <time>2021-09-08T08:38:13.000Z</time>
      </trkpt>
      <trkpt lat="48.0204" lon="1.59333">
        <ele>128.870073</ele>
        <time>2021-09-08T08:38:22.000Z</time>
      </trkpt>
      <trkpt lat="48.02025" lon="1.59381">
        <ele>128.819293</ele>
        <time>2021-09-08T08:38:29.000Z</time>
      </trkpt>
      <trkpt lat="48.02004" lon="1.5945">
        <ele>128.729265</ele>
        <time>2021-09-08T08:38:38.000Z</time>
      </trkpt>
      <trkpt lat="48.01986" lon="1.59511">
        <ele>128.536326</ele>
        <time>2021-09-08T08:38:46.000Z</time>
      </trkpt>
      <trkpt lat="48.01964" lon="1.59584">
        <ele>128.305541</ele>
        <time>2021-09-08T08:38:56.000Z</time>
      </trkpt>
      <trkpt lat="48.01943" lon="1.59656">
        <ele>128.079135</ele>
        <time>2021-09-08T08:39:06.000Z</time>
      </trkpt>
      <trkpt lat="48.0192" lon="1.5973">
        <ele>127.848037</ele>
        <time>2021-09-08T08:39:16.000Z</time>
      </trkpt>
      <trkpt lat="48.01896" lon="1.5981">
        <ele>127.596527</ele>
        <time>2021-09-08T08:39:27.000Z</time>
      </trkpt>
      <trkpt lat="48.01879" lon="1.59867">
        <ele>127.418745</ele>
        <time>2021-09-08T08:39:35.000Z</time>
      </trkpt>
      <trkpt lat="48.01859" lon="1.59932">
        <ele>127.213786</ele>
        <time>2021-09-08T08:39:44.000Z</time>
      </trkpt>
      <trkpt lat="48.01836" lon="1.60007">
        <ele>127.012763</ele>
        <time>2021-09-08T08:39:54.000Z</time>
      </trkpt>
      <trkpt lat="48.01814" lon="1.60075">
        <ele>126.826128</ele>
        <time>2021-09-08T08:40:03.000Z</time>
      </trkpt>
      <trkpt lat="48.01792" lon="1.60143">
        <ele>126.64062</ele>
        <time>2021-09-08T08:40:12.000Z</time>
      </trkpt>
      <trkpt lat="48.01767" lon="1.60223">
        <ele>126.500491</ele>
        <time>2021-09-08T08:40:23.000Z</time>
      </trkpt>
      <trkpt lat="48.01747" lon="1.60291">
        <ele>126.422542</ele>
        <time>2021-09-08T08:40:33.000Z</time>
      </trkpt>
      <trkpt lat="48.01727" lon="1.60359">
        <ele>126.344879</ele>
        <time>2021-09-08T08:40:43.000Z</time>
      </trkpt>
      <trkpt lat="48.0171" lon="1.60412">
        <ele>126.283516</ele>
        <time>2021-09-08T08:40:51.000Z</time>
      </trkpt>
      <trkpt lat="48.01692" lon="1.6047">
        <ele>126.357052</ele>
        <time>2021-09-08T08:41:00.000Z</time>
      </trkpt>
      <trkpt lat="48.01677" lon="1.60523">
        <ele>126.441799</ele>
        <time>2021-09-08T08:41:08.000Z</time>
      </trkpt>
      <trkpt lat="48.01661" lon="1.60576">
        <ele>126.52726</ele>
        <time>2021-09-08T08:41:16.000Z</time>
      </trkpt>
      <trkpt lat="48.01657" lon="1.60589">
        <ele>126.547999</ele>
        <time>2021-09-08T08:41:18.000Z</time>
      </trkpt>
      <trkpt lat="48.01641" lon="1.60647">
        <ele>126.641308</ele>
        <time>2021-09-08T08:41:27.000Z</time>
      </trkpt>
      <trkpt lat="48.01628" lon="1.60695">
        <ele>126.709387</ele>
        <time>2021-09-08T08:41:34.000Z</time>
      </trkpt>
      <trkpt lat="48.01607" lon="1.60772">
        <ele>126.811153</ele>
        <time>2021-09-08T08:41:45.000Z</time>
      </trkpt>
      <trkpt lat="48.01585" lon="1.60852">
        <ele>126.916218</ele>
        <time>2021-09-08T08:41:56.000Z</time>
      </trkpt>
      <trkpt lat="48.01569" lon="1.60913">
        <ele>126.996801</ele>
        <time>2021-09-08T08:42:04.000Z</time>
      </trkpt>
      <trkpt lat="48.01551" lon="1.60981">
        <ele>127.046827</ele>
        <time>2021-09-08T08:42:13.000Z</time>
      </trkpt>
      <trkpt lat="48.0153" lon="1.61058">
        <ele>127.100918</ele>
        <time>2021-09-08T08:42:23.000Z</time>
      </trkpt>
      <trkpt lat="48.01524" lon="1.61081">
        <ele>127.117114</ele>
        <time>2021-09-08T08:42:26.000Z</time>
      </trkpt>
      <trkpt lat="48.01508" lon="1.6114">
        <ele>127.158906</ele>
        <time>2021-09-08T08:42:34.000Z</time>
      </trkpt>
      <trkpt lat="48.01492" lon="1.61208">
        <ele>127.187115</ele>
        <time>2021-09-08T08:42:44.000Z</time>
      </trkpt>
      <trkpt lat="48.01473" lon="1.61286">
        <ele>127.206462</ele>
        <time>2021-09-08T08:42:55.000Z</time>
      </trkpt>
      <trkpt lat="48.01462" lon="1.61336">
        <ele>127.218754</ele>
        <time>2021-09-08T08:43:02.000Z</time>
      </trkpt>
      <trkpt lat="48.01461" lon="1.61342">
        <ele>127.220294</ele>
        <time>2021-09-08T08:43:03.000Z</time>
      </trkpt>
      <trkpt lat="48.01453" lon="1.61374">
        <ele>127.227968</ele>
        <time>2021-09-08T08:43:08.000Z</time>
      </trkpt>
      <trkpt lat="48.01442" lon="1.6142">
        <ele>127.236785</ele>
        <time>2021-09-08T08:43:15.000Z</time>
      </trkpt>
      <trkpt lat="48.01432" lon="1.61467">
        <ele>127.140211</ele>
        <time>2021-09-08T08:43:22.000Z</time>
      </trkpt>
      <trkpt lat="48.01419" lon="1.61526">
        <ele>127.019191</ele>
        <time>2021-09-08T08:43:30.000Z</time>
      </trkpt>
      <trkpt lat="48.01402" lon="1.616">
        <ele>126.866038</ele>
        <time>2021-09-08T08:43:39.000Z</time>
      </trkpt>
      <trkpt lat="48.01386" lon="1.61667">
        <ele>126.727507</ele>
        <time>2021-09-08T08:43:47.000Z</time>
      </trkpt>
      <trkpt lat="48.01369" lon="1.61742">
        <ele>126.453693</ele>
        <time>2021-09-08T08:43:56.000Z</time>
      </trkpt>
      <trkpt lat="48.01352" lon="1.61816">
        <ele>126.169976</ele>
        <time>2021-09-08T08:44:05.000Z</time>
      </trkpt>
      <trkpt lat="48.01332" lon="1.61898">
        <ele>125.857991</ele>
        <time>2021-09-08T08:44:15.000Z</time>
      </trkpt>
      <trkpt lat="48.01319" lon="1.61956">
        <ele>125.641334</ele>
        <time>2021-09-08T08:44:22.000Z</time>
      </trkpt>
      <trkpt lat="48.013" lon="1.6204">
        <ele>125.342669</ele>
        <time>2021-09-08T08:44:32.000Z</time>
      </trkpt>
      <trkpt lat="48.01298" lon="1.62048">
        <ele>125.31227</ele>
        <time>2021-09-08T08:44:33.000Z</time>
      </trkpt>
      <trkpt lat="48.01283" lon="1.62113">
        <ele>125.080307</ele>
        <time>2021-09-08T08:44:41.000Z</time>
      </trkpt>
      <trkpt lat="48.01266" lon="1.62184">
        <ele>124.826015</ele>
        <time>2021-09-08T08:44:50.000Z</time>
      </trkpt>
      <trkpt lat="48.01248" lon="1.62263">
        <ele>124.560179</ele>
        <time>2021-09-08T08:45:00.000Z</time>
      </trkpt>
      <trkpt lat="48.01247" lon="1.62271">
        <ele>124.533956</ele>
        <time>2021-09-08T08:45:01.000Z</time>
      </trkpt>
      <trkpt lat="48.01229" lon="1.62349">
        <ele>124.269929</ele>
        <time>2021-09-08T08:45:11.000Z</time>
      </trkpt>
      <trkpt lat="48.01212" lon="1.62421">
        <ele>124.028039</ele>
        <time>2021-09-08T08:45:20.000Z</time>
      </trkpt>
      <trkpt lat="48.01195" lon="1.62498">
        <ele>123.814828</ele>
        <time>2021-09-08T08:45:30.000Z</time>
      </trkpt>
      <trkpt lat="48.01193" lon="1.62505">
        <ele>123.795679</ele>
        <time>2021-09-08T08:45:31.000Z</time>
      </trkpt>
      <trkpt lat="48.01174" lon="1.62586">
        <ele>123.580263</ele>
        <time>2021-09-08T08:45:42.000Z</time>
      </trkpt>
      <trkpt lat="48.01158" lon="1.62653">
        <ele>123.401512</ele>
        <time>2021-09-08T08:45:51.000Z</time>
      </trkpt>
      <trkpt lat="48.01141" lon="1.62727">
        <ele>123.233853</ele>
        <time>2021-09-08T08:46:01.000Z</time>
      </trkpt>
      <trkpt lat="48.01125" lon="1.62802">
        <ele>123.091698</ele>
        <time>2021-09-08T08:46:11.000Z</time>
      </trkpt>
      <trkpt lat="48.01108" lon="1.62873">
        <ele>122.955444</ele>
        <time>2021-09-08T08:46:21.000Z</time>
      </trkpt>
      <trkpt lat="48.01096" lon="1.6293">
        <ele>122.846182</ele>
        <time>2021-09-08T08:46:29.000Z</time>
      </trkpt>
      <trkpt lat="48.01083" lon="1.62989">
        <ele>122.862039</ele>
        <time>2021-09-08T08:46:37.000Z</time>
      </trkpt>
      <trkpt lat="48.01068" lon="1.63055">
        <ele>122.926857</ele>
        <time>2021-09-08T08:46:46.000Z</time>
      </trkpt>
      <trkpt lat="48.01056" lon="1.6312">
        <ele>122.989967</ele>
        <time>2021-09-08T08:46:55.000Z</time>
      </trkpt>
      <trkpt lat="48.01042" lon="1.63192">
        <ele>123.058836</ele>
        <time>2021-09-08T08:47:05.000Z</time>
      </trkpt>
      <trkpt lat="48.01032" lon="1.63261">
        <ele>123.220363</ele>
        <time>2021-09-08T08:47:15.000Z</time>
      </trkpt>
      <trkpt lat="48.01021" lon="1.63324">
        <ele>123.382124</ele>
        <time>2021-09-08T08:47:24.000Z</time>
      </trkpt>
      <trkpt lat="48.0101" lon="1.63389">
        <ele>123.549539</ele>
        <time>2021-09-08T08:47:33.000Z</time>
      </trkpt>
      <trkpt lat="48.00999" lon="1.6346">
        <ele>123.731516</ele>
        <time>2021-09-08T08:47:43.000Z</time>
      </trkpt>
      <trkpt lat="48.00987" lon="1.63517">
        <ele>123.73198</ele>
        <time>2021-09-08T08:47:51.000Z</time>
      </trkpt>
      <trkpt lat="48.00973" lon="1.63582">
        <ele>123.722742</ele>
        <time>2021-09-08T08:48:00.000Z</time>
      </trkpt>
      <trkpt lat="48.00961" lon="1.63643">
        <ele>123.714258</ele>
        <time>2021-09-08T08:48:08.000Z</time>
      </trkpt>
      <trkpt lat="48.00945" lon="1.63721">
        <ele>123.701461</ele>
        <time>2021-09-08T08:48:18.000Z</time>
      </trkpt>
      <trkpt lat="48.00943" lon="1.63729">
        <ele>123.681533</ele>
        <time>2021-09-08T08:48:19.000Z</time>
      </trkpt>
      <trkpt lat="48.00932" lon="1.63785">
        <ele>123.539829</ele>
        <time>2021-09-08T08:48:26.000Z</time>
      </trkpt>
      <trkpt lat="48.00919" lon="1.63849">
        <ele>123.377652</ele>
        <time>2021-09-08T08:48:34.000Z</time>
      </trkpt>
      <trkpt lat="48.00903" lon="1.63929">
        <ele>123.174411</ele>
        <time>2021-09-08T08:48:44.000Z</time>
      </trkpt>
      <trkpt lat="48.00887" lon="1.64009">
        <ele>122.958128</ele>
        <time>2021-09-08T08:48:54.000Z</time>
      </trkpt>
      <trkpt lat="48.00884" lon="1.64025">
        <ele>122.911224</ele>
        <time>2021-09-08T08:48:56.000Z</time>
      </trkpt>
      <trkpt lat="48.00873" lon="1.6408">
        <ele>122.746471</ele>
        <time>2021-09-08T08:49:03.000Z</time>
      </trkpt>
      <trkpt lat="48.00857" lon="1.6416">
        <ele>122.508091</ele>
        <time>2021-09-08T08:49:13.000Z</time>
      </trkpt>
      <trkpt lat="48.00856" lon="1.64168">
        <ele>122.483954</ele>
        <time>2021-09-08T08:49:14.000Z</time>
      </trkpt>
      <trkpt lat="48.00841" lon="1.6424">
        <ele>122.268882</ele>
        <time>2021-09-08T08:49:23.000Z</time>
      </trkpt>
      <trkpt lat="48.00827" lon="1.64312">
        <ele>122.045399</ele>
        <time>2021-09-08T08:49:32.000Z</time>
      </trkpt>
      <trkpt lat="48.00811" lon="1.64392">
        <ele>121.796529</ele>
        <time>2021-09-08T08:49:42.000Z</time>
      </trkpt>
      <trkpt lat="48.00808" lon="1.64408">
        <ele>121.746132</ele>
        <time>2021-09-08T08:49:44.000Z</time>
      </trkpt>
      <trkpt lat="48.00792" lon="1.64488">
        <ele>121.495989</ele>
        <time>2021-09-08T08:49:54.000Z</time>
      </trkpt>
      <trkpt lat="48.0079" lon="1.64496">
        <ele>121.472089</ele>
        <time>2021-09-08T08:49:55.000Z</time>
      </trkpt>
      <trkpt lat="48.00774" lon="1.64576">
        <ele>121.265516</ele>
        <time>2021-09-08T08:50:05.000Z</time>
      </trkpt>
      <trkpt lat="48.00773" lon="1.64584">
        <ele>121.245283</ele>
        <time>2021-09-08T08:50:06.000Z</time>
      </trkpt>
      <trkpt lat="48.00758" lon="1.64655">
        <ele>121.061255</ele>
        <time>2021-09-08T08:50:15.000Z</time>
      </trkpt>
      <trkpt lat="48.00744" lon="1.64727">
        <ele>120.875543</ele>
        <time>2021-09-08T08:50:24.000Z</time>
      </trkpt>
      <trkpt lat="48.00728" lon="1.64805">
        <ele>120.69575</ele>
        <time>2021-09-08T08:50:34.000Z</time>
      </trkpt>
      <trkpt lat="48.00725" lon="1.64821">
        <ele>120.66143</ele>
        <time>2021-09-08T08:50:36.000Z</time>
      </trkpt>
      <trkpt lat="48.00713" lon="1.64882">
        <ele>120.528652</ele>
        <time>2021-09-08T08:50:44.000Z</time>
      </trkpt>
      <trkpt lat="48.00703" lon="1.64933">
        <ele>120.418617</ele>
        <time>2021-09-08T08:50:51.000Z</time>
      </trkpt>
      <trkpt lat="48.00695" lon="1.64974">
        <ele>120.328548</ele>
        <time>2021-09-08T08:50:57.000Z</time>
      </trkpt>
      <trkpt lat="48.00684" lon="1.65021">
        <ele>120.232764</ele>
        <time>2021-09-08T08:51:04.000Z</time>
      </trkpt>
      <trkpt lat="48.00683" lon="1.65028">
        <ele>120.222911</ele>
        <time>2021-09-08T08:51:05.000Z</time>
      </trkpt>
      <trkpt lat="48.00677" lon="1.65061">
        <ele>120.170923</ele>
        <time>2021-09-08T08:51:10.000Z</time>
      </trkpt>
      <trkpt lat="48.00666" lon="1.65113">
        <ele>120.089292</ele>
        <time>2021-09-08T08:51:17.000Z</time>
      </trkpt>
      <trkpt lat="48.00653" lon="1.65182">
        <ele>119.981678</ele>
        <time>2021-09-08T08:51:26.000Z</time>
      </trkpt>
      <trkpt lat="48.00636" lon="1.65264">
        <ele>119.852966</ele>
        <time>2021-09-08T08:51:36.000Z</time>
      </trkpt>
      <trkpt lat="48.00634" lon="1.65272">
        <ele>119.843662</ele>
        <time>2021-09-08T08:51:37.000Z</time>
      </trkpt>
      <trkpt lat="48.00618" lon="1.65354">
        <ele>119.762695</ele>
        <time>2021-09-08T08:51:47.000Z</time>
      </trkpt>
      <trkpt lat="48.00616" lon="1.65362">
        <ele>119.754714</ele>
        <time>2021-09-08T08:51:48.000Z</time>
      </trkpt>
      <trkpt lat="48.006" lon="1.65445">
        <ele>119.673112</ele>
        <time>2021-09-08T08:51:58.000Z</time>
      </trkpt>
      <trkpt lat="48.00597" lon="1.65461">
        <ele>119.656968</ele>
        <time>2021-09-08T08:52:00.000Z</time>
      </trkpt>
      <trkpt lat="48.00582" lon="1.65536">
        <ele>119.584912</ele>
        <time>2021-09-08T08:52:09.000Z</time>
      </trkpt>
      <trkpt lat="48.00567" lon="1.65617">
        <ele>119.516893</ele>
        <time>2021-09-08T08:52:19.000Z</time>
      </trkpt>
      <trkpt lat="48.00566" lon="1.65625">
        <ele>119.510009</ele>
        <time>2021-09-08T08:52:20.000Z</time>
      </trkpt>
      <trkpt lat="48.00552" lon="1.65698">
        <ele>119.448136</ele>
        <time>2021-09-08T08:52:29.000Z</time>
      </trkpt>
      <trkpt lat="48.00539" lon="1.6578">
        <ele>119.379868</ele>
        <time>2021-09-08T08:52:39.000Z</time>
      </trkpt>
      <trkpt lat="48.00532" lon="1.65831">
        <ele>119.32319</ele>
        <time>2021-09-08T08:52:45.000Z</time>
      </trkpt>
      <trkpt lat="48.00522" lon="1.6591">
        <ele>119.23624</ele>
        <time>2021-09-08T08:52:54.000Z</time>
      </trkpt>
      <trkpt lat="48.00515" lon="1.65985">
        <ele>119.153073</ele>
        <time>2021-09-08T08:53:03.000Z</time>
      </trkpt>
      <trkpt lat="48.00508" lon="1.66067">
        <ele>119.06681</ele>
        <time>2021-09-08T08:53:13.000Z</time>
      </trkpt>
      <trkpt lat="48.00502" lon="1.66148">
        <ele>118.994931</ele>
        <time>2021-09-08T08:53:23.000Z</time>
      </trkpt>
      <trkpt lat="48.00498" lon="1.66209">
        <ele>118.941046</ele>
        <time>2021-09-08T08:53:31.000Z</time>
      </trkpt>
      <trkpt lat="48.00493" lon="1.6628">
        <ele>118.878432</ele>
        <time>2021-09-08T08:53:40.000Z</time>
      </trkpt>
      <trkpt lat="48.00486" lon="1.66367">
        <ele>118.840566</ele>
        <time>2021-09-08T08:53:51.000Z</time>
      </trkpt>
      <trkpt lat="48.00486" lon="1.66375">
        <ele>118.839642</ele>
        <time>2021-09-08T08:53:52.000Z</time>
      </trkpt>
      <trkpt lat="48.0048" lon="1.66448">
        <ele>118.831088</ele>
        <time>2021-09-08T08:54:01.000Z</time>
      </trkpt>
      <trkpt lat="48.00476" lon="1.66526">
        <ele>118.821937</ele>
        <time>2021-09-08T08:54:11.000Z</time>
      </trkpt>
      <trkpt lat="48.00471" lon="1.66593">
        <ele>118.825621</ele>
        <time>2021-09-08T08:54:20.000Z</time>
      </trkpt>
      <trkpt lat="48.00467" lon="1.66659">
        <ele>118.89178</ele>
        <time>2021-09-08T08:54:29.000Z</time>
      </trkpt>
      <trkpt lat="48.00461" lon="1.6674">
        <ele>118.973495</ele>
        <time>2021-09-08T08:54:40.000Z</time>
      </trkpt>
      <trkpt lat="48.00461" lon="1.66748">
        <ele>118.981019</ele>
        <time>2021-09-08T08:54:41.000Z</time>
      </trkpt>
      <trkpt lat="48.00455" lon="1.66831">
        <ele>119.064321</ele>
        <time>2021-09-08T08:54:52.000Z</time>
      </trkpt>
      <trkpt lat="48.00448" lon="1.66905">
        <ele>119.135248</ele>
        <time>2021-09-08T08:55:02.000Z</time>
      </trkpt>
      <trkpt lat="48.00442" lon="1.66966">
        <ele>119.191796</ele>
        <time>2021-09-08T08:55:10.000Z</time>
      </trkpt>
      <trkpt lat="48.00435" lon="1.67043">
        <ele>119.263516</ele>
        <time>2021-09-08T08:55:20.000Z</time>
      </trkpt>
      <trkpt lat="48.00429" lon="1.67106">
        <ele>119.321464</ele>
        <time>2021-09-08T08:55:28.000Z</time>
      </trkpt>
      <trkpt lat="48.00422" lon="1.67179">
        <ele>119.339695</ele>
        <time>2021-09-08T08:55:37.000Z</time>
      </trkpt>
      <trkpt lat="48.00416" lon="1.67246">
        <ele>119.348475</ele>
        <time>2021-09-08T08:55:45.000Z</time>
      </trkpt>
      <trkpt lat="48.00408" lon="1.67331">
        <ele>119.359692</ele>
        <time>2021-09-08T08:55:55.000Z</time>
      </trkpt>
      <trkpt lat="48.00407" lon="1.6734">
        <ele>119.360823</ele>
        <time>2021-09-08T08:55:56.000Z</time>
      </trkpt>
      <trkpt lat="48.004" lon="1.67417">
        <ele>119.398517</ele>
        <time>2021-09-08T08:56:05.000Z</time>
      </trkpt>
      <trkpt lat="48.00392" lon="1.67498">
        <ele>119.475315</ele>
        <time>2021-09-08T08:56:15.000Z</time>
      </trkpt>
      <trkpt lat="48.00385" lon="1.67569">
        <ele>119.542438</ele>
        <time>2021-09-08T08:56:24.000Z</time>
      </trkpt>
      <trkpt lat="48.00381" lon="1.67617">
        <ele>119.58742</ele>
        <time>2021-09-08T08:56:30.000Z</time>
      </trkpt>
      <trkpt lat="48.00373" lon="1.67697">
        <ele>119.660497</ele>
        <time>2021-09-08T08:56:40.000Z</time>
      </trkpt>
      <trkpt lat="48.00365" lon="1.67779">
        <ele>119.732826</ele>
        <time>2021-09-08T08:56:50.000Z</time>
      </trkpt>
      <trkpt lat="48.00357" lon="1.67862">
        <ele>119.805834</ele>
        <time>2021-09-08T08:57:00.000Z</time>
      </trkpt>
      <trkpt lat="48.00349" lon="1.67942">
        <ele>119.862561</ele>
        <time>2021-09-08T08:57:10.000Z</time>
      </trkpt>
      <trkpt lat="48.00343" lon="1.68014">
        <ele>119.889783</ele>
        <time>2021-09-08T08:57:19.000Z</time>
      </trkpt>
      <trkpt lat="48.00336" lon="1.68081">
        <ele>119.914857</ele>
        <time>2021-09-08T08:57:27.000Z</time>
      </trkpt>
      <trkpt lat="48.00329" lon="1.68155">
        <ele>119.942494</ele>
        <time>2021-09-08T08:57:36.000Z</time>
      </trkpt>
      <trkpt lat="48.00322" lon="1.68228">
        <ele>120.040934</ele>
        <time>2021-09-08T08:57:45.000Z</time>
      </trkpt>
      <trkpt lat="48.00317" lon="1.68282">
        <ele>120.142137</ele>
        <time>2021-09-08T08:57:52.000Z</time>
      </trkpt>
      <trkpt lat="48.00311" lon="1.68354">
        <ele>120.275753</ele>
        <time>2021-09-08T08:58:02.000Z</time>
      </trkpt>
      <trkpt lat="48.00306" lon="1.684">
        <ele>120.362722</ele>
        <time>2021-09-08T08:58:09.000Z</time>
      </trkpt>
      <trkpt lat="48.00301" lon="1.68458">
        <ele>120.511658</ele>
        <time>2021-09-08T08:58:18.000Z</time>
      </trkpt>
      <trkpt lat="48.00296" lon="1.68515">
        <ele>120.821034</ele>
        <time>2021-09-08T08:58:27.000Z</time>
      </trkpt>
      <trkpt lat="48.00289" lon="1.6859">
        <ele>121.235852</ele>
        <time>2021-09-08T08:58:39.000Z</time>
      </trkpt>
      <trkpt lat="48.00282" lon="1.68654">
        <ele>121.589388</ele>
        <time>2021-09-08T08:58:49.000Z</time>
      </trkpt>
      <trkpt lat="48.00277" lon="1.68701">
        <ele>121.852634</ele>
        <time>2021-09-08T08:58:56.000Z</time>
      </trkpt>
      <trkpt lat="48.00266" lon="1.68757">
        <ele>122.008935</ele>
        <time>2021-09-08T08:59:04.000Z</time>
      </trkpt>
      <trkpt lat="48.00252" lon="1.68824">
        <ele>122.148744</ele>
        <time>2021-09-08T08:59:13.000Z</time>
      </trkpt>
      <trkpt lat="48.00235" lon="1.68902">
        <ele>122.313417</ele>
        <time>2021-09-08T08:59:23.000Z</time>
      </trkpt>
      <trkpt lat="48.00217" lon="1.68982">
        <ele>122.445833</ele>
        <time>2021-09-08T08:59:33.000Z</time>
      </trkpt>
      <trkpt lat="48.002" lon="1.69062">
        <ele>122.401046</ele>
        <time>2021-09-08T08:59:43.000Z</time>
      </trkpt>
      <trkpt lat="48.00181" lon="1.69146">
        <ele>122.354308</ele>
        <time>2021-09-08T08:59:54.000Z</time>
      </trkpt>
      <trkpt lat="48.00179" lon="1.69154">
        <ele>122.349998</ele>
        <time>2021-09-08T08:59:55.000Z</time>
      </trkpt>
      <trkpt lat="48.00164" lon="1.69223">
        <ele>122.311901</ele>
        <time>2021-09-08T09:00:04.000Z</time>
      </trkpt>
      <trkpt lat="48.00151" lon="1.69283">
        <ele>122.286612</ele>
        <time>2021-09-08T09:00:12.000Z</time>
      </trkpt>
      <trkpt lat="48.00133" lon="1.69366">
        <ele>122.251973</ele>
        <time>2021-09-08T09:00:23.000Z</time>
      </trkpt>
      <trkpt lat="48.00121" lon="1.69417">
        <ele>122.230534</ele>
        <time>2021-09-08T09:00:30.000Z</time>
      </trkpt>
      <trkpt lat="48.00107" lon="1.69482">
        <ele>122.211274</ele>
        <time>2021-09-08T09:00:39.000Z</time>
      </trkpt>
      <trkpt lat="48.0009" lon="1.69562">
        <ele>122.472283</ele>
        <time>2021-09-08T09:00:50.000Z</time>
      </trkpt>
      <trkpt lat="48.00076" lon="1.69626">
        <ele>122.683252</ele>
        <time>2021-09-08T09:00:59.000Z</time>
      </trkpt>
      <trkpt lat="48.00064" lon="1.69676">
        <ele>122.84504</ele>
        <time>2021-09-08T09:01:06.000Z</time>
      </trkpt>
      <trkpt lat="48.00062" lon="1.6969">
        <ele>122.891768</ele>
        <time>2021-09-08T09:01:08.000Z</time>
      </trkpt>
      <trkpt lat="48.00056" lon="1.69719">
        <ele>122.985523</ele>
        <time>2021-09-08T09:01:12.000Z</time>
      </trkpt>
      <trkpt lat="48.00045" lon="1.69767">
        <ele>123.164775</ele>
        <time>2021-09-08T09:01:19.000Z</time>
      </trkpt>
      <trkpt lat="48.00028" lon="1.69828">
        <ele>123.414859</ele>
        <time>2021-09-08T09:01:28.000Z</time>
      </trkpt>
      <trkpt lat="48.00012" lon="1.69887">
        <ele>123.652166</ele>
        <time>2021-09-08T09:01:36.000Z</time>
      </trkpt>
      <trkpt lat="47.99999" lon="1.69936">
        <ele>123.849591</ele>
        <time>2021-09-08T09:01:43.000Z</time>
      </trkpt>
      <trkpt lat="47.99993" lon="1.69957">
        <ele>123.937459</ele>
        <time>2021-09-08T09:01:48.000Z</time>
      </trkpt>
      <trkpt lat="47.99985" lon="1.69981">
        <ele>124.037276</ele>
        <time>2021-09-08T09:01:54.000Z</time>
      </trkpt>
      <trkpt lat="47.9998" lon="1.69999">
        <ele>124.05573</ele>
        <time>2021-09-08T09:01:57.000Z</time>
      </trkpt>
      <trkpt lat="47.99975" lon="1.70012">
        <ele>124.062215</ele>
        <time>2021-09-08T09:01:59.000Z</time>
      </trkpt>
      <trkpt lat="47.99954" lon="1.70071">
        <ele>124.091447</ele>
        <time>2021-09-08T09:02:07.000Z</time>
      </trkpt>
      <trkpt lat="47.99936" lon="1.70119">
        <ele>124.114837</ele>
        <time>2021-09-08T09:02:13.000Z</time>
      </trkpt>
      <trkpt lat="47.9992" lon="1.70169">
        <ele>124.139104</ele>
        <time>2021-09-08T09:02:19.000Z</time>
      </trkpt>
      <trkpt lat="47.99902" lon="1.7022">
        <ele>124.164021</ele>
        <time>2021-09-08T09:02:25.000Z</time>
      </trkpt>
      <trkpt lat="47.99886" lon="1.70264">
        <ele>124.008278</ele>
        <time>2021-09-08T09:02:30.000Z</time>
      </trkpt>
      <trkpt lat="47.99877" lon="1.7029">
        <ele>123.908036</ele>
        <time>2021-09-08T09:02:33.000Z</time>
      </trkpt>
      <trkpt lat="47.99853" lon="1.7036">
        <ele>123.646598</ele>
        <time>2021-09-08T09:02:41.000Z</time>
      </trkpt>
      <trkpt lat="47.99827" lon="1.70437">
        <ele>123.357824</ele>
        <time>2021-09-08T09:02:50.000Z</time>
      </trkpt>
      <trkpt lat="47.99824" lon="1.70446">
        <ele>123.325443</ele>
        <time>2021-09-08T09:02:51.000Z</time>
      </trkpt>
      <trkpt lat="47.99797" lon="1.7052">
        <ele>123.08223</ele>
        <time>2021-09-08T09:03:00.000Z</time>
      </trkpt>
      <trkpt lat="47.9978" lon="1.70566">
        <ele>122.936078</ele>
        <time>2021-09-08T09:03:06.000Z</time>
      </trkpt>
      <trkpt lat="47.99757" lon="1.70635">
        <ele>122.722678</ele>
        <time>2021-09-08T09:03:15.000Z</time>
      </trkpt>
      <trkpt lat="47.9974" lon="1.70685">
        <ele>122.564547</ele>
        <time>2021-09-08T09:03:22.000Z</time>
      </trkpt>
      <trkpt lat="47.99716" lon="1.7075">
        <ele>122.636972</ele>
        <time>2021-09-08T09:03:31.000Z</time>
      </trkpt>
      <trkpt lat="47.99691" lon="1.70823">
        <ele>122.801188</ele>
        <time>2021-09-08T09:03:41.000Z</time>
      </trkpt>
      <trkpt lat="47.99665" lon="1.70899">
        <ele>122.970538</ele>
        <time>2021-09-08T09:03:51.000Z</time>
      </trkpt>
      <trkpt lat="47.99639" lon="1.70976">
        <ele>123.127085</ele>
        <time>2021-09-08T09:04:01.000Z</time>
      </trkpt>
      <trkpt lat="47.99636" lon="1.70984">
        <ele>123.140721</ele>
        <time>2021-09-08T09:04:02.000Z</time>
      </trkpt>
      <trkpt lat="47.99611" lon="1.71055">
        <ele>123.273073</ele>
        <time>2021-09-08T09:04:12.000Z</time>
      </trkpt>
      <trkpt lat="47.99589" lon="1.71115">
        <ele>123.385904</ele>
        <time>2021-09-08T09:04:21.000Z</time>
      </trkpt>
      <trkpt lat="47.99566" lon="1.71185">
        <ele>123.502851</ele>
        <time>2021-09-08T09:04:31.000Z</time>
      </trkpt>
      <trkpt lat="47.9954" lon="1.71259">
        <ele>123.547055</ele>
        <time>2021-09-08T09:04:42.000Z</time>
      </trkpt>
      <trkpt lat="47.99517" lon="1.71325">
        <ele>123.586349</ele>
        <time>2021-09-08T09:04:52.000Z</time>
      </trkpt>
      <trkpt lat="47.99498" lon="1.71378">
        <ele>123.617744</ele>
        <time>2021-09-08T09:05:00.000Z</time>
      </trkpt>
      <trkpt lat="47.99491" lon="1.71399">
        <ele>123.630217</ele>
        <time>2021-09-08T09:05:03.000Z</time>
      </trkpt>
      <trkpt lat="47.99474" lon="1.71447">
        <ele>123.651071</ele>
        <time>2021-09-08T09:05:10.000Z</time>
      </trkpt>
      <trkpt lat="47.99447" lon="1.71524">
        <ele>123.67871</ele>
        <time>2021-09-08T09:05:21.000Z</time>
      </trkpt>
      <trkpt lat="47.99431" lon="1.71571">
        <ele>123.695364</ele>
        <time>2021-09-08T09:05:28.000Z</time>
      </trkpt>
      <trkpt lat="47.99429" lon="1.71577">
        <ele>123.697726</ele>
        <time>2021-09-08T09:05:29.000Z</time>
      </trkpt>
      <trkpt lat="47.99417" lon="1.71608">
        <ele>123.708984</ele>
        <time>2021-09-08T09:05:34.000Z</time>
      </trkpt>
      <trkpt lat="47.99415" lon="1.71614">
        <ele>123.711091</ele>
        <time>2021-09-08T09:05:35.000Z</time>
      </trkpt>
      <trkpt lat="47.99405" lon="1.71646">
        <ele>123.722098</ele>
        <time>2021-09-08T09:05:41.000Z</time>
      </trkpt>
      <trkpt lat="47.99396" lon="1.71672">
        <ele>123.702732</ele>
        <time>2021-09-08T09:05:46.000Z</time>
      </trkpt>
      <trkpt lat="47.99394" lon="1.71678">
        <ele>123.696581</ele>
        <time>2021-09-08T09:05:47.000Z</time>
      </trkpt>
      <trkpt lat="47.99382" lon="1.71711">
        <ele>123.659828</ele>
        <time>2021-09-08T09:05:54.000Z</time>
      </trkpt>
      <trkpt lat="47.99371" lon="1.71745">
        <ele>123.622497</ele>
        <time>2021-09-08T09:06:01.000Z</time>
      </trkpt>
      <trkpt lat="47.99362" lon="1.71772">
        <ele>123.593098</ele>
        <time>2021-09-08T09:06:06.000Z</time>
      </trkpt>
      <trkpt lat="47.99349" lon="1.71807">
        <ele>123.553819</ele>
        <time>2021-09-08T09:06:12.000Z</time>
      </trkpt>
      <trkpt lat="47.99329" lon="1.71863">
        <ele>123.491905</ele>
        <time>2021-09-08T09:06:20.000Z</time>
      </trkpt>
      <trkpt lat="47.99309" lon="1.71922">
        <ele>123.359463</ele>
        <time>2021-09-08T09:06:28.000Z</time>
      </trkpt>
      <trkpt lat="47.99289" lon="1.71982">
        <ele>123.168787</ele>
        <time>2021-09-08T09:06:36.000Z</time>
      </trkpt>
      <trkpt lat="47.99269" lon="1.72038">
        <ele>122.985105</ele>
        <time>2021-09-08T09:06:44.000Z</time>
      </trkpt>
      <trkpt lat="47.99247" lon="1.72103">
        <ele>122.776718</ele>
        <time>2021-09-08T09:06:53.000Z</time>
      </trkpt>
      <trkpt lat="47.9922" lon="1.72178">
        <ele>122.598874</ele>
        <time>2021-09-08T09:07:04.000Z</time>
      </trkpt>
      <trkpt lat="47.99213" lon="1.72199">
        <ele>122.559497</ele>
        <time>2021-09-08T09:07:07.000Z</time>
      </trkpt>
      <trkpt lat="47.99191" lon="1.7226">
        <ele>122.443239</ele>
        <time>2021-09-08T09:07:16.000Z</time>
      </trkpt>
      <trkpt lat="47.99167" lon="1.72332">
        <ele>122.309263</ele>
        <time>2021-09-08T09:07:26.000Z</time>
      </trkpt>
      <trkpt lat="47.99142" lon="1.72404">
        <ele>122.264171</ele>
        <time>2021-09-08T09:07:36.000Z</time>
      </trkpt>
      <trkpt lat="47.99139" lon="1.72411">
        <ele>122.268731</ele>
        <time>2021-09-08T09:07:37.000Z</time>
      </trkpt>
      <trkpt lat="47.99115" lon="1.72481">
        <ele>122.314131</ele>
        <time>2021-09-08T09:07:47.000Z</time>
      </trkpt>
      <trkpt lat="47.99098" lon="1.7253">
        <ele>122.345846</ele>
        <time>2021-09-08T09:07:54.000Z</time>
      </trkpt>
      <trkpt lat="47.99082" lon="1.72579">
        <ele>122.377162</ele>
        <time>2021-09-08T09:08:01.000Z</time>
      </trkpt>
      <trkpt lat="47.99065" lon="1.72627">
        <ele>122.411732</ele>
        <time>2021-09-08T09:08:08.000Z</time>
      </trkpt>
      <trkpt lat="47.99046" lon="1.72681">
        <ele>122.457349</ele>
        <time>2021-09-08T09:08:16.000Z</time>
      </trkpt>
      <trkpt lat="47.9902" lon="1.72759">
        <ele>122.521475</ele>
        <time>2021-09-08T09:08:27.000Z</time>
      </trkpt>
      <trkpt lat="47.99002" lon="1.72814">
        <ele>122.567141</ele>
        <time>2021-09-08T09:08:35.000Z</time>
      </trkpt>
      <trkpt lat="47.98984" lon="1.72866">
        <ele>122.609334</ele>
        <time>2021-09-08T09:08:42.000Z</time>
      </trkpt>
      <trkpt lat="47.98979" lon="1.7288">
        <ele>122.620932</ele>
        <time>2021-09-08T09:08:44.000Z</time>
      </trkpt>
      <trkpt lat="47.98968" lon="1.72908">
        <ele>122.643877</ele>
        <time>2021-09-08T09:08:48.000Z</time>
      </trkpt>
      <trkpt lat="47.98941" lon="1.72967">
        <ele>122.694998</ele>
        <time>2021-09-08T09:08:57.000Z</time>
      </trkpt>
      <trkpt lat="47.98911" lon="1.73023">
        <ele>122.74663</ele>
        <time>2021-09-08T09:09:06.000Z</time>
      </trkpt>
      <trkpt lat="47.98876" lon="1.73077">
        <ele>122.807315</ele>
        <time>2021-09-08T09:09:15.000Z</time>
      </trkpt>
      <trkpt lat="47.98846" lon="1.73116">
        <ele>122.872387</ele>
        <time>2021-09-08T09:09:22.000Z</time>
      </trkpt>
      <trkpt lat="47.98811" lon="1.73154">
        <ele>122.943903</ele>
        <time>2021-09-08T09:09:30.000Z</time>
      </trkpt>
      <trkpt lat="47.98771" lon="1.73191">
        <ele>123.021887</ele>
        <time>2021-09-08T09:09:39.000Z</time>
      </trkpt>
      <trkpt lat="47.98733" lon="1.73218">
        <ele>123.094342</ele>
        <time>2021-09-08T09:09:47.000Z</time>
      </trkpt>
      <trkpt lat="47.9869" lon="1.73247">
        <ele>123.208813</ele>
        <time>2021-09-08T09:09:56.000Z</time>
      </trkpt>
      <trkpt lat="47.98639" lon="1.7328">
        <ele>123.346297</ele>
        <time>2021-09-08T09:10:07.000Z</time>
      </trkpt>
      <trkpt lat="47.98595" lon="1.73309">
        <ele>123.463396</ele>
        <time>2021-09-08T09:10:17.000Z</time>
      </trkpt>
      <trkpt lat="47.98561" lon="1.73332">
        <ele>123.564917</ele>
        <time>2021-09-08T09:10:25.000Z</time>
      </trkpt>
      <trkpt lat="47.98522" lon="1.73357">
        <ele>123.701219</ele>
        <time>2021-09-08T09:10:34.000Z</time>
      </trkpt>
      <trkpt lat="47.9849" lon="1.73377">
        <ele>123.812106</ele>
        <time>2021-09-08T09:10:41.000Z</time>
      </trkpt>
      <trkpt lat="47.98446" lon="1.73406">
        <ele>123.969542</ele>
        <time>2021-09-08T09:10:51.000Z</time>
      </trkpt>
      <trkpt lat="47.98404" lon="1.73433">
        <ele>124.108797</ele>
        <time>2021-09-08T09:11:00.000Z</time>
      </trkpt>
      <trkpt lat="47.98353" lon="1.73466">
        <ele>124.199356</ele>
        <time>2021-09-08T09:11:11.000Z</time>
      </trkpt>
      <trkpt lat="47.98301" lon="1.735">
        <ele>124.290256</ele>
        <time>2021-09-08T09:11:21.000Z</time>
      </trkpt>
      <trkpt lat="47.98261" lon="1.73528">
        <ele>124.362145</ele>
        <time>2021-09-08T09:11:29.000Z</time>
      </trkpt>
      <trkpt lat="47.98227" lon="1.73548">
        <ele>124.406923</ele>
        <time>2021-09-08T09:11:36.000Z</time>
      </trkpt>
      <trkpt lat="47.98187" lon="1.73575">
        <ele>124.442184</ele>
        <time>2021-09-08T09:11:45.000Z</time>
      </trkpt>
      <trkpt lat="47.98135" lon="1.73607">
        <ele>124.486739</ele>
        <time>2021-09-08T09:11:56.000Z</time>
      </trkpt>
      <trkpt lat="47.98131" lon="1.73611">
        <ele>124.490931</ele>
        <time>2021-09-08T09:11:57.000Z</time>
      </trkpt>
      <trkpt lat="47.98086" lon="1.73639">
        <ele>124.529607</ele>
        <time>2021-09-08T09:12:07.000Z</time>
      </trkpt>
      <trkpt lat="47.98038" lon="1.73675">
        <ele>124.595637</ele>
        <time>2021-09-08T09:12:18.000Z</time>
      </trkpt>
      <trkpt lat="47.98029" lon="1.73682">
        <ele>124.608386</ele>
        <time>2021-09-08T09:12:20.000Z</time>
      </trkpt>
      <trkpt lat="47.97989" lon="1.73718">
        <ele>124.669715</ele>
        <time>2021-09-08T09:12:30.000Z</time>
      </trkpt>
      <trkpt lat="47.97965" lon="1.73742">
        <ele>124.706567</ele>
        <time>2021-09-08T09:12:36.000Z</time>
      </trkpt>
      <trkpt lat="47.97941" lon="1.73768">
        <ele>124.745214</ele>
        <time>2021-09-08T09:12:42.000Z</time>
      </trkpt>
      <trkpt lat="47.97914" lon="1.73798">
        <ele>124.795474</ele>
        <time>2021-09-08T09:12:49.000Z</time>
      </trkpt>
      <trkpt lat="47.97889" lon="1.7383">
        <ele>124.852338</ele>
        <time>2021-09-08T09:12:56.000Z</time>
      </trkpt>
      <trkpt lat="47.97859" lon="1.73869">
        <ele>124.919417</ele>
        <time>2021-09-08T09:13:04.000Z</time>
      </trkpt>
      <trkpt lat="47.97833" lon="1.73909">
        <ele>124.984108</ele>
        <time>2021-09-08T09:13:12.000Z</time>
      </trkpt>
      <trkpt lat="47.9782" lon="1.73931">
        <ele>125.017046</ele>
        <time>2021-09-08T09:13:16.000Z</time>
      </trkpt>
      <trkpt lat="47.9781" lon="1.73948">
        <ele>125.043649</ele>
        <time>2021-09-08T09:13:19.000Z</time>
      </trkpt>
      <trkpt lat="47.9778" lon="1.74002">
        <ele>125.121324</ele>
        <time>2021-09-08T09:13:28.000Z</time>
      </trkpt>
      <trkpt lat="47.97755" lon="1.74055">
        <ele>125.190369</ele>
        <time>2021-09-08T09:13:36.000Z</time>
      </trkpt>
      <trkpt lat="47.97735" lon="1.74101">
        <ele>125.248505</ele>
        <time>2021-09-08T09:13:43.000Z</time>
      </trkpt>
      <trkpt lat="47.97715" lon="1.74151">
        <ele>125.310641</ele>
        <time>2021-09-08T09:13:51.000Z</time>
      </trkpt>
      <trkpt lat="47.97692" lon="1.74217">
        <ele>125.389402</ele>
        <time>2021-09-08T09:14:01.000Z</time>
      </trkpt>
      <trkpt lat="47.97671" lon="1.7429">
        <ele>125.470461</ele>
        <time>2021-09-08T09:14:11.000Z</time>
      </trkpt>
      <trkpt lat="47.97655" lon="1.74356">
        <ele>125.542366</ele>
        <time>2021-09-08T09:14:20.000Z</time>
      </trkpt>
      <trkpt lat="47.9764" lon="1.74429">
        <ele>125.620463</ele>
        <time>2021-09-08T09:14:30.000Z</time>
      </trkpt>
      <trkpt lat="47.97631" lon="1.74479">
        <ele>125.653685</ele>
        <time>2021-09-08T09:14:37.000Z</time>
      </trkpt>
      <trkpt lat="47.97622" lon="1.74552">
        <ele>125.683498</ele>
        <time>2021-09-08T09:14:47.000Z</time>
      </trkpt>
      <trkpt lat="47.97618" lon="1.74604">
        <ele>125.704875</ele>
        <time>2021-09-08T09:14:54.000Z</time>
      </trkpt>
      <trkpt lat="47.97615" lon="1.74651">
        <ele>125.723566</ele>
        <time>2021-09-08T09:15:00.000Z</time>
      </trkpt>
      <trkpt lat="47.97613" lon="1.74697">
        <ele>125.742306</ele>
        <time>2021-09-08T09:15:06.000Z</time>
      </trkpt>
      <trkpt lat="47.97613" lon="1.74775">
        <ele>125.695655</ele>
        <time>2021-09-08T09:15:16.000Z</time>
      </trkpt>
      <trkpt lat="47.97613" lon="1.74783">
        <ele>125.68864</ele>
        <time>2021-09-08T09:15:17.000Z</time>
      </trkpt>
      <trkpt lat="47.97615" lon="1.74825">
        <ele>125.652685</ele>
        <time>2021-09-08T09:15:22.000Z</time>
      </trkpt>
      <trkpt lat="47.9762" lon="1.749">
        <ele>125.587488</ele>
        <time>2021-09-08T09:15:31.000Z</time>
      </trkpt>
      <trkpt lat="47.97628" lon="1.74974">
        <ele>125.523259</ele>
        <time>2021-09-08T09:15:40.000Z</time>
      </trkpt>
      <trkpt lat="47.97638" lon="1.75039">
        <ele>125.446947</ele>
        <time>2021-09-08T09:15:48.000Z</time>
      </trkpt>
      <trkpt lat="47.97645" lon="1.75091">
        <ele>125.384335</ele>
        <time>2021-09-08T09:15:54.000Z</time>
      </trkpt>
      <trkpt lat="47.97653" lon="1.75154">
        <ele>125.310214</ele>
        <time>2021-09-08T09:16:01.000Z</time>
      </trkpt>
      <trkpt lat="47.97665" lon="1.7524">
        <ele>125.206914</ele>
        <time>2021-09-08T09:16:11.000Z</time>
      </trkpt>
      <trkpt lat="47.97666" lon="1.75249">
        <ele>125.197372</ele>
        <time>2021-09-08T09:16:12.000Z</time>
      </trkpt>
      <trkpt lat="47.97678" lon="1.75333">
        <ele>125.108019</ele>
        <time>2021-09-08T09:16:22.000Z</time>
      </trkpt>
      <trkpt lat="47.9769" lon="1.75416">
        <ele>125.021377</ele>
        <time>2021-09-08T09:16:32.000Z</time>
      </trkpt>
      <trkpt lat="47.97701" lon="1.75492">
        <ele>124.9412</ele>
        <time>2021-09-08T09:16:41.000Z</time>
      </trkpt>
      <trkpt lat="47.97712" lon="1.75569">
        <ele>124.923376</ele>
        <time>2021-09-08T09:16:50.000Z</time>
      </trkpt>
      <trkpt lat="47.97722" lon="1.75636">
        <ele>124.920613</ele>
        <time>2021-09-08T09:16:58.000Z</time>
      </trkpt>
      <trkpt lat="47.97729" lon="1.75688">
        <ele>124.918481</ele>
        <time>2021-09-08T09:17:05.000Z</time>
      </trkpt>
      <trkpt lat="47.97736" lon="1.7574">
        <ele>124.916371</ele>
        <time>2021-09-08T09:17:12.000Z</time>
      </trkpt>
      <trkpt lat="47.97745" lon="1.75801">
        <ele>124.935015</ele>
        <time>2021-09-08T09:17:20.000Z</time>
      </trkpt>
      <trkpt lat="47.97751" lon="1.75851">
        <ele>124.966113</ele>
        <time>2021-09-08T09:17:27.000Z</time>
      </trkpt>
      <trkpt lat="47.97756" lon="1.75911">
        <ele>125.003483</ele>
        <time>2021-09-08T09:17:35.000Z</time>
      </trkpt>
      <trkpt lat="47.97758" lon="1.75982">
        <ele>125.046701</ele>
        <time>2021-09-08T09:17:45.000Z</time>
      </trkpt>
      <trkpt lat="47.97756" lon="1.76039">
        <ele>125.076345</ele>
        <time>2021-09-08T09:17:53.000Z</time>
      </trkpt>
      <trkpt lat="47.9775" lon="1.76106">
        <ele>125.000052</ele>
        <time>2021-09-08T09:18:02.000Z</time>
      </trkpt>
      <trkpt lat="47.97743" lon="1.76159">
        <ele>124.939042</ele>
        <time>2021-09-08T09:18:09.000Z</time>
      </trkpt>
      <trkpt lat="47.97731" lon="1.76222">
        <ele>124.866317</ele>
        <time>2021-09-08T09:18:17.000Z</time>
      </trkpt>
      <trkpt lat="47.97716" lon="1.76282">
        <ele>124.794419</ele>
        <time>2021-09-08T09:18:25.000Z</time>
      </trkpt>
      <trkpt lat="47.97697" lon="1.76343">
        <ele>124.665989</ele>
        <time>2021-09-08T09:18:34.000Z</time>
      </trkpt>
      <trkpt lat="47.97676" lon="1.76396">
        <ele>124.536525</ele>
        <time>2021-09-08T09:18:42.000Z</time>
      </trkpt>
      <trkpt lat="47.97654" lon="1.76446">
        <ele>124.409313</ele>
        <time>2021-09-08T09:18:50.000Z</time>
      </trkpt>
      <trkpt lat="47.97632" lon="1.76488">
        <ele>124.299892</ele>
        <time>2021-09-08T09:18:57.000Z</time>
      </trkpt>
      <trkpt lat="47.97604" lon="1.76537">
        <ele>124.119275</ele>
        <time>2021-09-08T09:19:06.000Z</time>
      </trkpt>
      <trkpt lat="47.97577" lon="1.76585">
        <ele>123.877093</ele>
        <time>2021-09-08T09:19:14.000Z</time>
      </trkpt>
      <trkpt lat="47.97553" lon="1.76627">
        <ele>123.66169</ele>
        <time>2021-09-08T09:19:21.000Z</time>
      </trkpt>
      <trkpt lat="47.97526" lon="1.76675">
        <ele>123.413653</ele>
        <time>2021-09-08T09:19:29.000Z</time>
      </trkpt>
      <trkpt lat="47.97499" lon="1.76724">
        <ele>123.16487</ele>
        <time>2021-09-08T09:19:37.000Z</time>
      </trkpt>
      <trkpt lat="47.97472" lon="1.76771">
        <ele>122.936091</ele>
        <time>2021-09-08T09:19:45.000Z</time>
      </trkpt>
      <trkpt lat="47.97446" lon="1.76817">
        <ele>122.714186</ele>
        <time>2021-09-08T09:19:53.000Z</time>
      </trkpt>
      <trkpt lat="47.97409" lon="1.76883">
        <ele>122.393499</ele>
        <time>2021-09-08T09:20:04.000Z</time>
      </trkpt>
      <trkpt lat="47.97378" lon="1.76937">
        <ele>122.140527</ele>
        <time>2021-09-08T09:20:13.000Z</time>
      </trkpt>
      <trkpt lat="47.97347" lon="1.7699">
        <ele>121.96575</ele>
        <time>2021-09-08T09:20:22.000Z</time>
      </trkpt>
      <trkpt lat="47.97321" lon="1.77035">
        <ele>121.817273</ele>
        <time>2021-09-08T09:20:30.000Z</time>
      </trkpt>
      <trkpt lat="47.97296" lon="1.77081">
        <ele>121.66798</ele>
        <time>2021-09-08T09:20:38.000Z</time>
      </trkpt>
      <trkpt lat="47.9727" lon="1.77126">
        <ele>121.517956</ele>
        <time>2021-09-08T09:20:46.000Z</time>
      </trkpt>
      <trkpt lat="47.97246" lon="1.77167">
        <ele>121.413103</ele>
        <time>2021-09-08T09:20:53.000Z</time>
      </trkpt>
      <trkpt lat="47.97217" lon="1.77218">
        <ele>121.289112</ele>
        <time>2021-09-08T09:21:02.000Z</time>
      </trkpt>
      <trkpt lat="47.97186" lon="1.77275">
        <ele>121.152379</ele>
        <time>2021-09-08T09:21:12.000Z</time>
      </trkpt>
      <trkpt lat="47.97166" lon="1.77309">
        <ele>121.071295</ele>
        <time>2021-09-08T09:21:18.000Z</time>
      </trkpt>
      <trkpt lat="47.97163" lon="1.77314">
        <ele>121.058059</ele>
        <time>2021-09-08T09:21:19.000Z</time>
      </trkpt>
      <trkpt lat="47.97132" lon="1.77371">
        <ele>120.963895</ele>
        <time>2021-09-08T09:21:29.000Z</time>
      </trkpt>
      <trkpt lat="47.97111" lon="1.77408">
        <ele>120.922411</ele>
        <time>2021-09-08T09:21:36.000Z</time>
      </trkpt>
      <trkpt lat="47.97089" lon="1.77446">
        <ele>120.879389</ele>
        <time>2021-09-08T09:21:44.000Z</time>
      </trkpt>
      <trkpt lat="47.97058" lon="1.77501">
        <ele>120.819212</ele>
        <time>2021-09-08T09:21:54.000Z</time>
      </trkpt>
      <trkpt lat="47.97029" lon="1.77548">
        <ele>120.7653</ele>
        <time>2021-09-08T09:22:03.000Z</time>
      </trkpt>
      <trkpt lat="47.97007" lon="1.77576">
        <ele>120.73089</ele>
        <time>2021-09-08T09:22:09.000Z</time>
      </trkpt>
      <trkpt lat="47.97" lon="1.77582">
        <ele>120.720261</ele>
        <time>2021-09-08T09:22:11.000Z</time>
      </trkpt>
      <trkpt lat="47.96981" lon="1.77589">
        <ele>120.697221</ele>
        <time>2021-09-08T09:22:15.000Z</time>
      </trkpt>
      <trkpt lat="47.96977" lon="1.77593">
        <ele>120.691203</ele>
        <time>2021-09-08T09:22:16.000Z</time>
      </trkpt>
      <trkpt lat="47.96973" lon="1.77598">
        <ele>120.685124</ele>
        <time>2021-09-08T09:22:17.000Z</time>
      </trkpt>
      <trkpt lat="47.96969" lon="1.7761">
        <ele>120.673581</ele>
        <time>2021-09-08T09:22:19.000Z</time>
      </trkpt>
      <trkpt lat="47.96967" lon="1.77632">
        <ele>120.656132</ele>
        <time>2021-09-08T09:22:22.000Z</time>
      </trkpt>
      <trkpt lat="47.96965" lon="1.77645">
        <ele>120.644589</ele>
        <time>2021-09-08T09:22:24.000Z</time>
      </trkpt>
      <trkpt lat="47.96959" lon="1.77658">
        <ele>120.632698</ele>
        <time>2021-09-08T09:22:26.000Z</time>
      </trkpt>
      <trkpt lat="47.9695" lon="1.77676">
        <ele>120.614448</ele>
        <time>2021-09-08T09:22:29.000Z</time>
      </trkpt>
      <trkpt lat="47.96925" lon="1.77717">
        <ele>120.569967</ele>
        <time>2021-09-08T09:22:36.000Z</time>
      </trkpt>
      <trkpt lat="47.96899" lon="1.7776">
        <ele>120.525507</ele>
        <time>2021-09-08T09:22:43.000Z</time>
      </trkpt>
      <trkpt lat="47.96868" lon="1.77808">
        <ele>120.476575</ele>
        <time>2021-09-08T09:22:51.000Z</time>
      </trkpt>
      <trkpt lat="47.96836" lon="1.77856">
        <ele>120.427686</ele>
        <time>2021-09-08T09:22:59.000Z</time>
      </trkpt>
      <trkpt lat="47.96832" lon="1.77862">
        <ele>120.421736</ele>
        <time>2021-09-08T09:23:00.000Z</time>
      </trkpt>
      <trkpt lat="47.96817" lon="1.77885">
        <ele>120.397857</ele>
        <time>2021-09-08T09:23:04.000Z</time>
      </trkpt>
      <trkpt lat="47.96813" lon="1.77891">
        <ele>120.391793</ele>
        <time>2021-09-08T09:23:05.000Z</time>
      </trkpt>
      <trkpt lat="47.96783" lon="1.77938">
        <ele>120.370555</ele>
        <time>2021-09-08T09:23:13.000Z</time>
      </trkpt>
      <trkpt lat="47.96751" lon="1.77985">
        <ele>120.416757</ele>
        <time>2021-09-08T09:23:21.000Z</time>
      </trkpt>
      <trkpt lat="47.96728" lon="1.78018">
        <ele>120.448827</ele>
        <time>2021-09-08T09:23:27.000Z</time>
      </trkpt>
      <trkpt lat="47.96698" lon="1.78066">
        <ele>120.493955</ele>
        <time>2021-09-08T09:23:36.000Z</time>
      </trkpt>
      <trkpt lat="47.96678" lon="1.78096">
        <ele>120.523217</ele>
        <time>2021-09-08T09:23:42.000Z</time>
      </trkpt>
      <trkpt lat="47.96655" lon="1.78133">
        <ele>120.561445</ele>
        <time>2021-09-08T09:23:49.000Z</time>
      </trkpt>
      <trkpt lat="47.96627" lon="1.78173">
        <ele>120.611181</ele>
        <time>2021-09-08T09:23:57.000Z</time>
      </trkpt>
      <trkpt lat="47.96592" lon="1.78228">
        <ele>120.676525</ele>
        <time>2021-09-08T09:24:07.000Z</time>
      </trkpt>
      <trkpt lat="47.96562" lon="1.78273">
        <ele>120.730456</ele>
        <time>2021-09-08T09:24:15.000Z</time>
      </trkpt>
      <trkpt lat="47.96554" lon="1.78284">
        <ele>120.744291</ele>
        <time>2021-09-08T09:24:17.000Z</time>
      </trkpt>
      <trkpt lat="47.96539" lon="1.78305">
        <ele>120.77082</ele>
        <time>2021-09-08T09:24:21.000Z</time>
      </trkpt>
      <trkpt lat="47.96525" lon="1.78326">
        <ele>120.794208</ele>
        <time>2021-09-08T09:24:25.000Z</time>
      </trkpt>
      <trkpt lat="47.96512" lon="1.78343">
        <ele>120.813416</ele>
        <time>2021-09-08T09:24:28.000Z</time>
      </trkpt>
      <trkpt lat="47.96489" lon="1.78377">
        <ele>120.851792</ele>
        <time>2021-09-08T09:24:34.000Z</time>
      </trkpt>
      <trkpt lat="47.96454" lon="1.78428">
        <ele>120.9075</ele>
        <time>2021-09-08T09:24:43.000Z</time>
      </trkpt>
      <trkpt lat="47.96424" lon="1.78472">
        <ele>120.956416</ele>
        <time>2021-09-08T09:24:51.000Z</time>
      </trkpt>
      <trkpt lat="47.96393" lon="1.78516">
        <ele>121.012615</ele>
        <time>2021-09-08T09:24:59.000Z</time>
      </trkpt>
      <trkpt lat="47.96368" lon="1.78551">
        <ele>121.062857</ele>
        <time>2021-09-08T09:25:06.000Z</time>
      </trkpt>
      <trkpt lat="47.96346" lon="1.78585">
        <ele>121.108528</ele>
        <time>2021-09-08T09:25:13.000Z</time>
      </trkpt>
      <trkpt lat="47.96323" lon="1.78617">
        <ele>121.154227</ele>
        <time>2021-09-08T09:25:20.000Z</time>
      </trkpt>
      <trkpt lat="47.96297" lon="1.78653">
        <ele>121.205637</ele>
        <time>2021-09-08T09:25:28.000Z</time>
      </trkpt>
      <trkpt lat="47.96282" lon="1.78676">
        <ele>121.23717</ele>
        <time>2021-09-08T09:25:33.000Z</time>
      </trkpt>
      <trkpt lat="47.96276" lon="1.78685">
        <ele>121.268985</ele>
        <time>2021-09-08T09:25:35.000Z</time>
      </trkpt>
      <trkpt lat="47.96251" lon="1.78718">
        <ele>121.440541</ele>
        <time>2021-09-08T09:25:43.000Z</time>
      </trkpt>
      <trkpt lat="47.96222" lon="1.78762">
        <ele>121.657163</ele>
        <time>2021-09-08T09:25:53.000Z</time>
      </trkpt>
      <trkpt lat="47.96193" lon="1.78801">
        <ele>121.860591</ele>
        <time>2021-09-08T09:26:02.000Z</time>
      </trkpt>
      <trkpt lat="47.96161" lon="1.78837">
        <ele>122.066754</ele>
        <time>2021-09-08T09:26:10.000Z</time>
      </trkpt>
      <trkpt lat="47.96126" lon="1.78867">
        <ele>122.14498</ele>
        <time>2021-09-08T09:26:18.000Z</time>
      </trkpt>
      <trkpt lat="47.96089" lon="1.78895">
        <ele>122.080214</ele>
        <time>2021-09-08T09:26:26.000Z</time>
      </trkpt>
      <trkpt lat="47.96049" lon="1.78922">
        <ele>122.009992</ele>
        <time>2021-09-08T09:26:35.000Z</time>
      </trkpt>
      <trkpt lat="47.96009" lon="1.78949">
        <ele>121.941258</ele>
        <time>2021-09-08T09:26:43.000Z</time>
      </trkpt>
      <trkpt lat="47.95958" lon="1.78983">
        <ele>121.813089</ele>
        <time>2021-09-08T09:26:53.000Z</time>
      </trkpt>
      <trkpt lat="47.95913" lon="1.79013">
        <ele>121.656053</ele>
        <time>2021-09-08T09:27:02.000Z</time>
      </trkpt>
      <trkpt lat="47.9587" lon="1.79042">
        <ele>121.504469</ele>
        <time>2021-09-08T09:27:11.000Z</time>
      </trkpt>
      <trkpt lat="47.95831" lon="1.79077">
        <ele>121.357948</ele>
        <time>2021-09-08T09:27:20.000Z</time>
      </trkpt>
      <trkpt lat="47.95794" lon="1.79118">
        <ele>121.260763</ele>
        <time>2021-09-08T09:27:29.000Z</time>
      </trkpt>
      <trkpt lat="47.95766" lon="1.79157">
        <ele>121.194947</ele>
        <time>2021-09-08T09:27:37.000Z</time>
      </trkpt>
      <trkpt lat="47.95734" lon="1.79214">
        <ele>121.111099</ele>
        <time>2021-09-08T09:27:47.000Z</time>
      </trkpt>
      <trkpt lat="47.95706" lon="1.79269">
        <ele>121.033119</ele>
        <time>2021-09-08T09:27:56.000Z</time>
      </trkpt>
      <trkpt lat="47.95679" lon="1.79322">
        <ele>120.989745</ele>
        <time>2021-09-08T09:28:05.000Z</time>
      </trkpt>
      <trkpt lat="47.95648" lon="1.79386">
        <ele>120.954991</ele>
        <time>2021-09-08T09:28:16.000Z</time>
      </trkpt>
      <trkpt lat="47.9562" lon="1.79443">
        <ele>120.923832</ele>
        <time>2021-09-08T09:28:26.000Z</time>
      </trkpt>
      <trkpt lat="47.95594" lon="1.79494">
        <ele>120.895667</ele>
        <time>2021-09-08T09:28:35.000Z</time>
      </trkpt>
      <trkpt lat="47.95568" lon="1.79548">
        <ele>120.719116</ele>
        <time>2021-09-08T09:28:44.000Z</time>
      </trkpt>
      <trkpt lat="47.95537" lon="1.7961">
        <ele>120.495839</ele>
        <time>2021-09-08T09:28:54.000Z</time>
      </trkpt>
      <trkpt lat="47.95523" lon="1.79641">
        <ele>120.386424</ele>
        <time>2021-09-08T09:28:59.000Z</time>
      </trkpt>
      <trkpt lat="47.95514" lon="1.7966">
        <ele>120.320969</ele>
        <time>2021-09-08T09:29:02.000Z</time>
      </trkpt>
      <trkpt lat="47.9549" lon="1.7971">
        <ele>120.140248</ele>
        <time>2021-09-08T09:29:10.000Z</time>
      </trkpt>
      <trkpt lat="47.95463" lon="1.79768">
        <ele>119.843911</ele>
        <time>2021-09-08T09:29:19.000Z</time>
      </trkpt>
      <trkpt lat="47.9544" lon="1.79817">
        <ele>119.581876</ele>
        <time>2021-09-08T09:29:27.000Z</time>
      </trkpt>
      <trkpt lat="47.9541" lon="1.7988">
        <ele>119.244818</ele>
        <time>2021-09-08T09:29:37.000Z</time>
      </trkpt>
      <trkpt lat="47.95377" lon="1.7995">
        <ele>118.867271</ele>
        <time>2021-09-08T09:29:48.000Z</time>
      </trkpt>
      <trkpt lat="47.95352" lon="1.79998">
        <ele>118.602034</ele>
        <time>2021-09-08T09:29:56.000Z</time>
      </trkpt>
      <trkpt lat="47.95326" lon="1.80045">
        <ele>118.333765</ele>
        <time>2021-09-08T09:30:05.000Z</time>
      </trkpt>
      <trkpt lat="47.95292" lon="1.80104">
        <ele>117.988893</ele>
        <time>2021-09-08T09:30:15.000Z</time>
      </trkpt>
      <trkpt lat="47.95258" lon="1.80159">
        <ele>117.728276</ele>
        <time>2021-09-08T09:30:24.000Z</time>
      </trkpt>
      <trkpt lat="47.95221" lon="1.80219">
        <ele>117.635019</ele>
        <time>2021-09-08T09:30:34.000Z</time>
      </trkpt>
      <trkpt lat="47.9519" lon="1.80269">
        <ele>117.556558</ele>
        <time>2021-09-08T09:30:43.000Z</time>
      </trkpt>
      <trkpt lat="47.95157" lon="1.80321">
        <ele>117.474689</ele>
        <time>2021-09-08T09:30:54.000Z</time>
      </trkpt>
      <trkpt lat="47.9513" lon="1.80366">
        <ele>117.471498</ele>
        <time>2021-09-08T09:31:03.000Z</time>
      </trkpt>
      <trkpt lat="47.95093" lon="1.80425">
        <ele>117.536141</ele>
        <time>2021-09-08T09:31:15.000Z</time>
      </trkpt>
      <trkpt lat="47.9509" lon="1.8043">
        <ele>117.541328</ele>
        <time>2021-09-08T09:31:16.000Z</time>
      </trkpt>
      <trkpt lat="47.95066" lon="1.80471">
        <ele>117.584724</ele>
        <time>2021-09-08T09:31:24.000Z</time>
      </trkpt>
      <trkpt lat="47.95034" lon="1.80525">
        <ele>117.642116</ele>
        <time>2021-09-08T09:31:34.000Z</time>
      </trkpt>
      <trkpt lat="47.94997" lon="1.80588">
        <ele>117.68666</ele>
        <time>2021-09-08T09:31:45.000Z</time>
      </trkpt>
      <trkpt lat="47.94994" lon="1.80594">
        <ele>117.690045</ele>
        <time>2021-09-08T09:31:46.000Z</time>
      </trkpt>
      <trkpt lat="47.94957" lon="1.80657">
        <ele>117.72722</ele>
        <time>2021-09-08T09:31:57.000Z</time>
      </trkpt>
      <trkpt lat="47.94925" lon="1.8071">
        <ele>117.758855</ele>
        <time>2021-09-08T09:32:06.000Z</time>
      </trkpt>
      <trkpt lat="47.94912" lon="1.80733">
        <ele>117.77251</ele>
        <time>2021-09-08T09:32:10.000Z</time>
      </trkpt>
      <trkpt lat="47.94902" lon="1.80751">
        <ele>117.789801</ele>
        <time>2021-09-08T09:32:13.000Z</time>
      </trkpt>
      <trkpt lat="47.94872" lon="1.80799">
        <ele>117.860425</ele>
        <time>2021-09-08T09:32:22.000Z</time>
      </trkpt>
      <trkpt lat="47.94843" lon="1.80845">
        <ele>117.927225</ele>
        <time>2021-09-08T09:32:31.000Z</time>
      </trkpt>
      <trkpt lat="47.94812" lon="1.80895">
        <ele>118.00129</ele>
        <time>2021-09-08T09:32:41.000Z</time>
      </trkpt>
      <trkpt lat="47.94778" lon="1.80946">
        <ele>118.069652</ele>
        <time>2021-09-08T09:32:51.000Z</time>
      </trkpt>
      <trkpt lat="47.94746" lon="1.80994">
        <ele>118.090869</ele>
        <time>2021-09-08T09:33:00.000Z</time>
      </trkpt>
      <trkpt lat="47.94705" lon="1.81055">
        <ele>118.117809</ele>
        <time>2021-09-08T09:33:11.000Z</time>
      </trkpt>
      <trkpt lat="47.94698" lon="1.81066">
        <ele>118.122782</ele>
        <time>2021-09-08T09:33:13.000Z</time>
      </trkpt>
      <trkpt lat="47.94657" lon="1.81127">
        <ele>118.149699</ele>
        <time>2021-09-08T09:33:24.000Z</time>
      </trkpt>
      <trkpt lat="47.94624" lon="1.81177">
        <ele>118.101127</ele>
        <time>2021-09-08T09:33:33.000Z</time>
      </trkpt>
      <trkpt lat="47.94594" lon="1.81222">
        <ele>118.056287</ele>
        <time>2021-09-08T09:33:41.000Z</time>
      </trkpt>
      <trkpt lat="47.94561" lon="1.81273">
        <ele>118.005819</ele>
        <time>2021-09-08T09:33:50.000Z</time>
      </trkpt>
      <trkpt lat="47.9453" lon="1.81319">
        <ele>117.959029</ele>
        <time>2021-09-08T09:33:58.000Z</time>
      </trkpt>
      <trkpt lat="47.94499" lon="1.8135">
        <ele>117.844482</ele>
        <time>2021-09-08T09:34:05.000Z</time>
      </trkpt>
      <trkpt lat="47.94488" lon="1.81353">
        <ele>117.812758</ele>
        <time>2021-09-08T09:34:07.000Z</time>
      </trkpt>
      <trkpt lat="47.94479" lon="1.81351">
        <ele>117.782075</ele>
        <time>2021-09-08T09:34:09.000Z</time>
      </trkpt>
      <trkpt lat="47.94459" lon="1.81346">
        <ele>117.720407</ele>
        <time>2021-09-08T09:34:13.000Z</time>
      </trkpt>
      <trkpt lat="47.94454" lon="1.81348">
        <ele>117.704549</ele>
        <time>2021-09-08T09:34:14.000Z</time>
      </trkpt>
      <trkpt lat="47.9445" lon="1.81353">
        <ele>117.688225</ele>
        <time>2021-09-08T09:34:15.000Z</time>
      </trkpt>
      <trkpt lat="47.94445" lon="1.81368">
        <ele>117.655509</ele>
        <time>2021-09-08T09:34:17.000Z</time>
      </trkpt>
      <trkpt lat="47.94446" lon="1.81384">
        <ele>117.623484</ele>
        <time>2021-09-08T09:34:19.000Z</time>
      </trkpt>
      <trkpt lat="47.94448" lon="1.81399">
        <ele>117.591027</ele>
        <time>2021-09-08T09:34:21.000Z</time>
      </trkpt>
      <trkpt lat="47.9445" lon="1.81407">
        <ele>117.57481</ele>
        <time>2021-09-08T09:34:22.000Z</time>
      </trkpt>
      <trkpt lat="47.94449" lon="1.81422">
        <ele>117.543624</ele>
        <time>2021-09-08T09:34:24.000Z</time>
      </trkpt>
      <trkpt lat="47.94448" lon="1.81429">
        <ele>117.527874</ele>
        <time>2021-09-08T09:34:25.000Z</time>
      </trkpt>
      <trkpt lat="47.94446" lon="1.81436">
        <ele>117.513138</ele>
        <time>2021-09-08T09:34:26.000Z</time>
      </trkpt>
      <trkpt lat="47.94438" lon="1.81455">
        <ele>117.466779</ele>
        <time>2021-09-08T09:34:29.000Z</time>
      </trkpt>
      <trkpt lat="47.94434" lon="1.81461">
        <ele>117.450147</ele>
        <time>2021-09-08T09:34:30.000Z</time>
      </trkpt>
      <trkpt lat="47.9442" lon="1.81483">
        <ele>117.354849</ele>
        <time>2021-09-08T09:34:34.000Z</time>
      </trkpt>
      <trkpt lat="47.94412" lon="1.81494">
        <ele>117.279694</ele>
        <time>2021-09-08T09:34:36.000Z</time>
      </trkpt>
      <trkpt lat="47.94382" lon="1.81537">
        <ele>116.977304</ele>
        <time>2021-09-08T09:34:44.000Z</time>
      </trkpt>
      <trkpt lat="47.94362" lon="1.81566">
        <ele>116.775464</ele>
        <time>2021-09-08T09:34:50.000Z</time>
      </trkpt>
      <trkpt lat="47.9436" lon="1.81571">
        <ele>116.743082</ele>
        <time>2021-09-08T09:34:54.000Z</time>
      </trkpt>
      <trkpt lat="47.94356" lon="1.81578">
        <ele>116.699803</ele>
        <time>2021-09-08T09:34:58.000Z</time>
      </trkpt>
      <trkpt lat="47.94349" lon="1.81585">
        <ele>116.641198</ele>
        <time>2021-09-08T09:35:00.000Z</time>
      </trkpt>
      <trkpt lat="47.94341" lon="1.81591">
        <ele>116.575364</ele>
        <time>2021-09-08T09:35:02.000Z</time>
      </trkpt>
      <trkpt lat="47.94335" lon="1.81602">
        <ele>116.506819</ele>
        <time>2021-09-08T09:35:04.000Z</time>
      </trkpt>
      <trkpt lat="47.9433" lon="1.81615">
        <ele>116.434169</ele>
        <time>2021-09-08T09:35:06.000Z</time>
      </trkpt>
      <trkpt lat="47.94327" lon="1.81622">
        <ele>116.394895</ele>
        <time>2021-09-08T09:35:07.000Z</time>
      </trkpt>
      <trkpt lat="47.94314" lon="1.81651">
        <ele>116.227931</ele>
        <time>2021-09-08T09:35:11.000Z</time>
      </trkpt>
      <trkpt lat="47.94308" lon="1.81665">
        <ele>116.144024</ele>
        <time>2021-09-08T09:35:13.000Z</time>
      </trkpt>
      <trkpt lat="47.94296" lon="1.81682">
        <ele>116.065427</ele>
        <time>2021-09-08T09:35:16.000Z</time>
      </trkpt>
      <trkpt lat="47.94279" lon="1.81713">
        <ele>115.967699</ele>
        <time>2021-09-08T09:35:21.000Z</time>
      </trkpt>
      <trkpt lat="47.94255" lon="1.81756">
        <ele>115.830355</ele>
        <time>2021-09-08T09:35:28.000Z</time>
      </trkpt>
      <trkpt lat="47.9423" lon="1.81802">
        <ele>115.687018</ele>
        <time>2021-09-08T09:35:36.000Z</time>
      </trkpt>
      <trkpt lat="47.9421" lon="1.81839">
        <ele>115.570376</ele>
        <time>2021-09-08T09:35:43.000Z</time>
      </trkpt>
      <trkpt lat="47.94192" lon="1.81876">
        <ele>115.458372</ele>
        <time>2021-09-08T09:35:49.000Z</time>
      </trkpt>
      <trkpt lat="47.9419" lon="1.81883">
        <ele>115.45821</ele>
        <time>2021-09-08T09:35:50.000Z</time>
      </trkpt>
      <trkpt lat="47.94167" lon="1.8193">
        <ele>115.592773</ele>
        <time>2021-09-08T09:35:58.000Z</time>
      </trkpt>
      <trkpt lat="47.94161" lon="1.81943">
        <ele>115.626564</ele>
        <time>2021-09-08T09:36:00.000Z</time>
      </trkpt>
      <trkpt lat="47.94156" lon="1.81956">
        <ele>115.661889</ele>
        <time>2021-09-08T09:36:02.000Z</time>
      </trkpt>
      <trkpt lat="47.94138" lon="1.81988">
        <ele>115.759609</ele>
        <time>2021-09-08T09:36:08.000Z</time>
      </trkpt>
      <trkpt lat="47.94123" lon="1.82022">
        <ele>115.851954</ele>
        <time>2021-09-08T09:36:14.000Z</time>
      </trkpt>
      <trkpt lat="47.94121" lon="1.82028">
        <ele>115.868192</ele>
        <time>2021-09-08T09:36:15.000Z</time>
      </trkpt>
      <trkpt lat="47.94098" lon="1.82076">
        <ele>116.002311</ele>
        <time>2021-09-08T09:36:23.000Z</time>
      </trkpt>
      <trkpt lat="47.94081" lon="1.82109">
        <ele>116.097418</ele>
        <time>2021-09-08T09:36:29.000Z</time>
      </trkpt>
      <trkpt lat="47.94078" lon="1.82114">
        <ele>116.111317</ele>
        <time>2021-09-08T09:36:30.000Z</time>
      </trkpt>
      <trkpt lat="47.94071" lon="1.82121">
        <ele>116.139224</ele>
        <time>2021-09-08T09:36:32.000Z</time>
      </trkpt>
      <trkpt lat="47.94063" lon="1.82136">
        <ele>116.181861</ele>
        <time>2021-09-08T09:36:35.000Z</time>
      </trkpt>
      <trkpt lat="47.94061" lon="1.82142">
        <ele>116.196881</ele>
        <time>2021-09-08T09:36:36.000Z</time>
      </trkpt>
      <trkpt lat="47.94037" lon="1.82187">
        <ele>116.323131</ele>
        <time>2021-09-08T09:36:44.000Z</time>
      </trkpt>
      <trkpt lat="47.94026" lon="1.8221">
        <ele>116.385849</ele>
        <time>2021-09-08T09:36:48.000Z</time>
      </trkpt>
      <trkpt lat="47.94022" lon="1.82224">
        <ele>116.419029</ele>
        <time>2021-09-08T09:36:50.000Z</time>
      </trkpt>
      <trkpt lat="47.94017" lon="1.82237">
        <ele>116.451592</ele>
        <time>2021-09-08T09:36:52.000Z</time>
      </trkpt>
      <trkpt lat="47.94011" lon="1.82249">
        <ele>116.484657</ele>
        <time>2021-09-08T09:36:54.000Z</time>
      </trkpt>
      <trkpt lat="47.94007" lon="1.82254">
        <ele>116.501067</ele>
        <time>2021-09-08T09:36:55.000Z</time>
      </trkpt>
      <trkpt lat="47.93993" lon="1.82285">
        <ele>116.584619</ele>
        <time>2021-09-08T09:37:01.000Z</time>
      </trkpt>
      <trkpt lat="47.93976" lon="1.82315">
        <ele>116.673087</ele>
        <time>2021-09-08T09:37:08.000Z</time>
      </trkpt>
      <trkpt lat="47.93957" lon="1.82355">
        <ele>116.811459</ele>
        <time>2021-09-08T09:37:16.000Z</time>
      </trkpt>
      <trkpt lat="47.93938" lon="1.82394">
        <ele>116.94744</ele>
        <time>2021-09-08T09:37:23.000Z</time>
      </trkpt>
      <trkpt lat="47.93914" lon="1.82429">
        <ele>117.087159</ele>
        <time>2021-09-08T09:37:30.000Z</time>
      </trkpt>
      <trkpt lat="47.9391" lon="1.82433">
        <ele>117.106808</ele>
        <time>2021-09-08T09:37:31.000Z</time>
      </trkpt>
      <trkpt lat="47.93894" lon="1.8245">
        <ele>117.187663</ele>
        <time>2021-09-08T09:37:35.000Z</time>
      </trkpt>
      <trkpt lat="47.93861" lon="1.82483">
        <ele>117.356328</ele>
        <time>2021-09-08T09:37:43.000Z</time>
      </trkpt>
      <trkpt lat="47.93822" lon="1.82523">
        <ele>117.51068</ele>
        <time>2021-09-08T09:37:52.000Z</time>
      </trkpt>
      <trkpt lat="47.93786" lon="1.82557">
        <ele>117.637242</ele>
        <time>2021-09-08T09:38:00.000Z</time>
      </trkpt>
      <trkpt lat="47.93748" lon="1.82596">
        <ele>117.773095</ele>
        <time>2021-09-08T09:38:09.000Z</time>
      </trkpt>
      <trkpt lat="47.93736" lon="1.82608">
        <ele>117.815105</ele>
        <time>2021-09-08T09:38:12.000Z</time>
      </trkpt>
      <trkpt lat="47.93723" lon="1.82617">
        <ele>117.855473</ele>
        <time>2021-09-08T09:38:15.000Z</time>
      </trkpt>
      <trkpt lat="47.93719" lon="1.82619">
        <ele>117.868801</ele>
        <time>2021-09-08T09:38:16.000Z</time>
      </trkpt>
      <trkpt lat="47.93715" lon="1.82622">
        <ele>117.882171</ele>
        <time>2021-09-08T09:38:17.000Z</time>
      </trkpt>
      <trkpt lat="47.93708" lon="1.82631">
        <ele>117.909357</ele>
        <time>2021-09-08T09:38:19.000Z</time>
      </trkpt>
      <trkpt lat="47.93705" lon="1.82637">
        <ele>117.923203</ele>
        <time>2021-09-08T09:38:20.000Z</time>
      </trkpt>
      <trkpt lat="47.93702" lon="1.82641">
        <ele>117.936428</ele>
        <time>2021-09-08T09:38:21.000Z</time>
      </trkpt>
      <trkpt lat="47.93687" lon="1.82658">
        <ele>118.066674</ele>
        <time>2021-09-08T09:38:25.000Z</time>
      </trkpt>
      <trkpt lat="47.93675" lon="1.82669">
        <ele>118.163262</ele>
        <time>2021-09-08T09:38:28.000Z</time>
      </trkpt>
      <trkpt lat="47.93661" lon="1.82684">
        <ele>118.286928</ele>
        <time>2021-09-08T09:38:32.000Z</time>
      </trkpt>
      <trkpt lat="47.93635" lon="1.82714">
        <ele>118.521354</ele>
        <time>2021-09-08T09:38:40.000Z</time>
      </trkpt>
      <trkpt lat="47.93618" lon="1.82732">
        <ele>118.663808</ele>
        <time>2021-09-08T09:38:45.000Z</time>
      </trkpt>
      <trkpt lat="47.93609" lon="1.82744">
        <ele>118.748863</ele>
        <time>2021-09-08T09:38:48.000Z</time>
      </trkpt>
      <trkpt lat="47.93581" lon="1.82777">
        <ele>119.002439</ele>
        <time>2021-09-08T09:38:57.000Z</time>
      </trkpt>
      <trkpt lat="47.93547" lon="1.82821">
        <ele>119.307161</ele>
        <time>2021-09-08T09:39:08.000Z</time>
      </trkpt>
      <trkpt lat="47.93523" lon="1.82855">
        <ele>119.510538</ele>
        <time>2021-09-08T09:39:16.000Z</time>
      </trkpt>
      <trkpt lat="47.9352" lon="1.82859">
        <ele>119.535874</ele>
        <time>2021-09-08T09:39:17.000Z</time>
      </trkpt>
      <trkpt lat="47.93502" lon="1.82887">
        <ele>119.698307</ele>
        <time>2021-09-08T09:39:23.000Z</time>
      </trkpt>
      <trkpt lat="47.93495" lon="1.82896">
        <ele>119.754841</ele>
        <time>2021-09-08T09:39:25.000Z</time>
      </trkpt>
      <trkpt lat="47.93481" lon="1.82917">
        <ele>119.876376</ele>
        <time>2021-09-08T09:39:29.000Z</time>
      </trkpt>
      <trkpt lat="47.93461" lon="1.82949">
        <ele>120.055477</ele>
        <time>2021-09-08T09:39:35.000Z</time>
      </trkpt>
      <trkpt lat="47.93433" lon="1.82992">
        <ele>120.303834</ele>
        <time>2021-09-08T09:39:43.000Z</time>
      </trkpt>
      <trkpt lat="47.93405" lon="1.83037">
        <ele>120.478211</ele>
        <time>2021-09-08T09:39:51.000Z</time>
      </trkpt>
      <trkpt lat="47.93372" lon="1.83086">
        <ele>120.667907</ele>
        <time>2021-09-08T09:40:00.000Z</time>
      </trkpt>
      <trkpt lat="47.93346" lon="1.83123">
        <ele>120.814216</ele>
        <time>2021-09-08T09:40:07.000Z</time>
      </trkpt>
      <trkpt lat="47.9332" lon="1.83165">
        <ele>120.970056</ele>
        <time>2021-09-08T09:40:15.000Z</time>
      </trkpt>
      <trkpt lat="47.93297" lon="1.832">
        <ele>121.158798</ele>
        <time>2021-09-08T09:40:22.000Z</time>
      </trkpt>
      <trkpt lat="47.93293" lon="1.83204">
        <ele>121.199336</ele>
        <time>2021-09-08T09:40:23.000Z</time>
      </trkpt>
      <trkpt lat="47.93276" lon="1.83229">
        <ele>121.398626</ele>
        <time>2021-09-08T09:40:28.000Z</time>
      </trkpt>
      <trkpt lat="47.93274" lon="1.83234">
        <ele>121.434644</ele>
        <time>2021-09-08T09:40:29.000Z</time>
      </trkpt>
      <trkpt lat="47.93262" lon="1.83254">
        <ele>121.583639</ele>
        <time>2021-09-08T09:40:33.000Z</time>
      </trkpt>
      <trkpt lat="47.93259" lon="1.83259">
        <ele>121.622689</ele>
        <time>2021-09-08T09:40:34.000Z</time>
      </trkpt>
      <trkpt lat="47.93235" lon="1.83303">
        <ele>121.948044</ele>
        <time>2021-09-08T09:40:42.000Z</time>
      </trkpt>
      <trkpt lat="47.93217" lon="1.83333">
        <ele>122.176085</ele>
        <time>2021-09-08T09:40:49.000Z</time>
      </trkpt>
      <trkpt lat="47.93212" lon="1.83341">
        <ele>122.236354</ele>
        <time>2021-09-08T09:40:53.000Z</time>
      </trkpt>
      <trkpt lat="47.93211" lon="1.83341">
        <ele>122.244867</ele>
        <time>2021-09-08T09:40:54.000Z</time>
      </trkpt>
      <trkpt lat="47.9321" lon="1.83342">
        <ele>122.254068</ele>
        <time>2021-09-08T09:40:55.000Z</time>
      </trkpt>
      <trkpt lat="47.93206" lon="1.83349">
        <ele>122.305781</ele>
        <time>2021-09-08T09:40:58.000Z</time>
      </trkpt>
      <trkpt lat="47.93202" lon="1.83358">
        <ele>122.371035</ele>
        <time>2021-09-08T09:41:00.000Z</time>
      </trkpt>
      <trkpt lat="47.93193" lon="1.83372">
        <ele>122.482105</ele>
        <time>2021-09-08T09:41:03.000Z</time>
      </trkpt>
      <trkpt lat="47.93174" lon="1.83407">
        <ele>122.64326</ele>
        <time>2021-09-08T09:41:09.000Z</time>
      </trkpt>
      <trkpt lat="47.93147" lon="1.83457">
        <ele>122.786909</ele>
        <time>2021-09-08T09:41:17.000Z</time>
      </trkpt>
      <trkpt lat="47.93114" lon="1.83522">
        <ele>122.971685</ele>
        <time>2021-09-08T09:41:27.000Z</time>
      </trkpt>
      <trkpt lat="47.9309" lon="1.83568">
        <ele>123.10199</ele>
        <time>2021-09-08T09:41:34.000Z</time>
      </trkpt>
      <trkpt lat="47.93059" lon="1.83628">
        <ele>123.048151</ele>
        <time>2021-09-08T09:41:43.000Z</time>
      </trkpt>
      <trkpt lat="47.9304" lon="1.83662">
        <ele>122.895167</ele>
        <time>2021-09-08T09:41:48.000Z</time>
      </trkpt>
      <trkpt lat="47.9303" lon="1.83682">
        <ele>122.804113</ele>
        <time>2021-09-08T09:41:51.000Z</time>
      </trkpt>
      <trkpt lat="47.93001" lon="1.83736">
        <ele>122.56463</ele>
        <time>2021-09-08T09:41:59.000Z</time>
      </trkpt>
      <trkpt lat="47.92979" lon="1.83775">
        <ele>122.386775</ele>
        <time>2021-09-08T09:42:06.000Z</time>
      </trkpt>
      <trkpt lat="47.92957" lon="1.83815">
        <ele>122.181374</ele>
        <time>2021-09-08T09:42:14.000Z</time>
      </trkpt>
      <trkpt lat="47.92934" lon="1.83855">
        <ele>121.895174</ele>
        <time>2021-09-08T09:42:23.000Z</time>
      </trkpt>
      <trkpt lat="47.92919" lon="1.8388">
        <ele>121.71708</ele>
        <time>2021-09-08T09:42:29.000Z</time>
      </trkpt>
      <trkpt lat="47.929" lon="1.83914">
        <ele>121.476051</ele>
        <time>2021-09-08T09:42:37.000Z</time>
      </trkpt>
      <trkpt lat="47.92888" lon="1.83938">
        <ele>121.314463</ele>
        <time>2021-09-08T09:42:43.000Z</time>
      </trkpt>
      <trkpt lat="47.92877" lon="1.83956">
        <ele>121.18411</ele>
        <time>2021-09-08T09:42:49.000Z</time>
      </trkpt>
      <trkpt lat="47.92876" lon="1.83957">
        <ele>121.169438</ele>
        <time>2021-09-08T09:42:52.000Z</time>
      </trkpt>
      <trkpt lat="47.92874" lon="1.83964">
        <ele>121.129723</ele>
        <time>2021-09-08T09:43:08.000Z</time>
      </trkpt>
      <trkpt lat="47.92871" lon="1.83971">
        <ele>121.082145</ele>
        <time>2021-09-08T09:43:10.000Z</time>
      </trkpt>
      <trkpt lat="47.92856" lon="1.83997">
        <ele>120.898888</ele>
        <time>2021-09-08T09:43:16.000Z</time>
      </trkpt>
      <trkpt lat="47.92838" lon="1.84034">
        <ele>120.803956</ele>
        <time>2021-09-08T09:43:24.000Z</time>
      </trkpt>
      <trkpt lat="47.92819" lon="1.84068">
        <ele>120.820005</ele>
        <time>2021-09-08T09:43:32.000Z</time>
      </trkpt>
      <trkpt lat="47.92808" lon="1.84088">
        <ele>120.829031</ele>
        <time>2021-09-08T09:43:37.000Z</time>
      </trkpt>
      <trkpt lat="47.92803" lon="1.84098">
        <ele>120.833452</ele>
        <time>2021-09-08T09:43:43.000Z</time>
      </trkpt>
      <trkpt lat="47.92793" lon="1.84115">
        <ele>120.841645</ele>
        <time>2021-09-08T09:43:49.000Z</time>
      </trkpt>
      <trkpt lat="47.92782" lon="1.84136">
        <ele>120.851567</ele>
        <time>2021-09-08T09:43:56.000Z</time>
      </trkpt>
      <trkpt lat="47.9277" lon="1.8416">
        <ele>120.862077</ele>
        <time>2021-09-08T09:44:01.000Z</time>
      </trkpt>
      <trkpt lat="47.92751" lon="1.84198">
        <ele>120.879049</ele>
        <time>2021-09-08T09:44:07.000Z</time>
      </trkpt>
      <trkpt lat="47.92727" lon="1.84248">
        <ele>120.662349</ele>
        <time>2021-09-08T09:44:14.000Z</time>
      </trkpt>
      <trkpt lat="47.92698" lon="1.84299">
        <ele>120.116364</ele>
        <time>2021-09-08T09:44:21.000Z</time>
      </trkpt>
      <trkpt lat="47.9267" lon="1.84352">
        <ele>119.568192</ele>
        <time>2021-09-08T09:44:28.000Z</time>
      </trkpt>
      <trkpt lat="47.92638" lon="1.84414">
        <ele>118.93981</ele>
        <time>2021-09-08T09:44:36.000Z</time>
      </trkpt>
      <trkpt lat="47.9261" lon="1.84471">
        <ele>118.22525</ele>
        <time>2021-09-08T09:44:43.000Z</time>
      </trkpt>
      <trkpt lat="47.92579" lon="1.84527">
        <ele>117.401394</ele>
        <time>2021-09-08T09:44:50.000Z</time>
      </trkpt>
      <trkpt lat="47.92554" lon="1.84578">
        <ele>116.684943</ele>
        <time>2021-09-08T09:44:56.000Z</time>
      </trkpt>
      <trkpt lat="47.92538" lon="1.8461">
        <ele>116.234957</ele>
        <time>2021-09-08T09:45:00.000Z</time>
      </trkpt>
      <trkpt lat="47.92532" lon="1.84626">
        <ele>116.025089</ele>
        <time>2021-09-08T09:45:02.000Z</time>
      </trkpt>
      <trkpt lat="47.92508" lon="1.84668">
        <ele>115.449155</ele>
        <time>2021-09-08T09:45:08.000Z</time>
      </trkpt>
      <trkpt lat="47.92481" lon="1.84721">
        <ele>114.814977</ele>
        <time>2021-09-08T09:45:15.000Z</time>
      </trkpt>
      <trkpt lat="47.92477" lon="1.84728">
        <ele>114.729112</ele>
        <time>2021-09-08T09:45:16.000Z</time>
      </trkpt>
      <trkpt lat="47.9245" lon="1.84776">
        <ele>114.124966</ele>
        <time>2021-09-08T09:45:23.000Z</time>
      </trkpt>
      <trkpt lat="47.92418" lon="1.84835">
        <ele>113.403037</ele>
        <time>2021-09-08T09:45:32.000Z</time>
      </trkpt>
      <trkpt lat="47.92392" lon="1.84885">
        <ele>113.069141</ele>
        <time>2021-09-08T09:45:40.000Z</time>
      </trkpt>
      <trkpt lat="47.92385" lon="1.84895">
        <ele>113.048576</ele>
        <time>2021-09-08T09:45:42.000Z</time>
      </trkpt>
      <trkpt lat="47.92374" lon="1.84911">
        <ele>113.016775</ele>
        <time>2021-09-08T09:45:45.000Z</time>
      </trkpt>
      <trkpt lat="47.92353" lon="1.8496">
        <ele>112.932549</ele>
        <time>2021-09-08T09:45:52.000Z</time>
      </trkpt>
      <trkpt lat="47.92324" lon="1.8501">
        <ele>112.839614</ele>
        <time>2021-09-08T09:46:01.000Z</time>
      </trkpt>
      <trkpt lat="47.92298" lon="1.85058">
        <ele>112.751134</ele>
        <time>2021-09-08T09:46:10.000Z</time>
      </trkpt>
      <trkpt lat="47.92274" lon="1.851">
        <ele>112.905543</ele>
        <time>2021-09-08T09:46:18.000Z</time>
      </trkpt>
      <trkpt lat="47.92254" lon="1.85135">
        <ele>113.087048</ele>
        <time>2021-09-08T09:46:25.000Z</time>
      </trkpt>
      <trkpt lat="47.92229" lon="1.85182">
        <ele>113.326907</ele>
        <time>2021-09-08T09:46:34.000Z</time>
      </trkpt>
      <trkpt lat="47.92204" lon="1.85231">
        <ele>113.569029</ele>
        <time>2021-09-08T09:46:44.000Z</time>
      </trkpt>
      <trkpt lat="47.92181" lon="1.85273">
        <ele>113.779441</ele>
        <time>2021-09-08T09:46:53.000Z</time>
      </trkpt>
      <trkpt lat="47.92165" lon="1.85306">
        <ele>114.016924</ele>
        <time>2021-09-08T09:47:00.000Z</time>
      </trkpt>
      <trkpt lat="47.92155" lon="1.85328">
        <ele>114.171029</ele>
        <time>2021-09-08T09:47:06.000Z</time>
      </trkpt>
      <trkpt lat="47.92149" lon="1.85337">
        <ele>114.247265</ele>
        <time>2021-09-08T09:47:12.000Z</time>
      </trkpt>
      <trkpt lat="47.92143" lon="1.85344">
        <ele>114.316854</ele>
        <time>2021-09-08T09:47:17.000Z</time>
      </trkpt>
      <trkpt lat="47.92134" lon="1.85359">
        <ele>114.434604</ele>
        <time>2021-09-08T09:47:22.000Z</time>
      </trkpt>
      <trkpt lat="47.92122" lon="1.85383">
        <ele>114.611416</ele>
        <time>2021-09-08T09:47:28.000Z</time>
      </trkpt>
      <trkpt lat="47.92114" lon="1.85402">
        <ele>114.74786</ele>
        <time>2021-09-08T09:47:33.000Z</time>
      </trkpt>
      <trkpt lat="47.92106" lon="1.85417">
        <ele>114.857054</ele>
        <time>2021-09-08T09:47:36.000Z</time>
      </trkpt>
      <trkpt lat="47.92099" lon="1.8543">
        <ele>114.95825</ele>
        <time>2021-09-08T09:47:39.000Z</time>
      </trkpt>
      <trkpt lat="47.92085" lon="1.85458">
        <ele>115.160551</ele>
        <time>2021-09-08T09:47:44.000Z</time>
      </trkpt>
      <trkpt lat="47.92079" lon="1.8547">
        <ele>115.24794</ele>
        <time>2021-09-08T09:47:46.000Z</time>
      </trkpt>
      <trkpt lat="47.92064" lon="1.85499">
        <ele>115.325171</ele>
        <time>2021-09-08T09:47:51.000Z</time>
      </trkpt>
      <trkpt lat="47.92061" lon="1.85504">
        <ele>115.303751</ele>
        <time>2021-09-08T09:47:52.000Z</time>
      </trkpt>
      <trkpt lat="47.92044" lon="1.85536">
        <ele>115.166143</ele>
        <time>2021-09-08T09:47:58.000Z</time>
      </trkpt>
      <trkpt lat="47.9203" lon="1.85561">
        <ele>115.060226</ele>
        <time>2021-09-08T09:48:03.000Z</time>
      </trkpt>
      <trkpt lat="47.92017" lon="1.8559">
        <ele>114.942205</ele>
        <time>2021-09-08T09:48:09.000Z</time>
      </trkpt>
      <trkpt lat="47.92002" lon="1.85615">
        <ele>114.829278</ele>
        <time>2021-09-08T09:48:15.000Z</time>
      </trkpt>
      <trkpt lat="47.91992" lon="1.85637">
        <ele>114.740414</ele>
        <time>2021-09-08T09:48:21.000Z</time>
      </trkpt>
      <trkpt lat="47.91978" lon="1.85661">
        <ele>114.634805</ele>
        <time>2021-09-08T09:48:27.000Z</time>
      </trkpt>
      <trkpt lat="47.91966" lon="1.85684">
        <ele>114.534337</ele>
        <time>2021-09-08T09:48:33.000Z</time>
      </trkpt>
      <trkpt lat="47.91962" lon="1.85695">
        <ele>114.49346</ele>
        <time>2021-09-08T09:48:35.000Z</time>
      </trkpt>
      <trkpt lat="47.9195" lon="1.85716">
        <ele>114.485456</ele>
        <time>2021-09-08T09:48:39.000Z</time>
      </trkpt>
      <trkpt lat="47.91936" lon="1.85743">
        <ele>114.494123</ele>
        <time>2021-09-08T09:48:44.000Z</time>
      </trkpt>
      <trkpt lat="47.9193" lon="1.85754">
        <ele>114.497695</ele>
        <time>2021-09-08T09:48:46.000Z</time>
      </trkpt>
      <trkpt lat="47.91918" lon="1.85776">
        <ele>114.504714</ele>
        <time>2021-09-08T09:48:50.000Z</time>
      </trkpt>
      <trkpt lat="47.91908" lon="1.85792">
        <ele>114.509994</ele>
        <time>2021-09-08T09:48:53.000Z</time>
      </trkpt>
      <trkpt lat="47.91888" lon="1.85828">
        <ele>114.521607</ele>
        <time>2021-09-08T09:49:00.000Z</time>
      </trkpt>
      <trkpt lat="47.91873" lon="1.85858">
        <ele>114.530994</ele>
        <time>2021-09-08T09:49:06.000Z</time>
      </trkpt>
      <trkpt lat="47.91867" lon="1.85868">
        <ele>114.534245</ele>
        <time>2021-09-08T09:49:08.000Z</time>
      </trkpt>
      <trkpt lat="47.91838" lon="1.85922">
        <ele>114.650687</ele>
        <time>2021-09-08T09:49:19.000Z</time>
      </trkpt>
      <trkpt lat="47.91822" lon="1.85952">
        <ele>114.845634</ele>
        <time>2021-09-08T09:49:25.000Z</time>
      </trkpt>
      <trkpt lat="47.91802" lon="1.85993">
        <ele>115.105948</ele>
        <time>2021-09-08T09:49:33.000Z</time>
      </trkpt>
      <trkpt lat="47.91783" lon="1.86035">
        <ele>115.368131</ele>
        <time>2021-09-08T09:49:41.000Z</time>
      </trkpt>
      <trkpt lat="47.91762" lon="1.86082">
        <ele>115.658128</ele>
        <time>2021-09-08T09:49:50.000Z</time>
      </trkpt>
      <trkpt lat="47.91756" lon="1.86097">
        <ele>115.751211</ele>
        <time>2021-09-08T09:49:53.000Z</time>
      </trkpt>
      <trkpt lat="47.91747" lon="1.86118">
        <ele>115.878921</ele>
        <time>2021-09-08T09:49:57.000Z</time>
      </trkpt>
      <trkpt lat="47.9173" lon="1.8616">
        <ele>115.9556</ele>
        <time>2021-09-08T09:50:05.000Z</time>
      </trkpt>
      <trkpt lat="47.91726" lon="1.8617">
        <ele>115.964561</ele>
        <time>2021-09-08T09:50:07.000Z</time>
      </trkpt>
      <trkpt lat="47.91719" lon="1.86192">
        <ele>115.982739</ele>
        <time>2021-09-08T09:50:11.000Z</time>
      </trkpt>
      <trkpt lat="47.91717" lon="1.86198">
        <ele>115.987449</ele>
        <time>2021-09-08T09:50:12.000Z</time>
      </trkpt>
      <trkpt lat="47.917" lon="1.86245">
        <ele>116.028146</ele>
        <time>2021-09-08T09:50:20.000Z</time>
      </trkpt>
      <trkpt lat="47.91686" lon="1.86289">
        <ele>116.064384</ele>
        <time>2021-09-08T09:50:26.000Z</time>
      </trkpt>
      <trkpt lat="47.91667" lon="1.86344">
        <ele>116.111215</ele>
        <time>2021-09-08T09:50:33.000Z</time>
      </trkpt>
      <trkpt lat="47.91645" lon="1.86411">
        <ele>115.929587</ele>
        <time>2021-09-08T09:50:41.000Z</time>
      </trkpt>
      <trkpt lat="47.91626" lon="1.86464">
        <ele>115.701291</ele>
        <time>2021-09-08T09:50:48.000Z</time>
      </trkpt>
      <trkpt lat="47.91615" lon="1.865">
        <ele>115.550368</ele>
        <time>2021-09-08T09:50:54.000Z</time>
      </trkpt>
      <trkpt lat="47.91601" lon="1.86542">
        <ele>115.369287</ele>
        <time>2021-09-08T09:51:00.000Z</time>
      </trkpt>
      <trkpt lat="47.91598" lon="1.8655">
        <ele>115.33705</ele>
        <time>2021-09-08T09:51:01.000Z</time>
      </trkpt>
      <trkpt lat="47.91589" lon="1.86581">
        <ele>115.206881</ele>
        <time>2021-09-08T09:51:05.000Z</time>
      </trkpt>
      <trkpt lat="47.91571" lon="1.8664">
        <ele>114.969228</ele>
        <time>2021-09-08T09:51:13.000Z</time>
      </trkpt>
      <trkpt lat="47.91553" lon="1.86689">
        <ele>114.764525</ele>
        <time>2021-09-08T09:51:20.000Z</time>
      </trkpt>
      <trkpt lat="47.91535" lon="1.8674">
        <ele>114.558602</ele>
        <time>2021-09-08T09:51:27.000Z</time>
      </trkpt>
      <trkpt lat="47.91517" lon="1.8679">
        <ele>114.349625</ele>
        <time>2021-09-08T09:51:34.000Z</time>
      </trkpt>
      <trkpt lat="47.91497" lon="1.86845">
        <ele>114.137413</ele>
        <time>2021-09-08T09:51:42.000Z</time>
      </trkpt>
      <trkpt lat="47.9149" lon="1.86856">
        <ele>114.152551</ele>
        <time>2021-09-08T09:51:44.000Z</time>
      </trkpt>
      <trkpt lat="47.9148" lon="1.86873">
        <ele>114.175274</ele>
        <time>2021-09-08T09:51:47.000Z</time>
      </trkpt>
      <trkpt lat="47.91472" lon="1.86891">
        <ele>114.196515</ele>
        <time>2021-09-08T09:51:50.000Z</time>
      </trkpt>
      <trkpt lat="47.91468" lon="1.86904">
        <ele>114.21019</ele>
        <time>2021-09-08T09:51:52.000Z</time>
      </trkpt>
      <trkpt lat="47.91466" lon="1.86918">
        <ele>114.22448</ele>
        <time>2021-09-08T09:51:54.000Z</time>
      </trkpt>
      <trkpt lat="47.91464" lon="1.8694">
        <ele>114.246876</ele>
        <time>2021-09-08T09:51:57.000Z</time>
      </trkpt>
      <trkpt lat="47.91461" lon="1.86954">
        <ele>114.26161</ele>
        <time>2021-09-08T09:51:59.000Z</time>
      </trkpt>
      <trkpt lat="47.91454" lon="1.86982">
        <ele>114.291072</ele>
        <time>2021-09-08T09:52:03.000Z</time>
      </trkpt>
      <trkpt lat="47.91445" lon="1.87009">
        <ele>114.320826</ele>
        <time>2021-09-08T09:52:07.000Z</time>
      </trkpt>
      <trkpt lat="47.91438" lon="1.8703">
        <ele>114.343751</ele>
        <time>2021-09-08T09:52:10.000Z</time>
      </trkpt>
      <trkpt lat="47.91424" lon="1.87076">
        <ele>114.394194</ele>
        <time>2021-09-08T09:52:17.000Z</time>
      </trkpt>
      <trkpt lat="47.91409" lon="1.8712">
        <ele>114.435125</ele>
        <time>2021-09-08T09:52:24.000Z</time>
      </trkpt>
      <trkpt lat="47.91402" lon="1.87146">
        <ele>114.457425</ele>
        <time>2021-09-08T09:52:28.000Z</time>
      </trkpt>
      <trkpt lat="47.91398" lon="1.87159">
        <ele>114.469109</ele>
        <time>2021-09-08T09:52:30.000Z</time>
      </trkpt>
      <trkpt lat="47.91385" lon="1.87194">
        <ele>114.502087</ele>
        <time>2021-09-08T09:52:36.000Z</time>
      </trkpt>
      <trkpt lat="47.91377" lon="1.87218">
        <ele>114.523279</ele>
        <time>2021-09-08T09:52:40.000Z</time>
      </trkpt>
      <trkpt lat="47.91361" lon="1.87269">
        <ele>114.568839</ele>
        <time>2021-09-08T09:52:48.000Z</time>
      </trkpt>
      <trkpt lat="47.91348" lon="1.87311">
        <ele>114.605709</ele>
        <time>2021-09-08T09:52:55.000Z</time>
      </trkpt>
      <trkpt lat="47.9133" lon="1.87362">
        <ele>114.454792</ele>
        <time>2021-09-08T09:53:03.000Z</time>
      </trkpt>
      <trkpt lat="47.9131" lon="1.87411">
        <ele>114.236956</ele>
        <time>2021-09-08T09:53:11.000Z</time>
      </trkpt>
      <trkpt lat="47.91284" lon="1.87477">
        <ele>113.952103</ele>
        <time>2021-09-08T09:53:21.000Z</time>
      </trkpt>
      <trkpt lat="47.91267" lon="1.87526">
        <ele>113.744235</ele>
        <time>2021-09-08T09:53:28.000Z</time>
      </trkpt>
      <trkpt lat="47.91249" lon="1.8757">
        <ele>113.524408</ele>
        <time>2021-09-08T09:53:35.000Z</time>
      </trkpt>
      <trkpt lat="47.91242" lon="1.87583">
        <ele>113.42959</ele>
        <time>2021-09-08T09:53:40.000Z</time>
      </trkpt>
      <trkpt lat="47.91232" lon="1.87605">
        <ele>113.28988</ele>
        <time>2021-09-08T09:53:47.000Z</time>
      </trkpt>
      <trkpt lat="47.91215" lon="1.87642">
        <ele>113.041063</ele>
        <time>2021-09-08T09:53:54.000Z</time>
      </trkpt>
      <trkpt lat="47.91194" lon="1.87689">
        <ele>112.731534</ele>
        <time>2021-09-08T09:54:01.000Z</time>
      </trkpt>
      <trkpt lat="47.91165" lon="1.87753">
        <ele>112.305587</ele>
        <time>2021-09-08T09:54:10.000Z</time>
      </trkpt>
      <trkpt lat="47.91141" lon="1.87806">
        <ele>111.84762</ele>
        <time>2021-09-08T09:54:17.000Z</time>
      </trkpt>
      <trkpt lat="47.91131" lon="1.87829">
        <ele>111.623703</ele>
        <time>2021-09-08T09:54:20.000Z</time>
      </trkpt>
      <trkpt lat="47.91128" lon="1.87836">
        <ele>111.549988</ele>
        <time>2021-09-08T09:54:21.000Z</time>
      </trkpt>
      <trkpt lat="47.91108" lon="1.87887">
        <ele>111.054948</ele>
        <time>2021-09-08T09:54:27.000Z</time>
      </trkpt>
      <trkpt lat="47.91081" lon="1.87951">
        <ele>110.418198</ele>
        <time>2021-09-08T09:54:35.000Z</time>
      </trkpt>
      <trkpt lat="47.91065" lon="1.87988">
        <ele>110.03788</ele>
        <time>2021-09-08T09:54:40.000Z</time>
      </trkpt>
      <trkpt lat="47.91058" lon="1.88002">
        <ele>109.898887</ele>
        <time>2021-09-08T09:54:42.000Z</time>
      </trkpt>
      <trkpt lat="47.91052" lon="1.88015">
        <ele>109.822299</ele>
        <time>2021-09-08T09:54:44.000Z</time>
      </trkpt>
      <trkpt lat="47.91041" lon="1.88039">
        <ele>109.714124</ele>
        <time>2021-09-08T09:54:48.000Z</time>
      </trkpt>
      <trkpt lat="47.91032" lon="1.88066">
        <ele>109.599124</ele>
        <time>2021-09-08T09:54:53.000Z</time>
      </trkpt>
      <trkpt lat="47.91021" lon="1.88091">
        <ele>109.488114</ele>
        <time>2021-09-08T09:54:59.000Z</time>
      </trkpt>
      <trkpt lat="47.91017" lon="1.88094">
        <ele>109.462087</ele>
        <time>2021-09-08T09:55:02.000Z</time>
      </trkpt>
      <trkpt lat="47.91016" lon="1.88096">
        <ele>109.449801</ele>
        <time>2021-09-08T09:55:03.000Z</time>
      </trkpt>
      <trkpt lat="47.91011" lon="1.88103">
        <ele>109.413961</ele>
        <time>2021-09-08T09:55:06.000Z</time>
      </trkpt>
      <trkpt lat="47.91008" lon="1.88115">
        <ele>109.364563</ele>
        <time>2021-09-08T09:55:12.000Z</time>
      </trkpt>
      <trkpt lat="47.91004" lon="1.88127">
        <ele>109.314362</ele>
        <time>2021-09-08T09:55:16.000Z</time>
      </trkpt>
      <trkpt lat="47.90999" lon="1.88142">
        <ele>109.249273</ele>
        <time>2021-09-08T09:55:19.000Z</time>
      </trkpt>
      <trkpt lat="47.90994" lon="1.88154">
        <ele>109.198789</ele>
        <time>2021-09-08T09:55:21.000Z</time>
      </trkpt>
      <trkpt lat="47.90975" lon="1.88199">
        <ele>108.995452</ele>
        <time>2021-09-08T09:55:29.000Z</time>
      </trkpt>
      <trkpt lat="47.9096" lon="1.88237">
        <ele>108.882793</ele>
        <time>2021-09-08T09:55:37.000Z</time>
      </trkpt>
      <trkpt lat="47.90952" lon="1.88255">
        <ele>108.960654</ele>
        <time>2021-09-08T09:55:42.000Z</time>
      </trkpt>
      <trkpt lat="47.90947" lon="1.88261">
        <ele>108.991589</ele>
        <time>2021-09-08T09:55:47.000Z</time>
      </trkpt>
      <trkpt lat="47.90938" lon="1.88279">
        <ele>109.071283</ele>
        <time>2021-09-08T09:55:52.000Z</time>
      </trkpt>
      <trkpt lat="47.90924" lon="1.88309">
        <ele>109.198978</ele>
        <time>2021-09-08T09:55:58.000Z</time>
      </trkpt>
      <trkpt lat="47.9091" lon="1.88346">
        <ele>109.349924</ele>
        <time>2021-09-08T09:56:05.000Z</time>
      </trkpt>
      <trkpt lat="47.90896" lon="1.88386">
        <ele>109.508842</ele>
        <time>2021-09-08T09:56:13.000Z</time>
      </trkpt>
      <trkpt lat="47.90893" lon="1.88392">
        <ele>109.533727</ele>
        <time>2021-09-08T09:56:16.000Z</time>
      </trkpt>
      <trkpt lat="47.90892" lon="1.88395">
        <ele>109.546118</ele>
        <time>2021-09-08T09:56:17.000Z</time>
      </trkpt>
      <trkpt lat="47.90884" lon="1.88415">
        <ele>109.62734</ele>
        <time>2021-09-08T09:56:22.000Z</time>
      </trkpt>
      <trkpt lat="47.9087" lon="1.88449">
        <ele>109.769063</ele>
        <time>2021-09-08T09:56:29.000Z</time>
      </trkpt>
      <trkpt lat="47.90858" lon="1.8848">
        <ele>110.003452</ele>
        <time>2021-09-08T09:56:35.000Z</time>
      </trkpt>
      <trkpt lat="47.90847" lon="1.88506">
        <ele>110.23775</ele>
        <time>2021-09-08T09:56:40.000Z</time>
      </trkpt>
      <trkpt lat="47.90834" lon="1.88534">
        <ele>110.499896</ele>
        <time>2021-09-08T09:56:46.000Z</time>
      </trkpt>
      <trkpt lat="47.90821" lon="1.88563">
        <ele>110.766498</ele>
        <time>2021-09-08T09:56:52.000Z</time>
      </trkpt>
      <trkpt lat="47.90806" lon="1.88597">
        <ele>111.074467</ele>
        <time>2021-09-08T09:56:59.000Z</time>
      </trkpt>
      <trkpt lat="47.90789" lon="1.88632">
        <ele>111.410616</ele>
        <time>2021-09-08T09:57:07.000Z</time>
      </trkpt>
      <trkpt lat="47.90773" lon="1.88669">
        <ele>111.748495</ele>
        <time>2021-09-08T09:57:15.000Z</time>
      </trkpt>
      <trkpt lat="47.90761" lon="1.88694">
        <ele>111.898509</ele>
        <time>2021-09-08T09:57:21.000Z</time>
      </trkpt>
      <trkpt lat="47.90751" lon="1.88716">
        <ele>111.968312</ele>
        <time>2021-09-08T09:57:26.000Z</time>
      </trkpt>
      <trkpt lat="47.90746" lon="1.88728">
        <ele>112.005492</ele>
        <time>2021-09-08T09:57:28.000Z</time>
      </trkpt>
      <trkpt lat="47.90738" lon="1.88744">
        <ele>112.058337</ele>
        <time>2021-09-08T09:57:31.000Z</time>
      </trkpt>
      <trkpt lat="47.90721" lon="1.88782">
        <ele>112.178325</ele>
        <time>2021-09-08T09:57:37.000Z</time>
      </trkpt>
      <trkpt lat="47.90699" lon="1.88827">
        <ele>112.323646</ele>
        <time>2021-09-08T09:57:44.000Z</time>
      </trkpt>
      <trkpt lat="47.90685" lon="1.88855">
        <ele>112.413492</ele>
        <time>2021-09-08T09:57:48.000Z</time>
      </trkpt>
      <trkpt lat="47.90678" lon="1.8887">
        <ele>112.460224</ele>
        <time>2021-09-08T09:57:50.000Z</time>
      </trkpt>
      <trkpt lat="47.90669" lon="1.88892">
        <ele>112.529364</ele>
        <time>2021-09-08T09:57:53.000Z</time>
      </trkpt>
      <trkpt lat="47.90662" lon="1.88906">
        <ele>112.544336</ele>
        <time>2021-09-08T09:57:55.000Z</time>
      </trkpt>
      <trkpt lat="47.90646" lon="1.88941">
        <ele>112.466687</ele>
        <time>2021-09-08T09:58:00.000Z</time>
      </trkpt>
      <trkpt lat="47.90639" lon="1.88961">
        <ele>112.424695</ele>
        <time>2021-09-08T09:58:03.000Z</time>
      </trkpt>
      <trkpt lat="47.90634" lon="1.88976">
        <ele>112.393885</ele>
        <time>2021-09-08T09:58:06.000Z</time>
      </trkpt>
      <trkpt lat="47.90628" lon="1.88999">
        <ele>112.347494</ele>
        <time>2021-09-08T09:58:12.000Z</time>
      </trkpt>
      <trkpt lat="47.90619" lon="1.89012">
        <ele>112.314593</ele>
        <time>2021-09-08T09:58:15.000Z</time>
      </trkpt>
      <trkpt lat="47.90612" lon="1.89031">
        <ele>112.275392</ele>
        <time>2021-09-08T09:58:18.000Z</time>
      </trkpt>
      <trkpt lat="47.9061" lon="1.89037">
        <ele>112.26132</ele>
        <time>2021-09-08T09:58:19.000Z</time>
      </trkpt>
      <trkpt lat="47.90592" lon="1.89086">
        <ele>112.160018</ele>
        <time>2021-09-08T09:58:26.000Z</time>
      </trkpt>
      <trkpt lat="47.90572" lon="1.89136">
        <ele>112.078379</ele>
        <time>2021-09-08T09:58:33.000Z</time>
      </trkpt>
      <trkpt lat="47.90557" lon="1.89167">
        <ele>112.207997</ele>
        <time>2021-09-08T09:58:38.000Z</time>
      </trkpt>
      <trkpt lat="47.90555" lon="1.89175">
        <ele>112.233823</ele>
        <time>2021-09-08T09:58:41.000Z</time>
      </trkpt>
      <trkpt lat="47.90553" lon="1.89179">
        <ele>112.250449</ele>
        <time>2021-09-08T09:59:00.000Z</time>
      </trkpt>
      <trkpt lat="47.9055" lon="1.89186">
        <ele>112.278545</ele>
        <time>2021-09-08T09:59:02.000Z</time>
      </trkpt>
      <trkpt lat="47.90139" lon="1.89363">
        <ele>113.679008</ele>
        <time>2021-09-08T10:02:19.000Z</time>
      </trkpt>
      <trkpt lat="47.90139" lon="1.89366">
        <ele>113.676351</ele>
        <time>2021-09-08T10:02:22.000Z</time>
      </trkpt>
      <trkpt lat="47.90137" lon="1.8937">
        <ele>113.671913</ele>
        <time>2021-09-08T10:02:37.000Z</time>
      </trkpt>
      <trkpt lat="47.9014" lon="1.89387">
        <ele>113.655918</ele>
        <time>2021-09-08T10:02:41.000Z</time>
      </trkpt>
      <trkpt lat="47.90145" lon="1.89424">
        <ele>113.624461</ele>
        <time>2021-09-08T10:02:48.000Z</time>
      </trkpt>
      <trkpt lat="47.9015" lon="1.89471">
        <ele>113.482589</ele>
        <time>2021-09-08T10:02:56.000Z</time>
      </trkpt>
      <trkpt lat="47.90155" lon="1.89505">
        <ele>113.113422</ele>
        <time>2021-09-08T10:03:02.000Z</time>
      </trkpt>
      <trkpt lat="47.90158" lon="1.89537">
        <ele>112.770929</ele>
        <time>2021-09-08T10:03:08.000Z</time>
      </trkpt>
      <trkpt lat="47.9016" lon="1.8956">
        <ele>112.525482</ele>
        <time>2021-09-08T10:03:14.000Z</time>
      </trkpt>
      <trkpt lat="47.90164" lon="1.89591">
        <ele>112.19264</ele>
        <time>2021-09-08T10:03:22.000Z</time>
      </trkpt>
      <trkpt lat="47.9017" lon="1.89631">
        <ele>111.763427</ele>
        <time>2021-09-08T10:03:29.000Z</time>
      </trkpt>
      <trkpt lat="47.90174" lon="1.89679">
        <ele>111.246617</ele>
        <time>2021-09-08T10:03:37.000Z</time>
      </trkpt>
      <trkpt lat="47.90174" lon="1.89699">
        <ele>111.043019</ele>
        <time>2021-09-08T10:03:41.000Z</time>
      </trkpt>
      <trkpt lat="47.90172" lon="1.89719">
        <ele>110.826934</ele>
        <time>2021-09-08T10:03:46.000Z</time>
      </trkpt>
      <trkpt lat="47.90169" lon="1.89725">
        <ele>110.772351</ele>
        <time>2021-09-08T10:03:48.000Z</time>
      </trkpt>
      <trkpt lat="47.9017" lon="1.89733">
        <ele>110.81349</ele>
        <time>2021-09-08T10:03:50.000Z</time>
      </trkpt>
      <trkpt lat="47.90174" lon="1.89757">
        <ele>110.933527</ele>
        <time>2021-09-08T10:03:57.000Z</time>
      </trkpt>
      <trkpt lat="47.90174" lon="1.89767">
        <ele>110.982425</ele>
        <time>2021-09-08T10:04:00.000Z</time>
      </trkpt>
      <trkpt lat="47.90174" lon="1.89772">
        <ele>111.011189</ele>
        <time>2021-09-08T10:04:02.000Z</time>
      </trkpt>
      <trkpt lat="47.90178" lon="1.89791">
        <ele>111.106505</ele>
        <time>2021-09-08T10:04:08.000Z</time>
      </trkpt>
      <trkpt lat="47.9018" lon="1.89797">
        <ele>111.142613</ele>
        <time>2021-09-08T10:04:11.000Z</time>
      </trkpt>
      <trkpt lat="47.90183" lon="1.89802">
        <ele>111.172635</ele>
        <time>2021-09-08T10:04:13.000Z</time>
      </trkpt>
      <trkpt lat="47.90184" lon="1.89819">
        <ele>111.257914</ele>
        <time>2021-09-08T10:04:18.000Z</time>
      </trkpt>
      <trkpt lat="47.90186" lon="1.89828">
        <ele>111.304072</ele>
        <time>2021-09-08T10:04:22.000Z</time>
      </trkpt>
      <trkpt lat="47.90187" lon="1.89836">
        <ele>111.344113</ele>
        <time>2021-09-08T10:04:30.000Z</time>
      </trkpt>
      <trkpt lat="47.90187" lon="1.89844">
        <ele>111.388373</ele>
        <time>2021-09-08T10:04:32.000Z</time>
      </trkpt>
      <trkpt lat="47.90185" lon="1.89869">
        <ele>111.512564</ele>
        <time>2021-09-08T10:04:37.000Z</time>
      </trkpt>
      <trkpt lat="47.90182" lon="1.899">
        <ele>111.663753</ele>
        <time>2021-09-08T10:04:43.000Z</time>
      </trkpt>
      <trkpt lat="47.90178" lon="1.89938">
        <ele>111.853141</ele>
        <time>2021-09-08T10:04:50.000Z</time>
      </trkpt>
      <trkpt lat="47.90174" lon="1.89977">
        <ele>112.04994</ele>
        <time>2021-09-08T10:04:57.000Z</time>
      </trkpt>
      <trkpt lat="47.90167" lon="1.90022">
        <ele>113.151009</ele>
        <time>2021-09-08T10:05:05.000Z</time>
      </trkpt>
      <trkpt lat="47.90162" lon="1.90057">
        <ele>114.161371</ele>
        <time>2021-09-08T10:05:12.000Z</time>
      </trkpt>
      <trkpt lat="47.90157" lon="1.90087">
        <ele>115.014927</ele>
        <time>2021-09-08T10:05:19.000Z</time>
      </trkpt>
      <trkpt lat="47.90152" lon="1.90118">
        <ele>115.89265</ele>
        <time>2021-09-08T10:05:27.000Z</time>
      </trkpt>
      <trkpt lat="47.90149" lon="1.90135">
        <ele>116.394098</ele>
        <time>2021-09-08T10:05:32.000Z</time>
      </trkpt>
      <trkpt lat="47.90142" lon="1.90161">
        <ele>117.165587</ele>
        <time>2021-09-08T10:05:39.000Z</time>
      </trkpt>
      <trkpt lat="47.90134" lon="1.90175">
        <ele>117.677424</ele>
        <time>2021-09-08T10:05:45.000Z</time>
      </trkpt>
      <trkpt lat="47.90131" lon="1.90203">
        <ele>118.482864</ele>
        <time>2021-09-08T10:05:51.000Z</time>
      </trkpt>
      <trkpt lat="47.9013" lon="1.90228">
        <ele>119.159445</ele>
        <time>2021-09-08T10:05:57.000Z</time>
      </trkpt>
      <trkpt lat="47.90133" lon="1.90257">
        <ele>119.553267</ele>
        <time>2021-09-08T10:06:05.000Z</time>
      </trkpt>
      <trkpt lat="47.90133" lon="1.90277">
        <ele>119.553267</ele>
        <time>2021-09-08T10:06:11.000Z</time>
      </trkpt>
      <trkpt lat="47.90132" lon="1.90278">
        <ele>119.553267</ele>
        <time>2021-09-08T10:06:12.000Z</time>
      </trkpt>
      <trkpt lat="47.90131" lon="1.90285">
        <ele>119.553267</ele>
        <time>2021-09-08T10:06:18.000Z</time>
      </trkpt>
      <trkpt lat="47.90134" lon="1.90295">
        <ele>119.553267</ele>
        <time>2021-09-08T10:06:23.000Z</time>
      </trkpt>
      <trkpt lat="47.90135" lon="1.90301">
        <ele>119.553267</ele>
        <time>2021-09-08T10:06:25.000Z</time>
      </trkpt>
      <trkpt lat="47.90137" lon="1.90306">
        <ele>119.553267</ele>
        <time>2021-09-08T10:06:27.000Z</time>
      </trkpt>
      <trkpt lat="47.90138" lon="1.90328">
        <ele>119.553267</ele>
        <time>2021-09-08T10:06:32.000Z</time>
      </trkpt>
      <trkpt lat="47.90139" lon="1.90356">
        <ele>119.553267</ele>
        <time>2021-09-08T10:06:38.000Z</time>
      </trkpt>
      <trkpt lat="47.9014" lon="1.90378">
        <ele>119.553267</ele>
        <time>2021-09-08T10:06:44.000Z</time>
      </trkpt>
      <trkpt lat="47.9014" lon="1.90379">
        <ele>119.553267</ele>
        <time>2021-09-08T10:06:46.000Z</time>
      </trkpt>
      <trkpt lat="47.90137" lon="1.90383">
        <ele>119.553267</ele>
        <time>2021-09-08T10:06:55.000Z</time>
      </trkpt>
      <trkpt lat="47.90136" lon="1.90384">
        <ele>119.553267</ele>
        <time>2021-09-08T10:06:56.000Z</time>
      </trkpt>
      <trkpt lat="47.90134" lon="1.90387">
        <ele>119.553267</ele>
        <time>2021-09-08T10:07:01.000Z</time>
      </trkpt>
    </trkseg>
  </trk>
</gpx>